<?xml version="1.0" encoding="UTF-8" standalone="no" ?>
<gpx xmlns="http://www.topografix.com/GPX/1/1" xmlns:xsi="http://www.w3.org/2001/XMLSchema-instance" xsi:schemaLocation="http://www.topografix.com/GPX/1/1 http://www.topografix.com/GPX/1/1/gpx.xsd" version="1.1" creator="VisuGPX - https://www.visugpx.com">
  <metadata>
    <name>au dessus de Beuregard</name>
    <desc><![CDATA[belle rando automnale attention descente raide du pas de l Alignier]]></desc>
  </metadata>
  <trk>
    <name><![CDATA[pre5sous]]></name>
    <trkseg>
      <trkpt lat="44.99168" lon="5.19802">
        <ele>601</ele>
        <time>2014-11-24T09:52:53Z</time>
      </trkpt>
      <trkpt lat="44.99163" lon="5.19803">
        <ele>605</ele>
        <time>2014-11-24T09:54:00Z</time>
      </trkpt>
      <trkpt lat="44.99169" lon="5.19811">
        <ele>602</ele>
        <time>2014-11-24T09:55:14Z</time>
      </trkpt>
      <trkpt lat="44.99171" lon="5.198">
        <ele>557</ele>
        <time>2014-11-24T09:58:09Z</time>
      </trkpt>
      <trkpt lat="44.99178" lon="5.19805">
        <ele>547</ele>
        <time>2014-11-24T10:00:10Z</time>
      </trkpt>
      <trkpt lat="44.99187" lon="5.19804">
        <ele>546</ele>
        <time>2014-11-24T10:00:21Z</time>
      </trkpt>
      <trkpt lat="44.99195" lon="5.19804">
        <ele>546</ele>
        <time>2014-11-24T10:00:33Z</time>
      </trkpt>
      <trkpt lat="44.99203" lon="5.19804">
        <ele>545</ele>
        <time>2014-11-24T10:00:38Z</time>
      </trkpt>
      <trkpt lat="44.9921" lon="5.19803">
        <ele>547</ele>
        <time>2014-11-24T10:00:45Z</time>
      </trkpt>
      <trkpt lat="44.99217" lon="5.198">
        <ele>550</ele>
        <time>2014-11-24T10:00:53Z</time>
      </trkpt>
      <trkpt lat="44.99225" lon="5.19797">
        <ele>553</ele>
        <time>2014-11-24T10:01:01Z</time>
      </trkpt>
      <trkpt lat="44.99232" lon="5.19792">
        <ele>557</ele>
        <time>2014-11-24T10:01:09Z</time>
      </trkpt>
      <trkpt lat="44.9924" lon="5.19787">
        <ele>559</ele>
        <time>2014-11-24T10:01:17Z</time>
      </trkpt>
      <trkpt lat="44.99247" lon="5.19784">
        <ele>558</ele>
        <time>2014-11-24T10:01:29Z</time>
      </trkpt>
      <trkpt lat="44.99256" lon="5.19783">
        <ele>559</ele>
        <time>2014-11-24T10:01:37Z</time>
      </trkpt>
      <trkpt lat="44.99264" lon="5.1978">
        <ele>560</ele>
        <time>2014-11-24T10:01:45Z</time>
      </trkpt>
      <trkpt lat="44.9927" lon="5.19774">
        <ele>562</ele>
        <time>2014-11-24T10:01:50Z</time>
      </trkpt>
      <trkpt lat="44.99277" lon="5.19771">
        <ele>564</ele>
        <time>2014-11-24T10:02:01Z</time>
      </trkpt>
      <trkpt lat="44.99284" lon="5.19764">
        <ele>571</ele>
        <time>2014-11-24T10:02:10Z</time>
      </trkpt>
      <trkpt lat="44.99291" lon="5.19761">
        <ele>569</ele>
        <time>2014-11-24T10:02:17Z</time>
      </trkpt>
      <trkpt lat="44.99298" lon="5.19757">
        <ele>572</ele>
        <time>2014-11-24T10:02:25Z</time>
      </trkpt>
      <trkpt lat="44.99306" lon="5.19751">
        <ele>575</ele>
        <time>2014-11-24T10:02:33Z</time>
      </trkpt>
      <trkpt lat="44.99314" lon="5.19749">
        <ele>572</ele>
        <time>2014-11-24T10:02:41Z</time>
      </trkpt>
      <trkpt lat="44.99322" lon="5.19744">
        <ele>575</ele>
        <time>2014-11-24T10:02:49Z</time>
      </trkpt>
      <trkpt lat="44.99329" lon="5.19737">
        <ele>578</ele>
        <time>2014-11-24T10:02:57Z</time>
      </trkpt>
      <trkpt lat="44.99335" lon="5.19732">
        <ele>580</ele>
        <time>2014-11-24T10:03:05Z</time>
      </trkpt>
      <trkpt lat="44.99341" lon="5.19728">
        <ele>579</ele>
        <time>2014-11-24T10:03:13Z</time>
      </trkpt>
      <trkpt lat="44.99348" lon="5.19727">
        <ele>579</ele>
        <time>2014-11-24T10:03:21Z</time>
      </trkpt>
      <trkpt lat="44.99356" lon="5.19725">
        <ele>576</ele>
        <time>2014-11-24T10:03:26Z</time>
      </trkpt>
      <trkpt lat="44.99364" lon="5.19724">
        <ele>573</ele>
        <time>2014-11-24T10:03:33Z</time>
      </trkpt>
      <trkpt lat="44.9937" lon="5.19718">
        <ele>577</ele>
        <time>2014-11-24T10:03:41Z</time>
      </trkpt>
      <trkpt lat="44.99378" lon="5.19714">
        <ele>578</ele>
        <time>2014-11-24T10:03:49Z</time>
      </trkpt>
      <trkpt lat="44.99386" lon="5.19712">
        <ele>577</ele>
        <time>2014-11-24T10:03:57Z</time>
      </trkpt>
      <trkpt lat="44.99394" lon="5.19705">
        <ele>580</ele>
        <time>2014-11-24T10:04:05Z</time>
      </trkpt>
      <trkpt lat="44.99402" lon="5.19702">
        <ele>579</ele>
        <time>2014-11-24T10:04:13Z</time>
      </trkpt>
      <trkpt lat="44.99408" lon="5.19697">
        <ele>585</ele>
        <time>2014-11-24T10:04:21Z</time>
      </trkpt>
      <trkpt lat="44.99414" lon="5.19688">
        <ele>588</ele>
        <time>2014-11-24T10:04:29Z</time>
      </trkpt>
      <trkpt lat="44.99422" lon="5.19685">
        <ele>589</ele>
        <time>2014-11-24T10:04:37Z</time>
      </trkpt>
      <trkpt lat="44.99428" lon="5.19679">
        <ele>591</ele>
        <time>2014-11-24T10:04:42Z</time>
      </trkpt>
      <trkpt lat="44.99436" lon="5.19675">
        <ele>592</ele>
        <time>2014-11-24T10:04:50Z</time>
      </trkpt>
      <trkpt lat="44.99442" lon="5.19669">
        <ele>589</ele>
        <time>2014-11-24T10:04:57Z</time>
      </trkpt>
      <trkpt lat="44.99446" lon="5.19659">
        <ele>590</ele>
        <time>2014-11-24T10:05:05Z</time>
      </trkpt>
      <trkpt lat="44.9945" lon="5.19648">
        <ele>590</ele>
        <time>2014-11-24T10:05:13Z</time>
      </trkpt>
      <trkpt lat="44.99456" lon="5.1964">
        <ele>590</ele>
        <time>2014-11-24T10:05:22Z</time>
      </trkpt>
      <trkpt lat="44.99464" lon="5.19633">
        <ele>593</ele>
        <time>2014-11-24T10:05:33Z</time>
      </trkpt>
      <trkpt lat="44.99472" lon="5.19634">
        <ele>591</ele>
        <time>2014-11-24T10:05:41Z</time>
      </trkpt>
      <trkpt lat="44.9948" lon="5.19636">
        <ele>591</ele>
        <time>2014-11-24T10:05:53Z</time>
      </trkpt>
      <trkpt lat="44.99488" lon="5.19637">
        <ele>594</ele>
        <time>2014-11-24T10:06:02Z</time>
      </trkpt>
      <trkpt lat="44.99495" lon="5.19642">
        <ele>590</ele>
        <time>2014-11-24T10:06:09Z</time>
      </trkpt>
      <trkpt lat="44.99502" lon="5.19646">
        <ele>590</ele>
        <time>2014-11-24T10:06:14Z</time>
      </trkpt>
      <trkpt lat="44.99509" lon="5.1965">
        <ele>589</ele>
        <time>2014-11-24T10:06:21Z</time>
      </trkpt>
      <trkpt lat="44.99514" lon="5.19657">
        <ele>588</ele>
        <time>2014-11-24T10:06:30Z</time>
      </trkpt>
      <trkpt lat="44.99522" lon="5.19663">
        <ele>591</ele>
        <time>2014-11-24T10:06:41Z</time>
      </trkpt>
      <trkpt lat="44.99529" lon="5.1967">
        <ele>592</ele>
        <time>2014-11-24T10:06:49Z</time>
      </trkpt>
      <trkpt lat="44.99535" lon="5.19678">
        <ele>594</ele>
        <time>2014-11-24T10:06:57Z</time>
      </trkpt>
      <trkpt lat="44.99539" lon="5.19685">
        <ele>597</ele>
        <time>2014-11-24T10:07:05Z</time>
      </trkpt>
      <trkpt lat="44.99545" lon="5.19692">
        <ele>599</ele>
        <time>2014-11-24T10:07:10Z</time>
      </trkpt>
      <trkpt lat="44.99551" lon="5.19696">
        <ele>599</ele>
        <time>2014-11-24T10:07:17Z</time>
      </trkpt>
      <trkpt lat="44.99558" lon="5.19703">
        <ele>598</ele>
        <time>2014-11-24T10:07:25Z</time>
      </trkpt>
      <trkpt lat="44.99565" lon="5.19712">
        <ele>600</ele>
        <time>2014-11-24T10:07:33Z</time>
      </trkpt>
      <trkpt lat="44.99571" lon="5.1972">
        <ele>600</ele>
        <time>2014-11-24T10:07:41Z</time>
      </trkpt>
      <trkpt lat="44.99576" lon="5.19728">
        <ele>598</ele>
        <time>2014-11-24T10:07:49Z</time>
      </trkpt>
      <trkpt lat="44.99583" lon="5.19735">
        <ele>597</ele>
        <time>2014-11-24T10:07:57Z</time>
      </trkpt>
      <trkpt lat="44.99589" lon="5.19742">
        <ele>597</ele>
        <time>2014-11-24T10:08:04Z</time>
      </trkpt>
      <trkpt lat="44.99595" lon="5.19746">
        <ele>599</ele>
        <time>2014-11-24T10:08:09Z</time>
      </trkpt>
      <trkpt lat="44.99602" lon="5.19754">
        <ele>598</ele>
        <time>2014-11-24T10:08:17Z</time>
      </trkpt>
      <trkpt lat="44.99608" lon="5.19762">
        <ele>599</ele>
        <time>2014-11-24T10:08:25Z</time>
      </trkpt>
      <trkpt lat="44.99614" lon="5.1977">
        <ele>600</ele>
        <time>2014-11-24T10:08:33Z</time>
      </trkpt>
      <trkpt lat="44.9962" lon="5.19779">
        <ele>605</ele>
        <time>2014-11-24T10:08:44Z</time>
      </trkpt>
      <trkpt lat="44.99625" lon="5.19785">
        <ele>601</ele>
        <time>2014-11-24T10:08:52Z</time>
      </trkpt>
      <trkpt lat="44.99632" lon="5.19791">
        <ele>604</ele>
        <time>2014-11-24T10:09:00Z</time>
      </trkpt>
      <trkpt lat="44.99638" lon="5.19796">
        <ele>606</ele>
        <time>2014-11-24T10:09:05Z</time>
      </trkpt>
      <trkpt lat="44.99646" lon="5.19801">
        <ele>610</ele>
        <time>2014-11-24T10:09:13Z</time>
      </trkpt>
      <trkpt lat="44.99652" lon="5.19807">
        <ele>609</ele>
        <time>2014-11-24T10:09:20Z</time>
      </trkpt>
      <trkpt lat="44.9966" lon="5.19811">
        <ele>610</ele>
        <time>2014-11-24T10:09:26Z</time>
      </trkpt>
      <trkpt lat="44.99667" lon="5.19816">
        <ele>611</ele>
        <time>2014-11-24T10:09:36Z</time>
      </trkpt>
      <trkpt lat="44.99672" lon="5.19821">
        <ele>610</ele>
        <time>2014-11-24T10:09:41Z</time>
      </trkpt>
      <trkpt lat="44.99679" lon="5.19828">
        <ele>610</ele>
        <time>2014-11-24T10:09:52Z</time>
      </trkpt>
      <trkpt lat="44.99686" lon="5.19835">
        <ele>612</ele>
        <time>2014-11-24T10:10:04Z</time>
      </trkpt>
      <trkpt lat="44.99693" lon="5.19839">
        <ele>610</ele>
        <time>2014-11-24T10:10:12Z</time>
      </trkpt>
      <trkpt lat="44.99701" lon="5.19841">
        <ele>611</ele>
        <time>2014-11-24T10:10:17Z</time>
      </trkpt>
      <trkpt lat="44.99709" lon="5.19845">
        <ele>618</ele>
        <time>2014-11-24T10:10:29Z</time>
      </trkpt>
      <trkpt lat="44.99716" lon="5.19848">
        <ele>623</ele>
        <time>2014-11-24T10:10:37Z</time>
      </trkpt>
      <trkpt lat="44.99723" lon="5.19852">
        <ele>625</ele>
        <time>2014-11-24T10:10:45Z</time>
      </trkpt>
      <trkpt lat="44.9973" lon="5.19858">
        <ele>628</ele>
        <time>2014-11-24T10:10:53Z</time>
      </trkpt>
      <trkpt lat="44.99738" lon="5.19862">
        <ele>628</ele>
        <time>2014-11-24T10:11:00Z</time>
      </trkpt>
      <trkpt lat="44.99745" lon="5.19864">
        <ele>628</ele>
        <time>2014-11-24T10:11:05Z</time>
      </trkpt>
      <trkpt lat="44.99753" lon="5.19869">
        <ele>624</ele>
        <time>2014-11-24T10:11:13Z</time>
      </trkpt>
      <trkpt lat="44.99761" lon="5.19873">
        <ele>626</ele>
        <time>2014-11-24T10:11:21Z</time>
      </trkpt>
      <trkpt lat="44.99767" lon="5.19879">
        <ele>628</ele>
        <time>2014-11-24T10:11:29Z</time>
      </trkpt>
      <trkpt lat="44.99774" lon="5.19886">
        <ele>628</ele>
        <time>2014-11-24T10:11:42Z</time>
      </trkpt>
      <trkpt lat="44.9978" lon="5.19889">
        <ele>629</ele>
        <time>2014-11-24T10:11:48Z</time>
      </trkpt>
      <trkpt lat="44.99787" lon="5.19896">
        <ele>631</ele>
        <time>2014-11-24T10:11:53Z</time>
      </trkpt>
      <trkpt lat="44.99794" lon="5.19904">
        <ele>627</ele>
        <time>2014-11-24T10:12:04Z</time>
      </trkpt>
      <trkpt lat="44.99801" lon="5.1991">
        <ele>626</ele>
        <time>2014-11-24T10:12:12Z</time>
      </trkpt>
      <trkpt lat="44.99808" lon="5.19915">
        <ele>627</ele>
        <time>2014-11-24T10:12:20Z</time>
      </trkpt>
      <trkpt lat="44.99816" lon="5.19918">
        <ele>637</ele>
        <time>2014-11-24T10:12:28Z</time>
      </trkpt>
      <trkpt lat="44.99823" lon="5.19923">
        <ele>638</ele>
        <time>2014-11-24T10:12:36Z</time>
      </trkpt>
      <trkpt lat="44.9983" lon="5.19929">
        <ele>637</ele>
        <time>2014-11-24T10:12:44Z</time>
      </trkpt>
      <trkpt lat="44.99838" lon="5.19936">
        <ele>628</ele>
        <time>2014-11-24T10:12:53Z</time>
      </trkpt>
      <trkpt lat="44.99846" lon="5.19938">
        <ele>636</ele>
        <time>2014-11-24T10:13:01Z</time>
      </trkpt>
      <trkpt lat="44.99853" lon="5.19939">
        <ele>636</ele>
        <time>2014-11-24T10:13:08Z</time>
      </trkpt>
      <trkpt lat="44.99861" lon="5.19937">
        <ele>642</ele>
        <time>2014-11-24T10:13:16Z</time>
      </trkpt>
      <trkpt lat="44.99869" lon="5.19934">
        <ele>646</ele>
        <time>2014-11-24T10:13:24Z</time>
      </trkpt>
      <trkpt lat="44.99878" lon="5.19931">
        <ele>650</ele>
        <time>2014-11-24T10:13:33Z</time>
      </trkpt>
      <trkpt lat="44.99885" lon="5.1993">
        <ele>642</ele>
        <time>2014-11-24T10:13:40Z</time>
      </trkpt>
      <trkpt lat="44.99892" lon="5.19924">
        <ele>647</ele>
        <time>2014-11-24T10:13:48Z</time>
      </trkpt>
      <trkpt lat="44.99899" lon="5.1992">
        <ele>652</ele>
        <time>2014-11-24T10:13:56Z</time>
      </trkpt>
      <trkpt lat="44.99906" lon="5.19918">
        <ele>655</ele>
        <time>2014-11-24T10:14:04Z</time>
      </trkpt>
      <trkpt lat="44.99914" lon="5.19917">
        <ele>656</ele>
        <time>2014-11-24T10:14:12Z</time>
      </trkpt>
      <trkpt lat="44.99922" lon="5.19916">
        <ele>660</ele>
        <time>2014-11-24T10:14:21Z</time>
      </trkpt>
      <trkpt lat="44.99928" lon="5.19922">
        <ele>658</ele>
        <time>2014-11-24T10:15:04Z</time>
      </trkpt>
      <trkpt lat="44.99935" lon="5.19927">
        <ele>661</ele>
        <time>2014-11-24T10:15:10Z</time>
      </trkpt>
      <trkpt lat="44.99943" lon="5.19929">
        <ele>661</ele>
        <time>2014-11-24T10:15:20Z</time>
      </trkpt>
      <trkpt lat="44.99951" lon="5.19934">
        <ele>657</ele>
        <time>2014-11-24T10:15:29Z</time>
      </trkpt>
      <trkpt lat="44.99959" lon="5.19933">
        <ele>666</ele>
        <time>2014-11-24T10:15:40Z</time>
      </trkpt>
      <trkpt lat="44.99968" lon="5.19932">
        <ele>665</ele>
        <time>2014-11-24T10:15:46Z</time>
      </trkpt>
      <trkpt lat="44.99973" lon="5.19931">
        <ele>664</ele>
        <time>2014-11-24T10:15:52Z</time>
      </trkpt>
      <trkpt lat="44.99981" lon="5.19931">
        <ele>666</ele>
        <time>2014-11-24T10:15:57Z</time>
      </trkpt>
      <trkpt lat="44.99988" lon="5.19929">
        <ele>664</ele>
        <time>2014-11-24T10:16:05Z</time>
      </trkpt>
      <trkpt lat="44.99997" lon="5.19931">
        <ele>668</ele>
        <time>2014-11-24T10:16:13Z</time>
      </trkpt>
      <trkpt lat="45.00004" lon="5.19931">
        <ele>668</ele>
        <time>2014-11-24T10:16:20Z</time>
      </trkpt>
      <trkpt lat="45.00012" lon="5.19929">
        <ele>675</ele>
        <time>2014-11-24T10:16:32Z</time>
      </trkpt>
      <trkpt lat="45.00018" lon="5.19934">
        <ele>674</ele>
        <time>2014-11-24T10:16:37Z</time>
      </trkpt>
      <trkpt lat="45.00027" lon="5.19937">
        <ele>674</ele>
        <time>2014-11-24T10:16:45Z</time>
      </trkpt>
      <trkpt lat="45.00033" lon="5.19945">
        <ele>672</ele>
        <time>2014-11-24T10:16:53Z</time>
      </trkpt>
      <trkpt lat="45.0004" lon="5.19947">
        <ele>672</ele>
        <time>2014-11-24T10:17:00Z</time>
      </trkpt>
      <trkpt lat="45.00048" lon="5.19949">
        <ele>672</ele>
        <time>2014-11-24T10:17:05Z</time>
      </trkpt>
      <trkpt lat="45.00056" lon="5.19951">
        <ele>669</ele>
        <time>2014-11-24T10:17:12Z</time>
      </trkpt>
      <trkpt lat="45.00063" lon="5.19955">
        <ele>671</ele>
        <time>2014-11-24T10:17:20Z</time>
      </trkpt>
      <trkpt lat="45.00071" lon="5.19961">
        <ele>670</ele>
        <time>2014-11-24T10:17:29Z</time>
      </trkpt>
      <trkpt lat="45.00078" lon="5.19967">
        <ele>671</ele>
        <time>2014-11-24T10:17:36Z</time>
      </trkpt>
      <trkpt lat="45.00085" lon="5.19968">
        <ele>669</ele>
        <time>2014-11-24T10:17:41Z</time>
      </trkpt>
      <trkpt lat="45.00092" lon="5.19974">
        <ele>666</ele>
        <time>2014-11-24T10:17:49Z</time>
      </trkpt>
      <trkpt lat="45.00101" lon="5.19978">
        <ele>669</ele>
        <time>2014-11-24T10:17:57Z</time>
      </trkpt>
      <trkpt lat="45.00108" lon="5.19979">
        <ele>672</ele>
        <time>2014-11-24T10:18:04Z</time>
      </trkpt>
      <trkpt lat="45.00115" lon="5.19985">
        <ele>670</ele>
        <time>2014-11-24T10:18:12Z</time>
      </trkpt>
      <trkpt lat="45.00121" lon="5.1999">
        <ele>668</ele>
        <time>2014-11-24T10:18:17Z</time>
      </trkpt>
      <trkpt lat="45.00128" lon="5.19995">
        <ele>671</ele>
        <time>2014-11-24T10:18:24Z</time>
      </trkpt>
      <trkpt lat="45.00134" lon="5.20001">
        <ele>670</ele>
        <time>2014-11-24T10:18:32Z</time>
      </trkpt>
      <trkpt lat="45.0014" lon="5.20005">
        <ele>671</ele>
        <time>2014-11-24T10:18:37Z</time>
      </trkpt>
      <trkpt lat="45.00146" lon="5.20011">
        <ele>673</ele>
        <time>2014-11-24T10:18:44Z</time>
      </trkpt>
      <trkpt lat="45.00153" lon="5.20018">
        <ele>671</ele>
        <time>2014-11-24T10:18:50Z</time>
      </trkpt>
      <trkpt lat="45.00158" lon="5.20027">
        <ele>671</ele>
        <time>2014-11-24T10:18:58Z</time>
      </trkpt>
      <trkpt lat="45.00163" lon="5.20038">
        <ele>672</ele>
        <time>2014-11-24T10:19:06Z</time>
      </trkpt>
      <trkpt lat="45.00168" lon="5.20047">
        <ele>674</ele>
        <time>2014-11-24T10:19:13Z</time>
      </trkpt>
      <trkpt lat="45.00173" lon="5.20057">
        <ele>676</ele>
        <time>2014-11-24T10:19:21Z</time>
      </trkpt>
      <trkpt lat="45.00177" lon="5.20066">
        <ele>676</ele>
        <time>2014-11-24T10:19:28Z</time>
      </trkpt>
      <trkpt lat="45.0018" lon="5.20075">
        <ele>677</ele>
        <time>2014-11-24T10:19:36Z</time>
      </trkpt>
      <trkpt lat="45.00186" lon="5.20083">
        <ele>681</ele>
        <time>2014-11-24T10:19:42Z</time>
      </trkpt>
      <trkpt lat="45.00191" lon="5.20093">
        <ele>682</ele>
        <time>2014-11-24T10:19:52Z</time>
      </trkpt>
      <trkpt lat="45.00194" lon="5.20103">
        <ele>682</ele>
        <time>2014-11-24T10:19:57Z</time>
      </trkpt>
      <trkpt lat="45.00199" lon="5.20111">
        <ele>684</ele>
        <time>2014-11-24T10:20:04Z</time>
      </trkpt>
      <trkpt lat="45.00203" lon="5.2012">
        <ele>683</ele>
        <time>2014-11-24T10:20:09Z</time>
      </trkpt>
      <trkpt lat="45.00207" lon="5.20129">
        <ele>685</ele>
        <time>2014-11-24T10:20:16Z</time>
      </trkpt>
      <trkpt lat="45.00212" lon="5.20136">
        <ele>685</ele>
        <time>2014-11-24T10:20:21Z</time>
      </trkpt>
      <trkpt lat="45.00217" lon="5.20145">
        <ele>690</ele>
        <time>2014-11-24T10:20:29Z</time>
      </trkpt>
      <trkpt lat="45.0022" lon="5.20157">
        <ele>692</ele>
        <time>2014-11-24T10:20:38Z</time>
      </trkpt>
      <trkpt lat="45.00224" lon="5.20166">
        <ele>688</ele>
        <time>2014-11-24T10:20:45Z</time>
      </trkpt>
      <trkpt lat="45.00228" lon="5.20177">
        <ele>690</ele>
        <time>2014-11-24T10:20:53Z</time>
      </trkpt>
      <trkpt lat="45.00231" lon="5.20188">
        <ele>687</ele>
        <time>2014-11-24T10:21:00Z</time>
      </trkpt>
      <trkpt lat="45.00238" lon="5.20196">
        <ele>692</ele>
        <time>2014-11-24T10:21:09Z</time>
      </trkpt>
      <trkpt lat="45.00242" lon="5.20205">
        <ele>697</ele>
        <time>2014-11-24T10:21:17Z</time>
      </trkpt>
      <trkpt lat="45.00247" lon="5.20215">
        <ele>699</ele>
        <time>2014-11-24T10:21:25Z</time>
      </trkpt>
      <trkpt lat="45.00251" lon="5.20222">
        <ele>700</ele>
        <time>2014-11-24T10:21:32Z</time>
      </trkpt>
      <trkpt lat="45.00253" lon="5.20234">
        <ele>703</ele>
        <time>2014-11-24T10:21:40Z</time>
      </trkpt>
      <trkpt lat="45.00257" lon="5.20242">
        <ele>703</ele>
        <time>2014-11-24T10:21:45Z</time>
      </trkpt>
      <trkpt lat="45.00262" lon="5.20251">
        <ele>704</ele>
        <time>2014-11-24T10:21:52Z</time>
      </trkpt>
      <trkpt lat="45.00267" lon="5.20261">
        <ele>701</ele>
        <time>2014-11-24T10:21:58Z</time>
      </trkpt>
      <trkpt lat="45.00271" lon="5.2027">
        <ele>700</ele>
        <time>2014-11-24T10:22:04Z</time>
      </trkpt>
      <trkpt lat="45.00274" lon="5.2028">
        <ele>701</ele>
        <time>2014-11-24T10:22:09Z</time>
      </trkpt>
      <trkpt lat="45.00278" lon="5.20289">
        <ele>701</ele>
        <time>2014-11-24T10:22:16Z</time>
      </trkpt>
      <trkpt lat="45.0028" lon="5.203">
        <ele>701</ele>
        <time>2014-11-24T10:22:24Z</time>
      </trkpt>
      <trkpt lat="45.00282" lon="5.20312">
        <ele>701</ele>
        <time>2014-11-24T10:22:30Z</time>
      </trkpt>
      <trkpt lat="45.00285" lon="5.20322">
        <ele>705</ele>
        <time>2014-11-24T10:22:37Z</time>
      </trkpt>
      <trkpt lat="45.00287" lon="5.20334">
        <ele>707</ele>
        <time>2014-11-24T10:22:44Z</time>
      </trkpt>
      <trkpt lat="45.00292" lon="5.20344">
        <ele>708</ele>
        <time>2014-11-24T10:22:53Z</time>
      </trkpt>
      <trkpt lat="45.00294" lon="5.20356">
        <ele>708</ele>
        <time>2014-11-24T10:22:59Z</time>
      </trkpt>
      <trkpt lat="45.00295" lon="5.20367">
        <ele>704</ele>
        <time>2014-11-24T10:23:09Z</time>
      </trkpt>
      <trkpt lat="45.00298" lon="5.20377">
        <ele>702</ele>
        <time>2014-11-24T10:23:14Z</time>
      </trkpt>
      <trkpt lat="45.00296" lon="5.20389">
        <ele>707</ele>
        <time>2014-11-24T10:23:22Z</time>
      </trkpt>
      <trkpt lat="45.00296" lon="5.20401">
        <ele>715</ele>
        <time>2014-11-24T10:23:35Z</time>
      </trkpt>
      <trkpt lat="45.00299" lon="5.20413">
        <ele>714</ele>
        <time>2014-11-24T10:23:45Z</time>
      </trkpt>
      <trkpt lat="45.003" lon="5.20422">
        <ele>715</ele>
        <time>2014-11-24T10:23:49Z</time>
      </trkpt>
      <trkpt lat="45.00301" lon="5.20434">
        <ele>718</ele>
        <time>2014-11-24T10:23:57Z</time>
      </trkpt>
      <trkpt lat="45.00303" lon="5.20446">
        <ele>717</ele>
        <time>2014-11-24T10:24:05Z</time>
      </trkpt>
      <trkpt lat="45.00308" lon="5.20456">
        <ele>721</ele>
        <time>2014-11-24T10:24:17Z</time>
      </trkpt>
      <trkpt lat="45.0031" lon="5.20467">
        <ele>723</ele>
        <time>2014-11-24T10:24:22Z</time>
      </trkpt>
      <trkpt lat="45.00311" lon="5.20479">
        <ele>721</ele>
        <time>2014-11-24T10:24:31Z</time>
      </trkpt>
      <trkpt lat="45.00313" lon="5.2049">
        <ele>722</ele>
        <time>2014-11-24T10:24:38Z</time>
      </trkpt>
      <trkpt lat="45.00312" lon="5.20501">
        <ele>723</ele>
        <time>2014-11-24T10:24:45Z</time>
      </trkpt>
      <trkpt lat="45.00311" lon="5.20512">
        <ele>721</ele>
        <time>2014-11-24T10:24:53Z</time>
      </trkpt>
      <trkpt lat="45.00311" lon="5.20524">
        <ele>718</ele>
        <time>2014-11-24T10:25:03Z</time>
      </trkpt>
      <trkpt lat="45.00309" lon="5.20536">
        <ele>718</ele>
        <time>2014-11-24T10:25:15Z</time>
      </trkpt>
      <trkpt lat="45.00312" lon="5.20547">
        <ele>723</ele>
        <time>2014-11-24T10:25:23Z</time>
      </trkpt>
      <trkpt lat="45.0031" lon="5.20558">
        <ele>724</ele>
        <time>2014-11-24T10:25:31Z</time>
      </trkpt>
      <trkpt lat="45.00315" lon="5.20569">
        <ele>726</ele>
        <time>2014-11-24T10:25:40Z</time>
      </trkpt>
      <trkpt lat="45.00318" lon="5.2058">
        <ele>734</ele>
        <time>2014-11-24T10:25:50Z</time>
      </trkpt>
      <trkpt lat="45.00317" lon="5.20591">
        <ele>737</ele>
        <time>2014-11-24T10:25:59Z</time>
      </trkpt>
      <trkpt lat="45.00321" lon="5.20598">
        <ele>741</ele>
        <time>2014-11-24T10:26:06Z</time>
      </trkpt>
      <trkpt lat="45.00322" lon="5.20611">
        <ele>738</ele>
        <time>2014-11-24T10:26:15Z</time>
      </trkpt>
      <trkpt lat="45.00324" lon="5.20623">
        <ele>741</ele>
        <time>2014-11-24T10:26:23Z</time>
      </trkpt>
      <trkpt lat="45.00328" lon="5.20632">
        <ele>745</ele>
        <time>2014-11-24T10:26:30Z</time>
      </trkpt>
      <trkpt lat="45.00332" lon="5.20643">
        <ele>745</ele>
        <time>2014-11-24T10:26:36Z</time>
      </trkpt>
      <trkpt lat="45.00335" lon="5.20654">
        <ele>746</ele>
        <time>2014-11-24T10:26:43Z</time>
      </trkpt>
      <trkpt lat="45.00333" lon="5.20662">
        <ele>743</ele>
        <time>2014-11-24T10:26:50Z</time>
      </trkpt>
      <trkpt lat="45.00333" lon="5.20674">
        <ele>747</ele>
        <time>2014-11-24T10:26:56Z</time>
      </trkpt>
      <trkpt lat="45.00336" lon="5.20685">
        <ele>747</ele>
        <time>2014-11-24T10:27:05Z</time>
      </trkpt>
      <trkpt lat="45.00339" lon="5.20695">
        <ele>746</ele>
        <time>2014-11-24T10:27:13Z</time>
      </trkpt>
      <trkpt lat="45.00338" lon="5.20707">
        <ele>744</ele>
        <time>2014-11-24T10:27:23Z</time>
      </trkpt>
      <trkpt lat="45.00343" lon="5.20718">
        <ele>745</ele>
        <time>2014-11-24T10:27:33Z</time>
      </trkpt>
      <trkpt lat="45.00347" lon="5.20729">
        <ele>746</ele>
        <time>2014-11-24T10:27:47Z</time>
      </trkpt>
      <trkpt lat="45.00349" lon="5.20741">
        <ele>747</ele>
        <time>2014-11-24T10:27:59Z</time>
      </trkpt>
      <trkpt lat="45.0035" lon="5.20753">
        <ele>748</ele>
        <time>2014-11-24T10:28:12Z</time>
      </trkpt>
      <trkpt lat="45.0035" lon="5.20763">
        <ele>741</ele>
        <time>2014-11-24T10:28:23Z</time>
      </trkpt>
      <trkpt lat="45.00351" lon="5.20775">
        <ele>743</ele>
        <time>2014-11-24T10:28:35Z</time>
      </trkpt>
      <trkpt lat="45.00354" lon="5.20786">
        <ele>744</ele>
        <time>2014-11-24T10:28:51Z</time>
      </trkpt>
      <trkpt lat="45.00357" lon="5.20797">
        <ele>751</ele>
        <time>2014-11-24T10:29:08Z</time>
      </trkpt>
      <trkpt lat="45.0036" lon="5.20809">
        <ele>754</ele>
        <time>2014-11-24T10:29:20Z</time>
      </trkpt>
      <trkpt lat="45.00365" lon="5.20818">
        <ele>756</ele>
        <time>2014-11-24T10:29:35Z</time>
      </trkpt>
      <trkpt lat="45.0036" lon="5.20828">
        <ele>760</ele>
        <time>2014-11-24T10:29:48Z</time>
      </trkpt>
      <trkpt lat="45.00351" lon="5.2083">
        <ele>764</ele>
        <time>2014-11-24T10:31:44Z</time>
      </trkpt>
      <trkpt lat="45.00345" lon="5.20837">
        <ele>767</ele>
        <time>2014-11-24T10:31:53Z</time>
      </trkpt>
      <trkpt lat="45.00342" lon="5.20848">
        <ele>767</ele>
        <time>2014-11-24T10:32:01Z</time>
      </trkpt>
      <trkpt lat="45.00337" lon="5.20858">
        <ele>767</ele>
        <time>2014-11-24T10:32:15Z</time>
      </trkpt>
      <trkpt lat="45.00333" lon="5.20868">
        <ele>771</ele>
        <time>2014-11-24T10:32:27Z</time>
      </trkpt>
      <trkpt lat="45.00328" lon="5.20878">
        <ele>776</ele>
        <time>2014-11-24T10:32:40Z</time>
      </trkpt>
      <trkpt lat="45.00324" lon="5.20889">
        <ele>780</ele>
        <time>2014-11-24T10:32:55Z</time>
      </trkpt>
      <trkpt lat="45.00331" lon="5.20893">
        <ele>781</ele>
        <time>2014-11-24T10:33:11Z</time>
      </trkpt>
      <trkpt lat="45.0034" lon="5.2089">
        <ele>794</ele>
        <time>2014-11-24T10:33:24Z</time>
      </trkpt>
      <trkpt lat="45.00348" lon="5.20893">
        <ele>795</ele>
        <time>2014-11-24T10:33:36Z</time>
      </trkpt>
      <trkpt lat="45.00356" lon="5.20898">
        <ele>797</ele>
        <time>2014-11-24T10:33:44Z</time>
      </trkpt>
      <trkpt lat="45.00363" lon="5.20902">
        <ele>797</ele>
        <time>2014-11-24T10:33:56Z</time>
      </trkpt>
      <trkpt lat="45.00369" lon="5.2091">
        <ele>794</ele>
        <time>2014-11-24T10:34:04Z</time>
      </trkpt>
      <trkpt lat="45.00376" lon="5.20917">
        <ele>797</ele>
        <time>2014-11-24T10:34:15Z</time>
      </trkpt>
      <trkpt lat="45.00381" lon="5.20926">
        <ele>799</ele>
        <time>2014-11-24T10:34:32Z</time>
      </trkpt>
      <trkpt lat="45.00386" lon="5.20935">
        <ele>800</ele>
        <time>2014-11-24T10:34:47Z</time>
      </trkpt>
      <trkpt lat="45.0039" lon="5.20945">
        <ele>800</ele>
        <time>2014-11-24T10:35:03Z</time>
      </trkpt>
      <trkpt lat="45.00395" lon="5.20956">
        <ele>805</ele>
        <time>2014-11-24T10:35:15Z</time>
      </trkpt>
      <trkpt lat="45.00401" lon="5.20964">
        <ele>810</ele>
        <time>2014-11-24T10:35:23Z</time>
      </trkpt>
      <trkpt lat="45.00404" lon="5.20974">
        <ele>810</ele>
        <time>2014-11-24T10:35:31Z</time>
      </trkpt>
      <trkpt lat="45.0041" lon="5.2098">
        <ele>807</ele>
        <time>2014-11-24T10:35:39Z</time>
      </trkpt>
      <trkpt lat="45.00416" lon="5.20987">
        <ele>808</ele>
        <time>2014-11-24T10:35:44Z</time>
      </trkpt>
      <trkpt lat="45.00421" lon="5.20996">
        <ele>809</ele>
        <time>2014-11-24T10:35:52Z</time>
      </trkpt>
      <trkpt lat="45.00429" lon="5.21002">
        <ele>810</ele>
        <time>2014-11-24T10:36:03Z</time>
      </trkpt>
      <trkpt lat="45.00435" lon="5.2101">
        <ele>811</ele>
        <time>2014-11-24T10:36:12Z</time>
      </trkpt>
      <trkpt lat="45.00442" lon="5.21015">
        <ele>816</ele>
        <time>2014-11-24T10:36:23Z</time>
      </trkpt>
      <trkpt lat="45.00449" lon="5.21021">
        <ele>813</ele>
        <time>2014-11-24T10:36:28Z</time>
      </trkpt>
      <trkpt lat="45.00456" lon="5.21027">
        <ele>812</ele>
        <time>2014-11-24T10:36:36Z</time>
      </trkpt>
      <trkpt lat="45.00463" lon="5.21033">
        <ele>811</ele>
        <time>2014-11-24T10:36:43Z</time>
      </trkpt>
      <trkpt lat="45.00472" lon="5.21033">
        <ele>815</ele>
        <time>2014-11-24T10:36:52Z</time>
      </trkpt>
      <trkpt lat="45.0048" lon="5.21039">
        <ele>815</ele>
        <time>2014-11-24T10:37:00Z</time>
      </trkpt>
      <trkpt lat="45.00487" lon="5.21045">
        <ele>813</ele>
        <time>2014-11-24T10:37:08Z</time>
      </trkpt>
      <trkpt lat="45.00494" lon="5.2105">
        <ele>815</ele>
        <time>2014-11-24T10:37:23Z</time>
      </trkpt>
      <trkpt lat="45.00496" lon="5.21062">
        <ele>824</ele>
        <time>2014-11-24T10:37:44Z</time>
      </trkpt>
      <trkpt lat="45.00493" lon="5.21074">
        <ele>822</ele>
        <time>2014-11-24T10:37:55Z</time>
      </trkpt>
      <trkpt lat="45.00486" lon="5.21079">
        <ele>828</ele>
        <time>2014-11-24T10:38:03Z</time>
      </trkpt>
      <trkpt lat="45.0048" lon="5.21085">
        <ele>830</ele>
        <time>2014-11-24T10:38:11Z</time>
      </trkpt>
      <trkpt lat="45.00471" lon="5.21089">
        <ele>834</ele>
        <time>2014-11-24T10:38:20Z</time>
      </trkpt>
      <trkpt lat="45.00464" lon="5.21091">
        <ele>841</ele>
        <time>2014-11-24T10:38:31Z</time>
      </trkpt>
      <trkpt lat="45.00458" lon="5.21091">
        <ele>839</ele>
        <time>2014-11-24T10:38:39Z</time>
      </trkpt>
      <trkpt lat="45.0046" lon="5.21102">
        <ele>835</ele>
        <time>2014-11-24T10:39:07Z</time>
      </trkpt>
      <trkpt lat="45.00465" lon="5.21112">
        <ele>847</ele>
        <time>2014-11-24T10:39:36Z</time>
      </trkpt>
      <trkpt lat="45.00472" lon="5.21119">
        <ele>846</ele>
        <time>2014-11-24T10:39:47Z</time>
      </trkpt>
      <trkpt lat="45.00478" lon="5.21128">
        <ele>843</ele>
        <time>2014-11-24T10:39:55Z</time>
      </trkpt>
      <trkpt lat="45.00485" lon="5.21133">
        <ele>843</ele>
        <time>2014-11-24T10:40:11Z</time>
      </trkpt>
      <trkpt lat="45.00489" lon="5.21141">
        <ele>841</ele>
        <time>2014-11-24T10:40:16Z</time>
      </trkpt>
      <trkpt lat="45.00496" lon="5.21146">
        <ele>845</ele>
        <time>2014-11-24T10:40:27Z</time>
      </trkpt>
      <trkpt lat="45.00503" lon="5.21151">
        <ele>847</ele>
        <time>2014-11-24T10:40:35Z</time>
      </trkpt>
      <trkpt lat="45.0051" lon="5.21157">
        <ele>845</ele>
        <time>2014-11-24T10:40:43Z</time>
      </trkpt>
      <trkpt lat="45.00517" lon="5.21165">
        <ele>846</ele>
        <time>2014-11-24T10:40:55Z</time>
      </trkpt>
      <trkpt lat="45.00523" lon="5.21171">
        <ele>845</ele>
        <time>2014-11-24T10:41:04Z</time>
      </trkpt>
      <trkpt lat="45.00532" lon="5.21175">
        <ele>848</ele>
        <time>2014-11-24T10:41:16Z</time>
      </trkpt>
      <trkpt lat="45.0054" lon="5.21178">
        <ele>853</ele>
        <time>2014-11-24T10:41:28Z</time>
      </trkpt>
      <trkpt lat="45.00548" lon="5.21182">
        <ele>851</ele>
        <time>2014-11-24T10:41:36Z</time>
      </trkpt>
      <trkpt lat="45.00555" lon="5.21184">
        <ele>851</ele>
        <time>2014-11-24T10:41:47Z</time>
      </trkpt>
      <trkpt lat="45.00563" lon="5.21182">
        <ele>860</ele>
        <time>2014-11-24T10:42:00Z</time>
      </trkpt>
      <trkpt lat="45.0057" lon="5.21175">
        <ele>860</ele>
        <time>2014-11-24T10:42:12Z</time>
      </trkpt>
      <trkpt lat="45.00577" lon="5.21167">
        <ele>863</ele>
        <time>2014-11-24T10:42:27Z</time>
      </trkpt>
      <trkpt lat="45.00586" lon="5.21165">
        <ele>862</ele>
        <time>2014-11-24T10:42:39Z</time>
      </trkpt>
      <trkpt lat="45.00594" lon="5.21162">
        <ele>862</ele>
        <time>2014-11-24T10:42:51Z</time>
      </trkpt>
      <trkpt lat="45.00599" lon="5.2117">
        <ele>867</ele>
        <time>2014-11-24T10:43:03Z</time>
      </trkpt>
      <trkpt lat="45.00594" lon="5.2118">
        <ele>870</ele>
        <time>2014-11-24T10:43:15Z</time>
      </trkpt>
      <trkpt lat="45.0059" lon="5.2119">
        <ele>872</ele>
        <time>2014-11-24T10:43:23Z</time>
      </trkpt>
      <trkpt lat="45.00585" lon="5.21198">
        <ele>872</ele>
        <time>2014-11-24T10:43:32Z</time>
      </trkpt>
      <trkpt lat="45.00577" lon="5.21204">
        <ele>875</ele>
        <time>2014-11-24T10:43:43Z</time>
      </trkpt>
      <trkpt lat="45.00572" lon="5.21214">
        <ele>870</ele>
        <time>2014-11-24T10:43:51Z</time>
      </trkpt>
      <trkpt lat="45.00566" lon="5.2122">
        <ele>877</ele>
        <time>2014-11-24T10:43:59Z</time>
      </trkpt>
      <trkpt lat="45.0056" lon="5.21227">
        <ele>877</ele>
        <time>2014-11-24T10:44:07Z</time>
      </trkpt>
      <trkpt lat="45.00554" lon="5.21235">
        <ele>875</ele>
        <time>2014-11-24T10:44:16Z</time>
      </trkpt>
      <trkpt lat="45.00548" lon="5.21239">
        <ele>876</ele>
        <time>2014-11-24T10:44:28Z</time>
      </trkpt>
      <trkpt lat="45.0054" lon="5.21245">
        <ele>881</ele>
        <time>2014-11-24T10:44:55Z</time>
      </trkpt>
      <trkpt lat="45.00532" lon="5.21247">
        <ele>884</ele>
        <time>2014-11-24T10:45:07Z</time>
      </trkpt>
      <trkpt lat="45.00525" lon="5.21247">
        <ele>883</ele>
        <time>2014-11-24T10:45:23Z</time>
      </trkpt>
      <trkpt lat="45.00517" lon="5.21249">
        <ele>880</ele>
        <time>2014-11-24T10:46:19Z</time>
      </trkpt>
      <trkpt lat="45.0051" lon="5.21248">
        <ele>885</ele>
        <time>2014-11-24T10:46:28Z</time>
      </trkpt>
      <trkpt lat="45.00502" lon="5.21244">
        <ele>887</ele>
        <time>2014-11-24T10:46:36Z</time>
      </trkpt>
      <trkpt lat="45.00498" lon="5.21238">
        <ele>889</ele>
        <time>2014-11-24T10:46:40Z</time>
      </trkpt>
      <trkpt lat="45.00492" lon="5.21233">
        <ele>890</ele>
        <time>2014-11-24T10:46:44Z</time>
      </trkpt>
      <trkpt lat="45.00484" lon="5.21228">
        <ele>892</ele>
        <time>2014-11-24T10:46:51Z</time>
      </trkpt>
      <trkpt lat="45.00476" lon="5.2123">
        <ele>890</ele>
        <time>2014-11-24T10:46:59Z</time>
      </trkpt>
      <trkpt lat="45.00469" lon="5.21237">
        <ele>888</ele>
        <time>2014-11-24T10:47:15Z</time>
      </trkpt>
      <trkpt lat="45.0046" lon="5.21238">
        <ele>885</ele>
        <time>2014-11-24T10:50:50Z</time>
      </trkpt>
      <trkpt lat="45.00452" lon="5.21242">
        <ele>882</ele>
        <time>2014-11-24T10:51:02Z</time>
      </trkpt>
      <trkpt lat="45.00445" lon="5.21238">
        <ele>887</ele>
        <time>2014-11-24T10:51:08Z</time>
      </trkpt>
      <trkpt lat="45.00438" lon="5.21229">
        <ele>886</ele>
        <time>2014-11-24T10:51:12Z</time>
      </trkpt>
      <trkpt lat="45.00432" lon="5.21224">
        <ele>885</ele>
        <time>2014-11-24T10:51:16Z</time>
      </trkpt>
      <trkpt lat="45.00426" lon="5.21215">
        <ele>887</ele>
        <time>2014-11-24T10:51:24Z</time>
      </trkpt>
      <trkpt lat="45.0042" lon="5.21209">
        <ele>893</ele>
        <time>2014-11-24T10:51:36Z</time>
      </trkpt>
      <trkpt lat="45.00414" lon="5.21201">
        <ele>900</ele>
        <time>2014-11-24T10:51:45Z</time>
      </trkpt>
      <trkpt lat="45.00408" lon="5.21195">
        <ele>899</ele>
        <time>2014-11-24T10:51:53Z</time>
      </trkpt>
      <trkpt lat="45.004" lon="5.21192">
        <ele>900</ele>
        <time>2014-11-24T10:52:00Z</time>
      </trkpt>
      <trkpt lat="45.00394" lon="5.21191">
        <ele>899</ele>
        <time>2014-11-24T10:52:04Z</time>
      </trkpt>
      <trkpt lat="45.00386" lon="5.2119">
        <ele>903</ele>
        <time>2014-11-24T10:52:13Z</time>
      </trkpt>
      <trkpt lat="45.00379" lon="5.21187">
        <ele>902</ele>
        <time>2014-11-24T10:52:20Z</time>
      </trkpt>
      <trkpt lat="45.00372" lon="5.21188">
        <ele>898</ele>
        <time>2014-11-24T10:52:24Z</time>
      </trkpt>
      <trkpt lat="45.00364" lon="5.21189">
        <ele>901</ele>
        <time>2014-11-24T10:52:32Z</time>
      </trkpt>
      <trkpt lat="45.00358" lon="5.21196">
        <ele>899</ele>
        <time>2014-11-24T10:52:37Z</time>
      </trkpt>
      <trkpt lat="45.00356" lon="5.21205">
        <ele>898</ele>
        <time>2014-11-24T10:52:44Z</time>
      </trkpt>
      <trkpt lat="45.00352" lon="5.21216">
        <ele>897</ele>
        <time>2014-11-24T10:52:52Z</time>
      </trkpt>
      <trkpt lat="45.00347" lon="5.21226">
        <ele>898</ele>
        <time>2014-11-24T10:53:00Z</time>
      </trkpt>
      <trkpt lat="45.00343" lon="5.21235">
        <ele>901</ele>
        <time>2014-11-24T10:53:06Z</time>
      </trkpt>
      <trkpt lat="45.00337" lon="5.21244">
        <ele>905</ele>
        <time>2014-11-24T10:53:15Z</time>
      </trkpt>
      <trkpt lat="45.00333" lon="5.21255">
        <ele>909</ele>
        <time>2014-11-24T10:53:26Z</time>
      </trkpt>
      <trkpt lat="45.00324" lon="5.21257">
        <ele>915</ele>
        <time>2014-11-24T10:53:37Z</time>
      </trkpt>
      <trkpt lat="45.00319" lon="5.21264">
        <ele>916</ele>
        <time>2014-11-24T10:53:45Z</time>
      </trkpt>
      <trkpt lat="45.0031" lon="5.21262">
        <ele>921</ele>
        <time>2014-11-24T10:53:53Z</time>
      </trkpt>
      <trkpt lat="45.00303" lon="5.21263">
        <ele>920</ele>
        <time>2014-11-24T10:54:02Z</time>
      </trkpt>
      <trkpt lat="45.00296" lon="5.21262">
        <ele>918</ele>
        <time>2014-11-24T10:54:06Z</time>
      </trkpt>
      <trkpt lat="45.00289" lon="5.2127">
        <ele>914</ele>
        <time>2014-11-24T10:54:13Z</time>
      </trkpt>
      <trkpt lat="45.00282" lon="5.21273">
        <ele>914</ele>
        <time>2014-11-24T10:54:21Z</time>
      </trkpt>
      <trkpt lat="45.00275" lon="5.21273">
        <ele>917</ele>
        <time>2014-11-24T10:54:29Z</time>
      </trkpt>
      <trkpt lat="45.00266" lon="5.21273">
        <ele>915</ele>
        <time>2014-11-24T10:54:34Z</time>
      </trkpt>
      <trkpt lat="45.00259" lon="5.21279">
        <ele>916</ele>
        <time>2014-11-24T10:54:54Z</time>
      </trkpt>
      <trkpt lat="45.00256" lon="5.21289">
        <ele>924</ele>
        <time>2014-11-24T10:55:12Z</time>
      </trkpt>
      <trkpt lat="45.00249" lon="5.2129">
        <ele>923</ele>
        <time>2014-11-24T10:55:21Z</time>
      </trkpt>
      <trkpt lat="45.00241" lon="5.21286">
        <ele>927</ele>
        <time>2014-11-24T10:55:28Z</time>
      </trkpt>
      <trkpt lat="45.00237" lon="5.21278">
        <ele>928</ele>
        <time>2014-11-24T10:55:36Z</time>
      </trkpt>
      <trkpt lat="45.00231" lon="5.21274">
        <ele>933</ele>
        <time>2014-11-24T10:55:44Z</time>
      </trkpt>
      <trkpt lat="45.00226" lon="5.21264">
        <ele>931</ele>
        <time>2014-11-24T10:55:49Z</time>
      </trkpt>
      <trkpt lat="45.00222" lon="5.21255">
        <ele>935</ele>
        <time>2014-11-24T10:55:57Z</time>
      </trkpt>
      <trkpt lat="45.00216" lon="5.21248">
        <ele>934</ele>
        <time>2014-11-24T10:56:04Z</time>
      </trkpt>
      <trkpt lat="45.00211" lon="5.21239">
        <ele>934</ele>
        <time>2014-11-24T10:56:09Z</time>
      </trkpt>
      <trkpt lat="45.00207" lon="5.21229">
        <ele>937</ele>
        <time>2014-11-24T10:56:20Z</time>
      </trkpt>
      <trkpt lat="45.00201" lon="5.21222">
        <ele>939</ele>
        <time>2014-11-24T10:56:28Z</time>
      </trkpt>
      <trkpt lat="45.00195" lon="5.21215">
        <ele>937</ele>
        <time>2014-11-24T10:56:37Z</time>
      </trkpt>
      <trkpt lat="45.00187" lon="5.2121">
        <ele>933</ele>
        <time>2014-11-24T10:56:48Z</time>
      </trkpt>
      <trkpt lat="45.00178" lon="5.21208">
        <ele>933</ele>
        <time>2014-11-24T10:57:00Z</time>
      </trkpt>
      <trkpt lat="45.00172" lon="5.21206">
        <ele>931</ele>
        <time>2014-11-24T10:57:04Z</time>
      </trkpt>
      <trkpt lat="45.00163" lon="5.21206">
        <ele>932</ele>
        <time>2014-11-24T10:57:12Z</time>
      </trkpt>
      <trkpt lat="45.00155" lon="5.21208">
        <ele>931</ele>
        <time>2014-11-24T10:57:17Z</time>
      </trkpt>
      <trkpt lat="45.00147" lon="5.21213">
        <ele>932</ele>
        <time>2014-11-24T10:57:24Z</time>
      </trkpt>
      <trkpt lat="45.00139" lon="5.21219">
        <ele>938</ele>
        <time>2014-11-24T10:57:33Z</time>
      </trkpt>
      <trkpt lat="45.00132" lon="5.21221">
        <ele>937</ele>
        <time>2014-11-24T10:57:40Z</time>
      </trkpt>
      <trkpt lat="45.00124" lon="5.21222">
        <ele>941</ele>
        <time>2014-11-24T10:57:48Z</time>
      </trkpt>
      <trkpt lat="45.00118" lon="5.2123">
        <ele>945</ele>
        <time>2014-11-24T10:57:56Z</time>
      </trkpt>
      <trkpt lat="45.00109" lon="5.21232">
        <ele>948</ele>
        <time>2014-11-24T10:58:05Z</time>
      </trkpt>
      <trkpt lat="45.00103" lon="5.21241">
        <ele>945</ele>
        <time>2014-11-24T10:58:12Z</time>
      </trkpt>
      <trkpt lat="45.00096" lon="5.21247">
        <ele>939</ele>
        <time>2014-11-24T10:58:28Z</time>
      </trkpt>
      <trkpt lat="45.00089" lon="5.21242">
        <ele>944</ele>
        <time>2014-11-24T10:58:52Z</time>
      </trkpt>
      <trkpt lat="45.0008" lon="5.21239">
        <ele>949</ele>
        <time>2014-11-24T10:59:04Z</time>
      </trkpt>
      <trkpt lat="45.00074" lon="5.21233">
        <ele>953</ele>
        <time>2014-11-24T10:59:13Z</time>
      </trkpt>
      <trkpt lat="45.00068" lon="5.21226">
        <ele>957</ele>
        <time>2014-11-24T10:59:24Z</time>
      </trkpt>
      <trkpt lat="45.0006" lon="5.21221">
        <ele>958</ele>
        <time>2014-11-24T10:59:40Z</time>
      </trkpt>
      <trkpt lat="45.00052" lon="5.21215">
        <ele>960</ele>
        <time>2014-11-24T10:59:48Z</time>
      </trkpt>
      <trkpt lat="45.00047" lon="5.21206">
        <ele>962</ele>
        <time>2014-11-24T11:00:08Z</time>
      </trkpt>
      <trkpt lat="45.00048" lon="5.21197">
        <ele>973</ele>
        <time>2014-11-24T11:00:25Z</time>
      </trkpt>
      <trkpt lat="45.00043" lon="5.21187">
        <ele>974</ele>
        <time>2014-11-24T11:00:44Z</time>
      </trkpt>
      <trkpt lat="45.00037" lon="5.2118">
        <ele>974</ele>
        <time>2014-11-24T11:00:56Z</time>
      </trkpt>
      <trkpt lat="45.00029" lon="5.21173">
        <ele>971</ele>
        <time>2014-11-24T11:01:08Z</time>
      </trkpt>
      <trkpt lat="45.0003" lon="5.21161">
        <ele>984</ele>
        <time>2014-11-24T11:01:25Z</time>
      </trkpt>
      <trkpt lat="45.00026" lon="5.2115">
        <ele>985</ele>
        <time>2014-11-24T11:01:37Z</time>
      </trkpt>
      <trkpt lat="45.00022" lon="5.21143">
        <ele>989</ele>
        <time>2014-11-24T11:01:48Z</time>
      </trkpt>
      <trkpt lat="45.00017" lon="5.21133">
        <ele>982</ele>
        <time>2014-11-24T11:01:53Z</time>
      </trkpt>
      <trkpt lat="45.00011" lon="5.21125">
        <ele>981</ele>
        <time>2014-11-24T11:02:05Z</time>
      </trkpt>
      <trkpt lat="45.00008" lon="5.21115">
        <ele>983</ele>
        <time>2014-11-24T11:02:13Z</time>
      </trkpt>
      <trkpt lat="45.00007" lon="5.21104">
        <ele>983</ele>
        <time>2014-11-24T11:02:25Z</time>
      </trkpt>
      <trkpt lat="45.00002" lon="5.21095">
        <ele>981</ele>
        <time>2014-11-24T11:02:36Z</time>
      </trkpt>
      <trkpt lat="44.99996" lon="5.21086">
        <ele>983</ele>
        <time>2014-11-24T11:02:45Z</time>
      </trkpt>
      <trkpt lat="44.99992" lon="5.21074">
        <ele>979</ele>
        <time>2014-11-24T11:03:01Z</time>
      </trkpt>
      <trkpt lat="44.99987" lon="5.21068">
        <ele>978</ele>
        <time>2014-11-24T11:03:09Z</time>
      </trkpt>
      <trkpt lat="44.99982" lon="5.21058">
        <ele>982</ele>
        <time>2014-11-24T11:03:20Z</time>
      </trkpt>
      <trkpt lat="44.99974" lon="5.21053">
        <ele>981</ele>
        <time>2014-11-24T11:03:28Z</time>
      </trkpt>
      <trkpt lat="44.99969" lon="5.21044">
        <ele>984</ele>
        <time>2014-11-24T11:03:37Z</time>
      </trkpt>
      <trkpt lat="44.99962" lon="5.2104">
        <ele>987</ele>
        <time>2014-11-24T11:03:49Z</time>
      </trkpt>
      <trkpt lat="44.99953" lon="5.21038">
        <ele>980</ele>
        <time>2014-11-24T11:04:04Z</time>
      </trkpt>
      <trkpt lat="44.99948" lon="5.21048">
        <ele>983</ele>
        <time>2014-11-24T11:04:29Z</time>
      </trkpt>
      <trkpt lat="44.99945" lon="5.2106">
        <ele>986</ele>
        <time>2014-11-24T11:04:49Z</time>
      </trkpt>
      <trkpt lat="44.99945" lon="5.21072">
        <ele>992</ele>
        <time>2014-11-24T11:05:05Z</time>
      </trkpt>
      <trkpt lat="44.99949" lon="5.21082">
        <ele>988</ele>
        <time>2014-11-24T11:05:12Z</time>
      </trkpt>
      <trkpt lat="44.99952" lon="5.21094">
        <ele>993</ele>
        <time>2014-11-24T11:05:29Z</time>
      </trkpt>
      <trkpt lat="44.99951" lon="5.21106">
        <ele>993</ele>
        <time>2014-11-24T11:05:40Z</time>
      </trkpt>
      <trkpt lat="44.99948" lon="5.21116">
        <ele>1000</ele>
        <time>2014-11-24T11:05:49Z</time>
      </trkpt>
      <trkpt lat="44.99949" lon="5.21128">
        <ele>1005</ele>
        <time>2014-11-24T11:06:08Z</time>
      </trkpt>
      <trkpt lat="44.99945" lon="5.21138">
        <ele>1010</ele>
        <time>2014-11-24T11:06:20Z</time>
      </trkpt>
      <trkpt lat="44.99944" lon="5.2115">
        <ele>1007</ele>
        <time>2014-11-24T11:06:28Z</time>
      </trkpt>
      <trkpt lat="44.99943" lon="5.2116">
        <ele>1008</ele>
        <time>2014-11-24T11:06:33Z</time>
      </trkpt>
      <trkpt lat="44.99939" lon="5.2117">
        <ele>1010</ele>
        <time>2014-11-24T11:06:41Z</time>
      </trkpt>
      <trkpt lat="44.99938" lon="5.21181">
        <ele>1013</ele>
        <time>2014-11-24T11:06:48Z</time>
      </trkpt>
      <trkpt lat="44.99936" lon="5.2119">
        <ele>1014</ele>
        <time>2014-11-24T11:06:56Z</time>
      </trkpt>
      <trkpt lat="44.99931" lon="5.21199">
        <ele>1015</ele>
        <time>2014-11-24T11:07:04Z</time>
      </trkpt>
      <trkpt lat="44.99928" lon="5.21209">
        <ele>1016</ele>
        <time>2014-11-24T11:07:08Z</time>
      </trkpt>
      <trkpt lat="44.99924" lon="5.21217">
        <ele>1015</ele>
        <time>2014-11-24T11:07:12Z</time>
      </trkpt>
      <trkpt lat="44.99923" lon="5.21227">
        <ele>1013</ele>
        <time>2014-11-24T11:07:16Z</time>
      </trkpt>
      <trkpt lat="44.99925" lon="5.21236">
        <ele>1010</ele>
        <time>2014-11-24T11:07:20Z</time>
      </trkpt>
      <trkpt lat="44.99924" lon="5.21248">
        <ele>1009</ele>
        <time>2014-11-24T11:07:28Z</time>
      </trkpt>
      <trkpt lat="44.99925" lon="5.21259">
        <ele>1011</ele>
        <time>2014-11-24T11:07:37Z</time>
      </trkpt>
      <trkpt lat="44.99925" lon="5.21269">
        <ele>1012</ele>
        <time>2014-11-24T11:07:48Z</time>
      </trkpt>
      <trkpt lat="44.99922" lon="5.21279">
        <ele>1013</ele>
        <time>2014-11-24T11:07:56Z</time>
      </trkpt>
      <trkpt lat="44.99925" lon="5.2129">
        <ele>1010</ele>
        <time>2014-11-24T11:08:44Z</time>
      </trkpt>
      <trkpt lat="44.99926" lon="5.21303">
        <ele>1015</ele>
        <time>2014-11-24T11:09:21Z</time>
      </trkpt>
      <trkpt lat="44.99927" lon="5.21315">
        <ele>1018</ele>
        <time>2014-11-24T11:09:41Z</time>
      </trkpt>
      <trkpt lat="44.9993" lon="5.21325">
        <ele>1020</ele>
        <time>2014-11-24T11:09:57Z</time>
      </trkpt>
      <trkpt lat="44.99927" lon="5.21336">
        <ele>1027</ele>
        <time>2014-11-24T11:10:16Z</time>
      </trkpt>
      <trkpt lat="44.9993" lon="5.21347">
        <ele>1028</ele>
        <time>2014-11-24T11:10:29Z</time>
      </trkpt>
      <trkpt lat="44.99932" lon="5.21359">
        <ele>1034</ele>
        <time>2014-11-24T11:10:52Z</time>
      </trkpt>
      <trkpt lat="44.99931" lon="5.21371">
        <ele>1033</ele>
        <time>2014-11-24T11:11:08Z</time>
      </trkpt>
      <trkpt lat="44.9993" lon="5.21383">
        <ele>1035</ele>
        <time>2014-11-24T11:11:21Z</time>
      </trkpt>
      <trkpt lat="44.99934" lon="5.21393">
        <ele>1040</ele>
        <time>2014-11-24T11:11:37Z</time>
      </trkpt>
      <trkpt lat="44.99939" lon="5.21402">
        <ele>1041</ele>
        <time>2014-11-24T11:11:52Z</time>
      </trkpt>
      <trkpt lat="44.9994" lon="5.21412">
        <ele>1044</ele>
        <time>2014-11-24T11:12:13Z</time>
      </trkpt>
      <trkpt lat="44.9994" lon="5.21425">
        <ele>1042</ele>
        <time>2014-11-24T11:12:24Z</time>
      </trkpt>
      <trkpt lat="44.9994" lon="5.21436">
        <ele>1046</ele>
        <time>2014-11-24T11:12:41Z</time>
      </trkpt>
      <trkpt lat="44.9994" lon="5.21448">
        <ele>1051</ele>
        <time>2014-11-24T11:12:56Z</time>
      </trkpt>
      <trkpt lat="44.9994" lon="5.21459">
        <ele>1055</ele>
        <time>2014-11-24T11:13:08Z</time>
      </trkpt>
      <trkpt lat="44.99942" lon="5.21471">
        <ele>1059</ele>
        <time>2014-11-24T11:13:17Z</time>
      </trkpt>
      <trkpt lat="44.99943" lon="5.21481">
        <ele>1058</ele>
        <time>2014-11-24T11:13:25Z</time>
      </trkpt>
      <trkpt lat="44.99948" lon="5.21488">
        <ele>1058</ele>
        <time>2014-11-24T11:13:32Z</time>
      </trkpt>
      <trkpt lat="44.9995" lon="5.21498">
        <ele>1061</ele>
        <time>2014-11-24T11:13:40Z</time>
      </trkpt>
      <trkpt lat="44.99956" lon="5.21507">
        <ele>1066</ele>
        <time>2014-11-24T11:13:48Z</time>
      </trkpt>
      <trkpt lat="44.99962" lon="5.21514">
        <ele>1067</ele>
        <time>2014-11-24T11:13:56Z</time>
      </trkpt>
      <trkpt lat="44.99967" lon="5.21523">
        <ele>1068</ele>
        <time>2014-11-24T11:14:01Z</time>
      </trkpt>
      <trkpt lat="44.99973" lon="5.21531">
        <ele>1066</ele>
        <time>2014-11-24T11:14:09Z</time>
      </trkpt>
      <trkpt lat="44.99977" lon="5.2154">
        <ele>1065</ele>
        <time>2014-11-24T11:14:16Z</time>
      </trkpt>
      <trkpt lat="44.99981" lon="5.2155">
        <ele>1071</ele>
        <time>2014-11-24T11:14:21Z</time>
      </trkpt>
      <trkpt lat="44.99986" lon="5.21555">
        <ele>1072</ele>
        <time>2014-11-24T11:14:25Z</time>
      </trkpt>
      <trkpt lat="44.99994" lon="5.2156">
        <ele>1069</ele>
        <time>2014-11-24T11:14:33Z</time>
      </trkpt>
      <trkpt lat="45" lon="5.21565">
        <ele>1070</ele>
        <time>2014-11-24T11:14:52Z</time>
      </trkpt>
      <trkpt lat="45.00006" lon="5.21572">
        <ele>1068</ele>
        <time>2014-11-24T11:14:57Z</time>
      </trkpt>
      <trkpt lat="45.0001" lon="5.21583">
        <ele>1071</ele>
        <time>2014-11-24T11:15:13Z</time>
      </trkpt>
      <trkpt lat="45.00013" lon="5.21592">
        <ele>1070</ele>
        <time>2014-11-24T11:15:20Z</time>
      </trkpt>
      <trkpt lat="45.00013" lon="5.21603">
        <ele>1073</ele>
        <time>2014-11-24T11:15:29Z</time>
      </trkpt>
      <trkpt lat="45.00014" lon="5.21613">
        <ele>1071</ele>
        <time>2014-11-24T11:15:36Z</time>
      </trkpt>
      <trkpt lat="45.00015" lon="5.21625">
        <ele>1068</ele>
        <time>2014-11-24T11:15:41Z</time>
      </trkpt>
      <trkpt lat="45.00013" lon="5.21637">
        <ele>1073</ele>
        <time>2014-11-24T11:15:53Z</time>
      </trkpt>
      <trkpt lat="45.00014" lon="5.21647">
        <ele>1069</ele>
        <time>2014-11-24T11:16:00Z</time>
      </trkpt>
      <trkpt lat="45.00013" lon="5.21655">
        <ele>1072</ele>
        <time>2014-11-24T11:16:08Z</time>
      </trkpt>
      <trkpt lat="45.00014" lon="5.21662">
        <ele>1069</ele>
        <time>2014-11-24T11:16:12Z</time>
      </trkpt>
      <trkpt lat="45.0001" lon="5.21673">
        <ele>1070</ele>
        <time>2014-11-24T11:16:17Z</time>
      </trkpt>
      <trkpt lat="45.00006" lon="5.21683">
        <ele>1075</ele>
        <time>2014-11-24T11:16:29Z</time>
      </trkpt>
      <trkpt lat="45.00003" lon="5.21692">
        <ele>1079</ele>
        <time>2014-11-24T11:16:44Z</time>
      </trkpt>
      <trkpt lat="45.00001" lon="5.21703">
        <ele>1080</ele>
        <time>2014-11-24T11:16:49Z</time>
      </trkpt>
      <trkpt lat="44.99999" lon="5.21714">
        <ele>1081</ele>
        <time>2014-11-24T11:16:57Z</time>
      </trkpt>
      <trkpt lat="44.99999" lon="5.21725">
        <ele>1077</ele>
        <time>2014-11-24T11:17:04Z</time>
      </trkpt>
      <trkpt lat="44.99997" lon="5.21736">
        <ele>1076</ele>
        <time>2014-11-24T11:17:09Z</time>
      </trkpt>
      <trkpt lat="44.99996" lon="5.21747">
        <ele>1079</ele>
        <time>2014-11-24T11:17:17Z</time>
      </trkpt>
      <trkpt lat="44.99996" lon="5.21758">
        <ele>1080</ele>
        <time>2014-11-24T11:17:24Z</time>
      </trkpt>
      <trkpt lat="44.99996" lon="5.21768">
        <ele>1078</ele>
        <time>2014-11-24T11:17:33Z</time>
      </trkpt>
      <trkpt lat="44.99996" lon="5.21781">
        <ele>1075</ele>
        <time>2014-11-24T11:17:41Z</time>
      </trkpt>
      <trkpt lat="45" lon="5.2179">
        <ele>1067</ele>
        <time>2014-11-24T11:17:48Z</time>
      </trkpt>
      <trkpt lat="45.00001" lon="5.21801">
        <ele>1070</ele>
        <time>2014-11-24T11:17:56Z</time>
      </trkpt>
      <trkpt lat="45.00002" lon="5.21813">
        <ele>1074</ele>
        <time>2014-11-24T11:18:04Z</time>
      </trkpt>
      <trkpt lat="45" lon="5.21823">
        <ele>1079</ele>
        <time>2014-11-24T11:18:12Z</time>
      </trkpt>
      <trkpt lat="45" lon="5.21834">
        <ele>1078</ele>
        <time>2014-11-24T11:18:17Z</time>
      </trkpt>
      <trkpt lat="45.00002" lon="5.21846">
        <ele>1078</ele>
        <time>2014-11-24T11:18:28Z</time>
      </trkpt>
      <trkpt lat="45.00003" lon="5.21859">
        <ele>1081</ele>
        <time>2014-11-24T11:18:37Z</time>
      </trkpt>
      <trkpt lat="45.00007" lon="5.2187">
        <ele>1080</ele>
        <time>2014-11-24T11:18:45Z</time>
      </trkpt>
      <trkpt lat="45.00008" lon="5.21881">
        <ele>1081</ele>
        <time>2014-11-24T11:18:56Z</time>
      </trkpt>
      <trkpt lat="45.0001" lon="5.21892">
        <ele>1085</ele>
        <time>2014-11-24T11:19:09Z</time>
      </trkpt>
      <trkpt lat="45.00012" lon="5.21904">
        <ele>1089</ele>
        <time>2014-11-24T11:19:20Z</time>
      </trkpt>
      <trkpt lat="45.00012" lon="5.21917">
        <ele>1094</ele>
        <time>2014-11-24T11:19:33Z</time>
      </trkpt>
      <trkpt lat="45.0001" lon="5.21926">
        <ele>1093</ele>
        <time>2014-11-24T11:19:41Z</time>
      </trkpt>
      <trkpt lat="45.00009" lon="5.21938">
        <ele>1095</ele>
        <time>2014-11-24T11:19:53Z</time>
      </trkpt>
      <trkpt lat="45.00008" lon="5.21948">
        <ele>1093</ele>
        <time>2014-11-24T11:20:04Z</time>
      </trkpt>
      <trkpt lat="45.00005" lon="5.21959">
        <ele>1094</ele>
        <time>2014-11-24T11:20:12Z</time>
      </trkpt>
      <trkpt lat="45" lon="5.21968">
        <ele>1098</ele>
        <time>2014-11-24T11:20:24Z</time>
      </trkpt>
      <trkpt lat="44.99996" lon="5.21979">
        <ele>1102</ele>
        <time>2014-11-24T11:20:33Z</time>
      </trkpt>
      <trkpt lat="44.99992" lon="5.21989">
        <ele>1101</ele>
        <time>2014-11-24T11:20:40Z</time>
      </trkpt>
      <trkpt lat="44.99985" lon="5.21996">
        <ele>1106</ele>
        <time>2014-11-24T11:20:53Z</time>
      </trkpt>
      <trkpt lat="44.99982" lon="5.22006">
        <ele>1098</ele>
        <time>2014-11-24T11:21:01Z</time>
      </trkpt>
      <trkpt lat="44.99974" lon="5.22009">
        <ele>1099</ele>
        <time>2014-11-24T11:21:08Z</time>
      </trkpt>
      <trkpt lat="44.99967" lon="5.22015">
        <ele>1098</ele>
        <time>2014-11-24T11:21:20Z</time>
      </trkpt>
      <trkpt lat="44.99966" lon="5.22021">
        <ele>1096</ele>
        <time>2014-11-24T11:21:24Z</time>
      </trkpt>
      <trkpt lat="44.99964" lon="5.22034">
        <ele>1094</ele>
        <time>2014-11-24T11:21:29Z</time>
      </trkpt>
      <trkpt lat="44.99957" lon="5.22035">
        <ele>1100</ele>
        <time>2014-11-24T11:21:48Z</time>
      </trkpt>
      <trkpt lat="44.99951" lon="5.22045">
        <ele>1092</ele>
        <time>2014-11-24T11:21:57Z</time>
      </trkpt>
      <trkpt lat="44.99944" lon="5.22046">
        <ele>1097</ele>
        <time>2014-11-24T11:22:09Z</time>
      </trkpt>
      <trkpt lat="44.99937" lon="5.22046">
        <ele>1098</ele>
        <time>2014-11-24T11:22:20Z</time>
      </trkpt>
      <trkpt lat="44.99928" lon="5.22049">
        <ele>1098</ele>
        <time>2014-11-24T11:22:29Z</time>
      </trkpt>
      <trkpt lat="44.9992" lon="5.22054">
        <ele>1102</ele>
        <time>2014-11-24T11:22:45Z</time>
      </trkpt>
      <trkpt lat="44.99913" lon="5.22048">
        <ele>1107</ele>
        <time>2014-11-24T11:22:56Z</time>
      </trkpt>
      <trkpt lat="44.99908" lon="5.22052">
        <ele>1104</ele>
        <time>2014-11-24T11:23:04Z</time>
      </trkpt>
      <trkpt lat="44.99899" lon="5.22053">
        <ele>1107</ele>
        <time>2014-11-24T11:23:16Z</time>
      </trkpt>
      <trkpt lat="44.99891" lon="5.2205">
        <ele>1107</ele>
        <time>2014-11-24T11:23:24Z</time>
      </trkpt>
      <trkpt lat="44.99882" lon="5.22051">
        <ele>1105</ele>
        <time>2014-11-24T11:23:33Z</time>
      </trkpt>
      <trkpt lat="44.99875" lon="5.22053">
        <ele>1103</ele>
        <time>2014-11-24T11:23:37Z</time>
      </trkpt>
      <trkpt lat="44.99869" lon="5.22053">
        <ele>1109</ele>
        <time>2014-11-24T11:23:45Z</time>
      </trkpt>
      <trkpt lat="44.99861" lon="5.22055">
        <ele>1108</ele>
        <time>2014-11-24T11:23:52Z</time>
      </trkpt>
      <trkpt lat="44.99854" lon="5.22049">
        <ele>1117</ele>
        <time>2014-11-24T11:24:05Z</time>
      </trkpt>
      <trkpt lat="44.99846" lon="5.22055">
        <ele>1122</ele>
        <time>2014-11-24T11:24:24Z</time>
      </trkpt>
      <trkpt lat="44.99838" lon="5.22055">
        <ele>1128</ele>
        <time>2014-11-24T11:24:32Z</time>
      </trkpt>
      <trkpt lat="44.99831" lon="5.22061">
        <ele>1126</ele>
        <time>2014-11-24T11:24:45Z</time>
      </trkpt>
      <trkpt lat="44.99823" lon="5.22068">
        <ele>1121</ele>
        <time>2014-11-24T11:24:56Z</time>
      </trkpt>
      <trkpt lat="44.99814" lon="5.22067">
        <ele>1120</ele>
        <time>2014-11-24T11:25:05Z</time>
      </trkpt>
      <trkpt lat="44.99808" lon="5.22073">
        <ele>1120</ele>
        <time>2014-11-24T11:25:09Z</time>
      </trkpt>
      <trkpt lat="44.99803" lon="5.22082">
        <ele>1122</ele>
        <time>2014-11-24T11:25:24Z</time>
      </trkpt>
      <trkpt lat="44.99803" lon="5.22094">
        <ele>1128</ele>
        <time>2014-11-24T11:25:44Z</time>
      </trkpt>
      <trkpt lat="44.99795" lon="5.22096">
        <ele>1133</ele>
        <time>2014-11-24T11:26:08Z</time>
      </trkpt>
      <trkpt lat="44.99802" lon="5.22103">
        <ele>1134</ele>
        <time>2014-11-24T11:27:40Z</time>
      </trkpt>
      <trkpt lat="44.99809" lon="5.2211">
        <ele>1137</ele>
        <time>2014-11-24T11:28:33Z</time>
      </trkpt>
      <trkpt lat="44.99814" lon="5.22119">
        <ele>1138</ele>
        <time>2014-11-24T11:28:50Z</time>
      </trkpt>
      <trkpt lat="44.99822" lon="5.22124">
        <ele>1141</ele>
        <time>2014-11-24T11:28:59Z</time>
      </trkpt>
      <trkpt lat="44.99828" lon="5.2213">
        <ele>1143</ele>
        <time>2014-11-24T11:29:15Z</time>
      </trkpt>
      <trkpt lat="44.99834" lon="5.22138">
        <ele>1151</ele>
        <time>2014-11-24T11:29:23Z</time>
      </trkpt>
      <trkpt lat="44.99842" lon="5.22143">
        <ele>1157</ele>
        <time>2014-11-24T11:29:35Z</time>
      </trkpt>
      <trkpt lat="44.99849" lon="5.22149">
        <ele>1159</ele>
        <time>2014-11-24T11:29:47Z</time>
      </trkpt>
      <trkpt lat="44.99854" lon="5.22154">
        <ele>1165</ele>
        <time>2014-11-24T11:29:55Z</time>
      </trkpt>
      <trkpt lat="44.99859" lon="5.2216">
        <ele>1160</ele>
        <time>2014-11-24T11:29:59Z</time>
      </trkpt>
      <trkpt lat="44.99866" lon="5.22166">
        <ele>1164</ele>
        <time>2014-11-24T11:30:06Z</time>
      </trkpt>
      <trkpt lat="44.99873" lon="5.22172">
        <ele>1160</ele>
        <time>2014-11-24T11:30:14Z</time>
      </trkpt>
      <trkpt lat="44.99881" lon="5.2217">
        <ele>1166</ele>
        <time>2014-11-24T11:30:51Z</time>
      </trkpt>
      <trkpt lat="44.99888" lon="5.22173">
        <ele>1182</ele>
        <time>2014-11-24T11:31:07Z</time>
      </trkpt>
      <trkpt lat="44.99894" lon="5.22179">
        <ele>1180</ele>
        <time>2014-11-24T11:31:15Z</time>
      </trkpt>
      <trkpt lat="44.999" lon="5.22186">
        <ele>1176</ele>
        <time>2014-11-24T11:31:22Z</time>
      </trkpt>
      <trkpt lat="44.99908" lon="5.22192">
        <ele>1175</ele>
        <time>2014-11-24T11:31:34Z</time>
      </trkpt>
      <trkpt lat="44.99915" lon="5.22199">
        <ele>1177</ele>
        <time>2014-11-24T11:31:39Z</time>
      </trkpt>
      <trkpt lat="44.99923" lon="5.22202">
        <ele>1178</ele>
        <time>2014-11-24T11:31:51Z</time>
      </trkpt>
      <trkpt lat="44.99931" lon="5.22203">
        <ele>1182</ele>
        <time>2014-11-24T11:32:04Z</time>
      </trkpt>
      <trkpt lat="44.99938" lon="5.22203">
        <ele>1185</ele>
        <time>2014-11-24T11:32:16Z</time>
      </trkpt>
      <trkpt lat="44.99945" lon="5.22207">
        <ele>1184</ele>
        <time>2014-11-24T11:32:25Z</time>
      </trkpt>
      <trkpt lat="44.99951" lon="5.22216">
        <ele>1179</ele>
        <time>2014-11-24T11:32:32Z</time>
      </trkpt>
      <trkpt lat="44.99959" lon="5.22222">
        <ele>1190</ele>
        <time>2014-11-24T11:32:44Z</time>
      </trkpt>
      <trkpt lat="44.99964" lon="5.22227">
        <ele>1189</ele>
        <time>2014-11-24T11:32:48Z</time>
      </trkpt>
      <trkpt lat="44.99972" lon="5.22227">
        <ele>1191</ele>
        <time>2014-11-24T11:32:56Z</time>
      </trkpt>
      <trkpt lat="44.9998" lon="5.2223">
        <ele>1189</ele>
        <time>2014-11-24T11:33:01Z</time>
      </trkpt>
      <trkpt lat="44.99986" lon="5.2223">
        <ele>1190</ele>
        <time>2014-11-24T11:33:08Z</time>
      </trkpt>
      <trkpt lat="44.99995" lon="5.22232">
        <ele>1184</ele>
        <time>2014-11-24T11:33:13Z</time>
      </trkpt>
      <trkpt lat="45.00001" lon="5.22231">
        <ele>1185</ele>
        <time>2014-11-24T11:33:20Z</time>
      </trkpt>
      <trkpt lat="45.00007" lon="5.22229">
        <ele>1185</ele>
        <time>2014-11-24T11:33:24Z</time>
      </trkpt>
      <trkpt lat="45.00014" lon="5.22231">
        <ele>1188</ele>
        <time>2014-11-24T11:33:32Z</time>
      </trkpt>
      <trkpt lat="45.00022" lon="5.22227">
        <ele>1186</ele>
        <time>2014-11-24T11:33:41Z</time>
      </trkpt>
      <trkpt lat="45.00029" lon="5.22231">
        <ele>1187</ele>
        <time>2014-11-24T11:33:52Z</time>
      </trkpt>
      <trkpt lat="45.00037" lon="5.22231">
        <ele>1185</ele>
        <time>2014-11-24T11:34:01Z</time>
      </trkpt>
      <trkpt lat="45.00046" lon="5.22227">
        <ele>1188</ele>
        <time>2014-11-24T11:34:12Z</time>
      </trkpt>
      <trkpt lat="45.00051" lon="5.22221">
        <ele>1193</ele>
        <time>2014-11-24T11:34:21Z</time>
      </trkpt>
      <trkpt lat="45.0006" lon="5.2222">
        <ele>1191</ele>
        <time>2014-11-24T11:34:29Z</time>
      </trkpt>
      <trkpt lat="45.00068" lon="5.22223">
        <ele>1189</ele>
        <time>2014-11-24T11:34:40Z</time>
      </trkpt>
      <trkpt lat="45.00076" lon="5.2222">
        <ele>1188</ele>
        <time>2014-11-24T11:34:48Z</time>
      </trkpt>
      <trkpt lat="45.0008" lon="5.22209">
        <ele>1184</ele>
        <time>2014-11-24T11:34:56Z</time>
      </trkpt>
      <trkpt lat="45.00088" lon="5.22206">
        <ele>1182</ele>
        <time>2014-11-24T11:35:01Z</time>
      </trkpt>
      <trkpt lat="45.00096" lon="5.222">
        <ele>1186</ele>
        <time>2014-11-24T11:35:16Z</time>
      </trkpt>
      <trkpt lat="45.00103" lon="5.22194">
        <ele>1201</ele>
        <time>2014-11-24T11:35:40Z</time>
      </trkpt>
      <trkpt lat="45.00108" lon="5.22185">
        <ele>1197</ele>
        <time>2014-11-24T11:35:49Z</time>
      </trkpt>
      <trkpt lat="45.00114" lon="5.22177">
        <ele>1195</ele>
        <time>2014-11-24T11:35:56Z</time>
      </trkpt>
      <trkpt lat="45.00121" lon="5.2217">
        <ele>1193</ele>
        <time>2014-11-24T11:36:04Z</time>
      </trkpt>
      <trkpt lat="45.00128" lon="5.22163">
        <ele>1189</ele>
        <time>2014-11-24T11:36:12Z</time>
      </trkpt>
      <trkpt lat="45.00134" lon="5.22171">
        <ele>1183</ele>
        <time>2014-11-24T11:36:25Z</time>
      </trkpt>
      <trkpt lat="45.00135" lon="5.22183">
        <ele>1188</ele>
        <time>2014-11-24T11:36:37Z</time>
      </trkpt>
      <trkpt lat="45.00138" lon="5.22195">
        <ele>1188</ele>
        <time>2014-11-24T11:36:46Z</time>
      </trkpt>
      <trkpt lat="45.00138" lon="5.22205">
        <ele>1185</ele>
        <time>2014-11-24T11:36:56Z</time>
      </trkpt>
      <trkpt lat="45.00139" lon="5.22216">
        <ele>1190</ele>
        <time>2014-11-24T11:37:08Z</time>
      </trkpt>
      <trkpt lat="45.00141" lon="5.22227">
        <ele>1189</ele>
        <time>2014-11-24T11:37:16Z</time>
      </trkpt>
      <trkpt lat="45.0014" lon="5.22236">
        <ele>1191</ele>
        <time>2014-11-24T11:37:24Z</time>
      </trkpt>
      <trkpt lat="45.00138" lon="5.22248">
        <ele>1191</ele>
        <time>2014-11-24T11:37:33Z</time>
      </trkpt>
      <trkpt lat="45.00133" lon="5.22257">
        <ele>1193</ele>
        <time>2014-11-24T11:37:44Z</time>
      </trkpt>
      <trkpt lat="45.00131" lon="5.22268">
        <ele>1193</ele>
        <time>2014-11-24T11:37:53Z</time>
      </trkpt>
      <trkpt lat="45.00128" lon="5.22279">
        <ele>1194</ele>
        <time>2014-11-24T11:38:08Z</time>
      </trkpt>
      <trkpt lat="45.00127" lon="5.22291">
        <ele>1192</ele>
        <time>2014-11-24T11:38:17Z</time>
      </trkpt>
      <trkpt lat="45.00126" lon="5.22301">
        <ele>1190</ele>
        <time>2014-11-24T11:38:25Z</time>
      </trkpt>
      <trkpt lat="45.00123" lon="5.22312">
        <ele>1191</ele>
        <time>2014-11-24T11:38:37Z</time>
      </trkpt>
      <trkpt lat="45.0012" lon="5.22323">
        <ele>1194</ele>
        <time>2014-11-24T11:38:50Z</time>
      </trkpt>
      <trkpt lat="45.00118" lon="5.22332">
        <ele>1199</ele>
        <time>2014-11-24T11:41:53Z</time>
      </trkpt>
      <trkpt lat="45.00114" lon="5.22341">
        <ele>1198</ele>
        <time>2014-11-24T11:42:01Z</time>
      </trkpt>
      <trkpt lat="45.0011" lon="5.22351">
        <ele>1198</ele>
        <time>2014-11-24T11:42:10Z</time>
      </trkpt>
      <trkpt lat="45.00105" lon="5.2236">
        <ele>1200</ele>
        <time>2014-11-24T11:42:21Z</time>
      </trkpt>
      <trkpt lat="45.00099" lon="5.22369">
        <ele>1202</ele>
        <time>2014-11-24T11:42:33Z</time>
      </trkpt>
      <trkpt lat="45.00093" lon="5.22379">
        <ele>1204</ele>
        <time>2014-11-24T11:42:46Z</time>
      </trkpt>
      <trkpt lat="45.00086" lon="5.22387">
        <ele>1206</ele>
        <time>2014-11-24T11:43:01Z</time>
      </trkpt>
      <trkpt lat="45.00084" lon="5.22396">
        <ele>1207</ele>
        <time>2014-11-24T11:43:10Z</time>
      </trkpt>
      <trkpt lat="45.00079" lon="5.22406">
        <ele>1211</ele>
        <time>2014-11-24T11:43:25Z</time>
      </trkpt>
      <trkpt lat="45.00074" lon="5.22414">
        <ele>1210</ele>
        <time>2014-11-24T11:43:37Z</time>
      </trkpt>
      <trkpt lat="45.0007" lon="5.22424">
        <ele>1214</ele>
        <time>2014-11-24T11:43:50Z</time>
      </trkpt>
      <trkpt lat="45.00065" lon="5.22434">
        <ele>1214</ele>
        <time>2014-11-24T11:44:09Z</time>
      </trkpt>
      <trkpt lat="45.00059" lon="5.22441">
        <ele>1215</ele>
        <time>2014-11-24T11:44:22Z</time>
      </trkpt>
      <trkpt lat="45.00052" lon="5.22447">
        <ele>1219</ele>
        <time>2014-11-24T11:44:41Z</time>
      </trkpt>
      <trkpt lat="45.00046" lon="5.22456">
        <ele>1221</ele>
        <time>2014-11-24T11:44:53Z</time>
      </trkpt>
      <trkpt lat="45.00043" lon="5.22467">
        <ele>1228</ele>
        <time>2014-11-24T11:45:17Z</time>
      </trkpt>
      <trkpt lat="45.00037" lon="5.22476">
        <ele>1231</ele>
        <time>2014-11-24T11:45:33Z</time>
      </trkpt>
      <trkpt lat="45.0003" lon="5.22485">
        <ele>1235</ele>
        <time>2014-11-24T11:45:49Z</time>
      </trkpt>
      <trkpt lat="45.00027" lon="5.22495">
        <ele>1238</ele>
        <time>2014-11-24T11:46:09Z</time>
      </trkpt>
      <trkpt lat="45.00021" lon="5.22503">
        <ele>1240</ele>
        <time>2014-11-24T11:46:21Z</time>
      </trkpt>
      <trkpt lat="45.00015" lon="5.22512">
        <ele>1245</ele>
        <time>2014-11-24T11:46:34Z</time>
      </trkpt>
      <trkpt lat="45.00009" lon="5.22521">
        <ele>1249</ele>
        <time>2014-11-24T11:46:57Z</time>
      </trkpt>
      <trkpt lat="45.00003" lon="5.2253">
        <ele>1255</ele>
        <time>2014-11-24T11:47:17Z</time>
      </trkpt>
      <trkpt lat="44.99998" lon="5.2254">
        <ele>1259</ele>
        <time>2014-11-24T11:47:34Z</time>
      </trkpt>
      <trkpt lat="44.99993" lon="5.22549">
        <ele>1266</ele>
        <time>2014-11-24T11:48:02Z</time>
      </trkpt>
      <trkpt lat="44.9999" lon="5.22559">
        <ele>1266</ele>
        <time>2014-11-24T11:48:33Z</time>
      </trkpt>
      <trkpt lat="44.99987" lon="5.22569">
        <ele>1273</ele>
        <time>2014-11-24T11:49:09Z</time>
      </trkpt>
      <trkpt lat="44.99982" lon="5.22579">
        <ele>1282</ele>
        <time>2014-11-24T11:49:33Z</time>
      </trkpt>
      <trkpt lat="44.99982" lon="5.22591">
        <ele>1291</ele>
        <time>2014-11-24T11:50:18Z</time>
      </trkpt>
      <trkpt lat="44.99983" lon="5.22601">
        <ele>1292</ele>
        <time>2014-11-24T11:50:34Z</time>
      </trkpt>
      <trkpt lat="44.99985" lon="5.22613">
        <ele>1302</ele>
        <time>2014-11-24T11:50:50Z</time>
      </trkpt>
      <trkpt lat="44.99986" lon="5.22623">
        <ele>1303</ele>
        <time>2014-11-24T11:51:06Z</time>
      </trkpt>
      <trkpt lat="44.99991" lon="5.22633">
        <ele>1303</ele>
        <time>2014-11-24T11:51:17Z</time>
      </trkpt>
      <trkpt lat="44.99995" lon="5.22644">
        <ele>1306</ele>
        <time>2014-11-24T11:51:34Z</time>
      </trkpt>
      <trkpt lat="44.99996" lon="5.22656">
        <ele>1305</ele>
        <time>2014-11-24T11:52:05Z</time>
      </trkpt>
      <trkpt lat="45.00001" lon="5.22667">
        <ele>1305</ele>
        <time>2014-11-24T11:52:53Z</time>
      </trkpt>
      <trkpt lat="45" lon="5.22678">
        <ele>1306</ele>
        <time>2014-11-24T11:53:13Z</time>
      </trkpt>
      <trkpt lat="44.99992" lon="5.22675">
        <ele>1323</ele>
        <time>2014-11-24T11:53:50Z</time>
      </trkpt>
      <trkpt lat="45" lon="5.2267">
        <ele>1315</ele>
        <time>2014-11-24T11:56:37Z</time>
      </trkpt>
      <trkpt lat="45" lon="5.22663">
        <ele>1312</ele>
        <time>2014-11-24T11:56:57Z</time>
      </trkpt>
      <trkpt lat="44.99996" lon="5.22654">
        <ele>1310</ele>
        <time>2014-11-24T11:57:02Z</time>
      </trkpt>
      <trkpt lat="44.99993" lon="5.22642">
        <ele>1307</ele>
        <time>2014-11-24T11:57:14Z</time>
      </trkpt>
      <trkpt lat="44.99993" lon="5.22631">
        <ele>1310</ele>
        <time>2014-11-24T11:57:26Z</time>
      </trkpt>
      <trkpt lat="44.99991" lon="5.22619">
        <ele>1306</ele>
        <time>2014-11-24T11:57:34Z</time>
      </trkpt>
      <trkpt lat="44.99986" lon="5.2261">
        <ele>1304</ele>
        <time>2014-11-24T11:57:54Z</time>
      </trkpt>
      <trkpt lat="44.99982" lon="5.22599">
        <ele>1300</ele>
        <time>2014-11-24T11:58:02Z</time>
      </trkpt>
      <trkpt lat="44.99979" lon="5.22587">
        <ele>1290</ele>
        <time>2014-11-24T11:58:22Z</time>
      </trkpt>
      <trkpt lat="44.9998" lon="5.22577">
        <ele>1289</ele>
        <time>2014-11-24T11:58:33Z</time>
      </trkpt>
      <trkpt lat="44.99982" lon="5.22566">
        <ele>1286</ele>
        <time>2014-11-24T11:58:42Z</time>
      </trkpt>
      <trkpt lat="44.9998" lon="5.22554">
        <ele>1274</ele>
        <time>2014-11-24T11:59:05Z</time>
      </trkpt>
      <trkpt lat="44.99972" lon="5.2255">
        <ele>1271</ele>
        <time>2014-11-24T11:59:46Z</time>
      </trkpt>
      <trkpt lat="44.99971" lon="5.22548">
        <ele>1271</ele>
        <time>2014-11-24T12:00:11Z</time>
      </trkpt>
      <trkpt lat="44.99971" lon="5.22548">
        <ele>1271</ele>
        <time>2014-11-24T12:00:12Z</time>
      </trkpt>
      <trkpt lat="44.99959" lon="5.2255">
        <ele>1271</ele>
        <time>2014-11-24T12:23:15Z</time>
      </trkpt>
      <trkpt lat="44.99959" lon="5.2255">
        <ele>1271</ele>
        <time>2014-11-24T12:23:19Z</time>
      </trkpt>
      <trkpt lat="44.99966" lon="5.22549">
        <ele>1265</ele>
        <time>2014-11-24T12:23:26Z</time>
      </trkpt>
      <trkpt lat="44.99965" lon="5.22561">
        <ele>1264</ele>
        <time>2014-11-24T12:25:01Z</time>
      </trkpt>
      <trkpt lat="44.99971" lon="5.2257">
        <ele>1269</ele>
        <time>2014-11-24T12:25:21Z</time>
      </trkpt>
      <trkpt lat="44.99977" lon="5.22579">
        <ele>1275</ele>
        <time>2014-11-24T12:25:49Z</time>
      </trkpt>
      <trkpt lat="44.99977" lon="5.22591">
        <ele>1274</ele>
        <time>2014-11-24T12:26:17Z</time>
      </trkpt>
      <trkpt lat="44.99979" lon="5.22604">
        <ele>1280</ele>
        <time>2014-11-24T12:26:41Z</time>
      </trkpt>
      <trkpt lat="44.99983" lon="5.22614">
        <ele>1288</ele>
        <time>2014-11-24T12:27:08Z</time>
      </trkpt>
      <trkpt lat="44.99985" lon="5.22626">
        <ele>1291</ele>
        <time>2014-11-24T12:27:24Z</time>
      </trkpt>
      <trkpt lat="44.99989" lon="5.22635">
        <ele>1294</ele>
        <time>2014-11-24T12:27:41Z</time>
      </trkpt>
      <trkpt lat="44.99993" lon="5.22645">
        <ele>1297</ele>
        <time>2014-11-24T12:28:01Z</time>
      </trkpt>
      <trkpt lat="44.99995" lon="5.22655">
        <ele>1301</ele>
        <time>2014-11-24T12:28:17Z</time>
      </trkpt>
      <trkpt lat="44.99999" lon="5.22665">
        <ele>1302</ele>
        <time>2014-11-24T12:28:45Z</time>
      </trkpt>
      <trkpt lat="44.99998" lon="5.22677">
        <ele>1314</ele>
        <time>2014-11-24T12:29:13Z</time>
      </trkpt>
      <trkpt lat="44.99989" lon="5.22676">
        <ele>1318</ele>
        <time>2014-11-24T12:30:21Z</time>
      </trkpt>
      <trkpt lat="44.99982" lon="5.22674">
        <ele>1321</ele>
        <time>2014-11-24T12:30:33Z</time>
      </trkpt>
      <trkpt lat="44.99974" lon="5.22671">
        <ele>1320</ele>
        <time>2014-11-24T12:30:41Z</time>
      </trkpt>
      <trkpt lat="44.99966" lon="5.22673">
        <ele>1318</ele>
        <time>2014-11-24T12:30:49Z</time>
      </trkpt>
      <trkpt lat="44.9996" lon="5.22673">
        <ele>1318</ele>
        <time>2014-11-24T12:30:53Z</time>
      </trkpt>
      <trkpt lat="44.99951" lon="5.22671">
        <ele>1321</ele>
        <time>2014-11-24T12:31:00Z</time>
      </trkpt>
      <trkpt lat="44.99944" lon="5.22668">
        <ele>1322</ele>
        <time>2014-11-24T12:31:08Z</time>
      </trkpt>
      <trkpt lat="44.99935" lon="5.22669">
        <ele>1323</ele>
        <time>2014-11-24T12:31:17Z</time>
      </trkpt>
      <trkpt lat="44.99927" lon="5.22667">
        <ele>1326</ele>
        <time>2014-11-24T12:31:25Z</time>
      </trkpt>
      <trkpt lat="44.9992" lon="5.22663">
        <ele>1326</ele>
        <time>2014-11-24T12:31:32Z</time>
      </trkpt>
      <trkpt lat="44.99913" lon="5.22658">
        <ele>1326</ele>
        <time>2014-11-24T12:31:41Z</time>
      </trkpt>
      <trkpt lat="44.99905" lon="5.22655">
        <ele>1326</ele>
        <time>2014-11-24T12:31:49Z</time>
      </trkpt>
      <trkpt lat="44.99897" lon="5.22651">
        <ele>1324</ele>
        <time>2014-11-24T12:32:36Z</time>
      </trkpt>
      <trkpt lat="44.9989" lon="5.22649">
        <ele>1325</ele>
        <time>2014-11-24T12:32:44Z</time>
      </trkpt>
      <trkpt lat="44.99882" lon="5.22653">
        <ele>1324</ele>
        <time>2014-11-24T12:32:52Z</time>
      </trkpt>
      <trkpt lat="44.99874" lon="5.22647">
        <ele>1322</ele>
        <time>2014-11-24T12:34:56Z</time>
      </trkpt>
      <trkpt lat="44.99868" lon="5.22655">
        <ele>1326</ele>
        <time>2014-11-24T12:38:58Z</time>
      </trkpt>
      <trkpt lat="44.99862" lon="5.22662">
        <ele>1326</ele>
        <time>2014-11-24T12:39:06Z</time>
      </trkpt>
      <trkpt lat="44.99854" lon="5.22664">
        <ele>1326</ele>
        <time>2014-11-24T12:39:14Z</time>
      </trkpt>
      <trkpt lat="44.99846" lon="5.22662">
        <ele>1325</ele>
        <time>2014-11-24T12:39:19Z</time>
      </trkpt>
      <trkpt lat="44.99839" lon="5.22656">
        <ele>1325</ele>
        <time>2014-11-24T12:39:28Z</time>
      </trkpt>
      <trkpt lat="44.99831" lon="5.22655">
        <ele>1327</ele>
        <time>2014-11-24T12:39:38Z</time>
      </trkpt>
      <trkpt lat="44.99824" lon="5.2265">
        <ele>1328</ele>
        <time>2014-11-24T12:39:46Z</time>
      </trkpt>
      <trkpt lat="44.99816" lon="5.22649">
        <ele>1327</ele>
        <time>2014-11-24T12:39:55Z</time>
      </trkpt>
      <trkpt lat="44.99808" lon="5.2265">
        <ele>1329</ele>
        <time>2014-11-24T12:40:10Z</time>
      </trkpt>
      <trkpt lat="44.99799" lon="5.22648">
        <ele>1330</ele>
        <time>2014-11-24T12:40:24Z</time>
      </trkpt>
      <trkpt lat="44.9979" lon="5.22646">
        <ele>1330</ele>
        <time>2014-11-24T12:40:33Z</time>
      </trkpt>
      <trkpt lat="44.99783" lon="5.22652">
        <ele>1329</ele>
        <time>2014-11-24T12:40:41Z</time>
      </trkpt>
      <trkpt lat="44.99775" lon="5.2265">
        <ele>1329</ele>
        <time>2014-11-24T12:40:53Z</time>
      </trkpt>
      <trkpt lat="44.99767" lon="5.22654">
        <ele>1327</ele>
        <time>2014-11-24T12:41:04Z</time>
      </trkpt>
      <trkpt lat="44.99759" lon="5.22654">
        <ele>1327</ele>
        <time>2014-11-24T12:41:12Z</time>
      </trkpt>
      <trkpt lat="44.99751" lon="5.22654">
        <ele>1326</ele>
        <time>2014-11-24T12:41:20Z</time>
      </trkpt>
      <trkpt lat="44.99743" lon="5.22653">
        <ele>1324</ele>
        <time>2014-11-24T12:41:28Z</time>
      </trkpt>
      <trkpt lat="44.99735" lon="5.22653">
        <ele>1325</ele>
        <time>2014-11-24T12:41:40Z</time>
      </trkpt>
      <trkpt lat="44.99727" lon="5.22648">
        <ele>1331</ele>
        <time>2014-11-24T12:42:16Z</time>
      </trkpt>
      <trkpt lat="44.99718" lon="5.22648">
        <ele>1328</ele>
        <time>2014-11-24T12:42:24Z</time>
      </trkpt>
      <trkpt lat="44.9971" lon="5.22647">
        <ele>1330</ele>
        <time>2014-11-24T12:42:33Z</time>
      </trkpt>
      <trkpt lat="44.99704" lon="5.22651">
        <ele>1328</ele>
        <time>2014-11-24T12:42:44Z</time>
      </trkpt>
      <trkpt lat="44.99697" lon="5.22659">
        <ele>1325</ele>
        <time>2014-11-24T12:42:53Z</time>
      </trkpt>
      <trkpt lat="44.99689" lon="5.22661">
        <ele>1328</ele>
        <time>2014-11-24T12:43:12Z</time>
      </trkpt>
      <trkpt lat="44.99681" lon="5.22662">
        <ele>1329</ele>
        <time>2014-11-24T12:43:20Z</time>
      </trkpt>
      <trkpt lat="44.99673" lon="5.22662">
        <ele>1329</ele>
        <time>2014-11-24T12:43:31Z</time>
      </trkpt>
      <trkpt lat="44.99667" lon="5.22657">
        <ele>1331</ele>
        <time>2014-11-24T12:43:39Z</time>
      </trkpt>
      <trkpt lat="44.99658" lon="5.22654">
        <ele>1331</ele>
        <time>2014-11-24T12:43:51Z</time>
      </trkpt>
      <trkpt lat="44.9965" lon="5.2265">
        <ele>1331</ele>
        <time>2014-11-24T12:44:00Z</time>
      </trkpt>
      <trkpt lat="44.99644" lon="5.22644">
        <ele>1334</ele>
        <time>2014-11-24T12:44:12Z</time>
      </trkpt>
      <trkpt lat="44.99636" lon="5.22642">
        <ele>1335</ele>
        <time>2014-11-24T12:44:20Z</time>
      </trkpt>
      <trkpt lat="44.99629" lon="5.22646">
        <ele>1334</ele>
        <time>2014-11-24T12:44:39Z</time>
      </trkpt>
      <trkpt lat="44.99622" lon="5.2265">
        <ele>1332</ele>
        <time>2014-11-24T12:44:52Z</time>
      </trkpt>
      <trkpt lat="44.99614" lon="5.22648">
        <ele>1333</ele>
        <time>2014-11-24T12:45:02Z</time>
      </trkpt>
      <trkpt lat="44.99606" lon="5.22649">
        <ele>1331</ele>
        <time>2014-11-24T12:45:11Z</time>
      </trkpt>
      <trkpt lat="44.99598" lon="5.22652">
        <ele>1334</ele>
        <time>2014-11-24T12:45:19Z</time>
      </trkpt>
      <trkpt lat="44.99589" lon="5.22651">
        <ele>1333</ele>
        <time>2014-11-24T12:45:30Z</time>
      </trkpt>
      <trkpt lat="44.99582" lon="5.22651">
        <ele>1333</ele>
        <time>2014-11-24T12:45:38Z</time>
      </trkpt>
      <trkpt lat="44.99575" lon="5.22646">
        <ele>1328</ele>
        <time>2014-11-24T12:45:47Z</time>
      </trkpt>
      <trkpt lat="44.99569" lon="5.22639">
        <ele>1334</ele>
        <time>2014-11-24T12:45:58Z</time>
      </trkpt>
      <trkpt lat="44.99564" lon="5.22628">
        <ele>1336</ele>
        <time>2014-11-24T12:46:06Z</time>
      </trkpt>
      <trkpt lat="44.9956" lon="5.22618">
        <ele>1336</ele>
        <time>2014-11-24T12:46:14Z</time>
      </trkpt>
      <trkpt lat="44.99552" lon="5.22612">
        <ele>1334</ele>
        <time>2014-11-24T12:46:21Z</time>
      </trkpt>
      <trkpt lat="44.99544" lon="5.22609">
        <ele>1335</ele>
        <time>2014-11-24T12:46:30Z</time>
      </trkpt>
      <trkpt lat="44.99536" lon="5.22606">
        <ele>1332</ele>
        <time>2014-11-24T12:46:41Z</time>
      </trkpt>
      <trkpt lat="44.99528" lon="5.22612">
        <ele>1331</ele>
        <time>2014-11-24T12:47:25Z</time>
      </trkpt>
      <trkpt lat="44.9952" lon="5.22611">
        <ele>1325</ele>
        <time>2014-11-24T12:54:17Z</time>
      </trkpt>
      <trkpt lat="44.99512" lon="5.22619">
        <ele>1321</ele>
        <time>2014-11-24T12:56:08Z</time>
      </trkpt>
      <trkpt lat="44.99506" lon="5.22626">
        <ele>1315</ele>
        <time>2014-11-24T12:57:20Z</time>
      </trkpt>
      <trkpt lat="44.99497" lon="5.22626">
        <ele>1315</ele>
        <time>2014-11-24T12:57:38Z</time>
      </trkpt>
      <trkpt lat="44.99489" lon="5.22629">
        <ele>1312</ele>
        <time>2014-11-24T12:57:54Z</time>
      </trkpt>
      <trkpt lat="44.99481" lon="5.22625">
        <ele>1314</ele>
        <time>2014-11-24T12:58:00Z</time>
      </trkpt>
      <trkpt lat="44.99474" lon="5.22631">
        <ele>1309</ele>
        <time>2014-11-24T12:58:12Z</time>
      </trkpt>
      <trkpt lat="44.99468" lon="5.22624">
        <ele>1306</ele>
        <time>2014-11-24T12:58:15Z</time>
      </trkpt>
      <trkpt lat="44.99461" lon="5.2262">
        <ele>1304</ele>
        <time>2014-11-24T12:58:27Z</time>
      </trkpt>
      <trkpt lat="44.99454" lon="5.22619">
        <ele>1307</ele>
        <time>2014-11-24T12:58:34Z</time>
      </trkpt>
      <trkpt lat="44.99447" lon="5.22615">
        <ele>1309</ele>
        <time>2014-11-24T12:58:42Z</time>
      </trkpt>
      <trkpt lat="44.99438" lon="5.22613">
        <ele>1308</ele>
        <time>2014-11-24T12:58:47Z</time>
      </trkpt>
      <trkpt lat="44.9943" lon="5.22607">
        <ele>1306</ele>
        <time>2014-11-24T12:59:01Z</time>
      </trkpt>
      <trkpt lat="44.99423" lon="5.22607">
        <ele>1306</ele>
        <time>2014-11-24T12:59:26Z</time>
      </trkpt>
      <trkpt lat="44.99416" lon="5.22605">
        <ele>1302</ele>
        <time>2014-11-24T12:59:46Z</time>
      </trkpt>
      <trkpt lat="44.9941" lon="5.22606">
        <ele>1301</ele>
        <time>2014-11-24T12:59:53Z</time>
      </trkpt>
      <trkpt lat="44.99403" lon="5.22607">
        <ele>1301</ele>
        <time>2014-11-24T12:59:58Z</time>
      </trkpt>
      <trkpt lat="44.99396" lon="5.22615">
        <ele>1298</ele>
        <time>2014-11-24T13:00:08Z</time>
      </trkpt>
      <trkpt lat="44.99388" lon="5.22621">
        <ele>1300</ele>
        <time>2014-11-24T13:00:16Z</time>
      </trkpt>
      <trkpt lat="44.99381" lon="5.22622">
        <ele>1303</ele>
        <time>2014-11-24T13:00:28Z</time>
      </trkpt>
      <trkpt lat="44.99374" lon="5.22622">
        <ele>1296</ele>
        <time>2014-11-24T13:00:41Z</time>
      </trkpt>
      <trkpt lat="44.99368" lon="5.22631">
        <ele>1290</ele>
        <time>2014-11-24T13:01:12Z</time>
      </trkpt>
      <trkpt lat="44.99368" lon="5.22643">
        <ele>1288</ele>
        <time>2014-11-24T13:01:20Z</time>
      </trkpt>
      <trkpt lat="44.99369" lon="5.22654">
        <ele>1287</ele>
        <time>2014-11-24T13:01:29Z</time>
      </trkpt>
      <trkpt lat="44.99364" lon="5.22663">
        <ele>1288</ele>
        <time>2014-11-24T13:01:37Z</time>
      </trkpt>
      <trkpt lat="44.99362" lon="5.22673">
        <ele>1288</ele>
        <time>2014-11-24T13:01:48Z</time>
      </trkpt>
      <trkpt lat="44.99356" lon="5.2268">
        <ele>1282</ele>
        <time>2014-11-24T13:01:53Z</time>
      </trkpt>
      <trkpt lat="44.99348" lon="5.22681">
        <ele>1280</ele>
        <time>2014-11-24T13:02:01Z</time>
      </trkpt>
      <trkpt lat="44.9934" lon="5.22675">
        <ele>1279</ele>
        <time>2014-11-24T13:02:19Z</time>
      </trkpt>
      <trkpt lat="44.99332" lon="5.22673">
        <ele>1277</ele>
        <time>2014-11-24T13:02:35Z</time>
      </trkpt>
      <trkpt lat="44.99325" lon="5.22667">
        <ele>1283</ele>
        <time>2014-11-24T13:02:53Z</time>
      </trkpt>
      <trkpt lat="44.99318" lon="5.22662">
        <ele>1284</ele>
        <time>2014-11-24T13:03:01Z</time>
      </trkpt>
      <trkpt lat="44.99314" lon="5.22658">
        <ele>1286</ele>
        <time>2014-11-24T13:03:06Z</time>
      </trkpt>
      <trkpt lat="44.9931" lon="5.22651">
        <ele>1286</ele>
        <time>2014-11-24T13:03:10Z</time>
      </trkpt>
      <trkpt lat="44.99305" lon="5.22644">
        <ele>1281</ele>
        <time>2014-11-24T13:03:16Z</time>
      </trkpt>
      <trkpt lat="44.99299" lon="5.22635">
        <ele>1283</ele>
        <time>2014-11-24T13:03:24Z</time>
      </trkpt>
      <trkpt lat="44.99292" lon="5.22631">
        <ele>1286</ele>
        <time>2014-11-24T13:03:31Z</time>
      </trkpt>
      <trkpt lat="44.99283" lon="5.22631">
        <ele>1281</ele>
        <time>2014-11-24T13:03:43Z</time>
      </trkpt>
      <trkpt lat="44.99274" lon="5.22634">
        <ele>1283</ele>
        <time>2014-11-24T13:04:02Z</time>
      </trkpt>
      <trkpt lat="44.99268" lon="5.22639">
        <ele>1280</ele>
        <time>2014-11-24T13:04:19Z</time>
      </trkpt>
      <trkpt lat="44.99261" lon="5.22646">
        <ele>1275</ele>
        <time>2014-11-24T13:04:34Z</time>
      </trkpt>
      <trkpt lat="44.99256" lon="5.22641">
        <ele>1279</ele>
        <time>2014-11-24T13:04:43Z</time>
      </trkpt>
      <trkpt lat="44.9925" lon="5.22634">
        <ele>1279</ele>
        <time>2014-11-24T13:04:50Z</time>
      </trkpt>
      <trkpt lat="44.99242" lon="5.22628">
        <ele>1277</ele>
        <time>2014-11-24T13:04:55Z</time>
      </trkpt>
      <trkpt lat="44.99236" lon="5.22627">
        <ele>1277</ele>
        <time>2014-11-24T13:05:10Z</time>
      </trkpt>
      <trkpt lat="44.99229" lon="5.22623">
        <ele>1279</ele>
        <time>2014-11-24T13:05:30Z</time>
      </trkpt>
      <trkpt lat="44.9922" lon="5.22619">
        <ele>1276</ele>
        <time>2014-11-24T13:05:34Z</time>
      </trkpt>
      <trkpt lat="44.99211" lon="5.22613">
        <ele>1271</ele>
        <time>2014-11-24T13:05:38Z</time>
      </trkpt>
      <trkpt lat="44.99206" lon="5.22603">
        <ele>1277</ele>
        <time>2014-11-24T13:05:48Z</time>
      </trkpt>
      <trkpt lat="44.99206" lon="5.22593">
        <ele>1275</ele>
        <time>2014-11-24T13:06:06Z</time>
      </trkpt>
      <trkpt lat="44.992" lon="5.22586">
        <ele>1275</ele>
        <time>2014-11-24T13:06:14Z</time>
      </trkpt>
      <trkpt lat="44.99192" lon="5.2258">
        <ele>1271</ele>
        <time>2014-11-24T13:06:22Z</time>
      </trkpt>
      <trkpt lat="44.99187" lon="5.22591">
        <ele>1268</ele>
        <time>2014-11-24T13:06:54Z</time>
      </trkpt>
      <trkpt lat="44.99182" lon="5.22598">
        <ele>1271</ele>
        <time>2014-11-24T13:07:03Z</time>
      </trkpt>
      <trkpt lat="44.99175" lon="5.22606">
        <ele>1269</ele>
        <time>2014-11-24T13:07:16Z</time>
      </trkpt>
      <trkpt lat="44.99169" lon="5.22612">
        <ele>1270</ele>
        <time>2014-11-24T13:07:24Z</time>
      </trkpt>
      <trkpt lat="44.99164" lon="5.22623">
        <ele>1275</ele>
        <time>2014-11-24T13:07:36Z</time>
      </trkpt>
      <trkpt lat="44.99156" lon="5.22618">
        <ele>1261</ele>
        <time>2014-11-24T13:07:54Z</time>
      </trkpt>
      <trkpt lat="44.99148" lon="5.22613">
        <ele>1257</ele>
        <time>2014-11-24T13:08:10Z</time>
      </trkpt>
      <trkpt lat="44.99142" lon="5.22606">
        <ele>1256</ele>
        <time>2014-11-24T13:08:30Z</time>
      </trkpt>
      <trkpt lat="44.99134" lon="5.22605">
        <ele>1252</ele>
        <time>2014-11-24T13:09:06Z</time>
      </trkpt>
      <trkpt lat="44.99127" lon="5.22601">
        <ele>1255</ele>
        <time>2014-11-24T13:09:13Z</time>
      </trkpt>
      <trkpt lat="44.99119" lon="5.22603">
        <ele>1260</ele>
        <time>2014-11-24T13:09:21Z</time>
      </trkpt>
      <trkpt lat="44.99114" lon="5.22611">
        <ele>1255</ele>
        <time>2014-11-24T13:09:49Z</time>
      </trkpt>
      <trkpt lat="44.99109" lon="5.2262">
        <ele>1256</ele>
        <time>2014-11-24T13:10:01Z</time>
      </trkpt>
      <trkpt lat="44.99104" lon="5.22628">
        <ele>1260</ele>
        <time>2014-11-24T13:10:13Z</time>
      </trkpt>
      <trkpt lat="44.99101" lon="5.22634">
        <ele>1258</ele>
        <time>2014-11-24T13:10:22Z</time>
      </trkpt>
      <trkpt lat="44.99107" lon="5.22646">
        <ele>1242</ele>
        <time>2014-11-24T13:10:26Z</time>
      </trkpt>
      <trkpt lat="44.991" lon="5.22645">
        <ele>1240</ele>
        <time>2014-11-24T13:10:36Z</time>
      </trkpt>
      <trkpt lat="44.99091" lon="5.22645">
        <ele>1241</ele>
        <time>2014-11-24T13:10:41Z</time>
      </trkpt>
      <trkpt lat="44.99083" lon="5.2264">
        <ele>1236</ele>
        <time>2014-11-24T13:10:59Z</time>
      </trkpt>
      <trkpt lat="44.99075" lon="5.22639">
        <ele>1234</ele>
        <time>2014-11-24T13:11:12Z</time>
      </trkpt>
      <trkpt lat="44.99066" lon="5.22635">
        <ele>1234</ele>
        <time>2014-11-24T13:11:58Z</time>
      </trkpt>
      <trkpt lat="44.99061" lon="5.22631">
        <ele>1231</ele>
        <time>2014-11-24T13:12:22Z</time>
      </trkpt>
      <trkpt lat="44.99054" lon="5.22626">
        <ele>1277</ele>
        <time>2014-11-24T13:12:27Z</time>
      </trkpt>
      <trkpt lat="44.99047" lon="5.22619">
        <ele>1225</ele>
        <time>2014-11-24T13:12:42Z</time>
      </trkpt>
      <trkpt lat="44.9904" lon="5.22615">
        <ele>1224</ele>
        <time>2014-11-24T13:12:51Z</time>
      </trkpt>
      <trkpt lat="44.99031" lon="5.22614">
        <ele>1230</ele>
        <time>2014-11-24T13:13:00Z</time>
      </trkpt>
      <trkpt lat="44.99023" lon="5.22615">
        <ele>1235</ele>
        <time>2014-11-24T13:13:10Z</time>
      </trkpt>
      <trkpt lat="44.99015" lon="5.22615">
        <ele>1239</ele>
        <time>2014-11-24T13:13:26Z</time>
      </trkpt>
      <trkpt lat="44.99008" lon="5.22616">
        <ele>1238</ele>
        <time>2014-11-24T13:13:30Z</time>
      </trkpt>
      <trkpt lat="44.99" lon="5.22616">
        <ele>1237</ele>
        <time>2014-11-24T13:13:35Z</time>
      </trkpt>
      <trkpt lat="44.98992" lon="5.22616">
        <ele>1238</ele>
        <time>2014-11-24T13:13:43Z</time>
      </trkpt>
      <trkpt lat="44.98986" lon="5.22607">
        <ele>1240</ele>
        <time>2014-11-24T13:13:54Z</time>
      </trkpt>
      <trkpt lat="44.98982" lon="5.22597">
        <ele>1244</ele>
        <time>2014-11-24T13:14:06Z</time>
      </trkpt>
      <trkpt lat="44.98976" lon="5.22592">
        <ele>1253</ele>
        <time>2014-11-24T13:14:22Z</time>
      </trkpt>
      <trkpt lat="44.98968" lon="5.22588">
        <ele>1244</ele>
        <time>2014-11-24T13:14:31Z</time>
      </trkpt>
      <trkpt lat="44.98961" lon="5.22589">
        <ele>1253</ele>
        <time>2014-11-24T13:14:49Z</time>
      </trkpt>
      <trkpt lat="44.98953" lon="5.22582">
        <ele>1262</ele>
        <time>2014-11-24T13:15:01Z</time>
      </trkpt>
      <trkpt lat="44.98948" lon="5.22574">
        <ele>1264</ele>
        <time>2014-11-24T13:15:10Z</time>
      </trkpt>
      <trkpt lat="44.98942" lon="5.22565">
        <ele>1263</ele>
        <time>2014-11-24T13:15:17Z</time>
      </trkpt>
      <trkpt lat="44.98937" lon="5.22556">
        <ele>1263</ele>
        <time>2014-11-24T13:15:24Z</time>
      </trkpt>
      <trkpt lat="44.98936" lon="5.22546">
        <ele>1263</ele>
        <time>2014-11-24T13:15:32Z</time>
      </trkpt>
      <trkpt lat="44.9893" lon="5.22538">
        <ele>1262</ele>
        <time>2014-11-24T13:15:37Z</time>
      </trkpt>
      <trkpt lat="44.98927" lon="5.22526">
        <ele>1261</ele>
        <time>2014-11-24T13:15:48Z</time>
      </trkpt>
      <trkpt lat="44.98918" lon="5.22522">
        <ele>1264</ele>
        <time>2014-11-24T13:16:03Z</time>
      </trkpt>
      <trkpt lat="44.98911" lon="5.22525">
        <ele>1265</ele>
        <time>2014-11-24T13:16:12Z</time>
      </trkpt>
      <trkpt lat="44.98903" lon="5.22526">
        <ele>1261</ele>
        <time>2014-11-24T13:16:24Z</time>
      </trkpt>
      <trkpt lat="44.98896" lon="5.22523">
        <ele>1274</ele>
        <time>2014-11-24T13:16:31Z</time>
      </trkpt>
      <trkpt lat="44.98888" lon="5.22518">
        <ele>1266</ele>
        <time>2014-11-24T13:16:38Z</time>
      </trkpt>
      <trkpt lat="44.98882" lon="5.22511">
        <ele>1267</ele>
        <time>2014-11-24T13:16:47Z</time>
      </trkpt>
      <trkpt lat="44.98874" lon="5.22505">
        <ele>1266</ele>
        <time>2014-11-24T13:16:54Z</time>
      </trkpt>
      <trkpt lat="44.9887" lon="5.22502">
        <ele>1267</ele>
        <time>2014-11-24T13:16:59Z</time>
      </trkpt>
      <trkpt lat="44.98865" lon="5.22496">
        <ele>1258</ele>
        <time>2014-11-24T13:17:03Z</time>
      </trkpt>
      <trkpt lat="44.98858" lon="5.22491">
        <ele>1261</ele>
        <time>2014-11-24T13:17:10Z</time>
      </trkpt>
      <trkpt lat="44.9885" lon="5.2249">
        <ele>1271</ele>
        <time>2014-11-24T13:17:17Z</time>
      </trkpt>
      <trkpt lat="44.98844" lon="5.22495">
        <ele>1278</ele>
        <time>2014-11-24T13:17:29Z</time>
      </trkpt>
      <trkpt lat="44.98841" lon="5.22507">
        <ele>1282</ele>
        <time>2014-11-24T13:17:37Z</time>
      </trkpt>
      <trkpt lat="44.98839" lon="5.22515">
        <ele>1287</ele>
        <time>2014-11-24T13:17:45Z</time>
      </trkpt>
      <trkpt lat="44.98832" lon="5.22519">
        <ele>1287</ele>
        <time>2014-11-24T13:17:49Z</time>
      </trkpt>
      <trkpt lat="44.98824" lon="5.22523">
        <ele>1282</ele>
        <time>2014-11-24T13:17:56Z</time>
      </trkpt>
      <trkpt lat="44.98818" lon="5.22526">
        <ele>1279</ele>
        <time>2014-11-24T13:18:00Z</time>
      </trkpt>
      <trkpt lat="44.98811" lon="5.22534">
        <ele>1273</ele>
        <time>2014-11-24T13:18:08Z</time>
      </trkpt>
      <trkpt lat="44.98803" lon="5.22531">
        <ele>1268</ele>
        <time>2014-11-24T13:18:13Z</time>
      </trkpt>
      <trkpt lat="44.98796" lon="5.22528">
        <ele>1264</ele>
        <time>2014-11-24T13:18:20Z</time>
      </trkpt>
      <trkpt lat="44.98789" lon="5.22529">
        <ele>1262</ele>
        <time>2014-11-24T13:18:30Z</time>
      </trkpt>
      <trkpt lat="44.98782" lon="5.22526">
        <ele>1258</ele>
        <time>2014-11-24T13:18:35Z</time>
      </trkpt>
      <trkpt lat="44.98773" lon="5.22524">
        <ele>1259</ele>
        <time>2014-11-24T13:18:39Z</time>
      </trkpt>
      <trkpt lat="44.98768" lon="5.22522">
        <ele>1255</ele>
        <time>2014-11-24T13:18:43Z</time>
      </trkpt>
      <trkpt lat="44.9876" lon="5.22518">
        <ele>1245</ele>
        <time>2014-11-24T13:18:48Z</time>
      </trkpt>
      <trkpt lat="44.98752" lon="5.22511">
        <ele>1248</ele>
        <time>2014-11-24T13:19:00Z</time>
      </trkpt>
      <trkpt lat="44.98747" lon="5.22504">
        <ele>1257</ele>
        <time>2014-11-24T13:19:08Z</time>
      </trkpt>
      <trkpt lat="44.98741" lon="5.22495">
        <ele>1262</ele>
        <time>2014-11-24T13:19:16Z</time>
      </trkpt>
      <trkpt lat="44.98737" lon="5.22485">
        <ele>1263</ele>
        <time>2014-11-24T13:19:21Z</time>
      </trkpt>
      <trkpt lat="44.98737" lon="5.22475">
        <ele>1262</ele>
        <time>2014-11-24T13:19:25Z</time>
      </trkpt>
      <trkpt lat="44.98738" lon="5.22466">
        <ele>1261</ele>
        <time>2014-11-24T13:19:29Z</time>
      </trkpt>
      <trkpt lat="44.98739" lon="5.22457">
        <ele>1260</ele>
        <time>2014-11-24T13:19:36Z</time>
      </trkpt>
      <trkpt lat="44.98739" lon="5.22446">
        <ele>1260</ele>
        <time>2014-11-24T13:19:41Z</time>
      </trkpt>
      <trkpt lat="44.9874" lon="5.22435">
        <ele>1262</ele>
        <time>2014-11-24T13:19:49Z</time>
      </trkpt>
      <trkpt lat="44.98735" lon="5.22424">
        <ele>1260</ele>
        <time>2014-11-24T13:19:57Z</time>
      </trkpt>
      <trkpt lat="44.98734" lon="5.22413">
        <ele>1259</ele>
        <time>2014-11-24T13:20:04Z</time>
      </trkpt>
      <trkpt lat="44.98727" lon="5.2241">
        <ele>1258</ele>
        <time>2014-11-24T13:20:09Z</time>
      </trkpt>
      <trkpt lat="44.98719" lon="5.22415">
        <ele>1264</ele>
        <time>2014-11-24T13:20:17Z</time>
      </trkpt>
      <trkpt lat="44.98711" lon="5.22417">
        <ele>1260</ele>
        <time>2014-11-24T13:20:25Z</time>
      </trkpt>
      <trkpt lat="44.98702" lon="5.22417">
        <ele>1261</ele>
        <time>2014-11-24T13:20:33Z</time>
      </trkpt>
      <trkpt lat="44.98693" lon="5.2242">
        <ele>1261</ele>
        <time>2014-11-24T13:20:44Z</time>
      </trkpt>
      <trkpt lat="44.98686" lon="5.22424">
        <ele>1259</ele>
        <time>2014-11-24T13:20:53Z</time>
      </trkpt>
      <trkpt lat="44.98678" lon="5.22423">
        <ele>1261</ele>
        <time>2014-11-24T13:21:01Z</time>
      </trkpt>
      <trkpt lat="44.98669" lon="5.22423">
        <ele>1265</ele>
        <time>2014-11-24T13:21:12Z</time>
      </trkpt>
      <trkpt lat="44.98662" lon="5.22429">
        <ele>1265</ele>
        <time>2014-11-24T13:21:20Z</time>
      </trkpt>
      <trkpt lat="44.98654" lon="5.22426">
        <ele>1263</ele>
        <time>2014-11-24T13:21:25Z</time>
      </trkpt>
      <trkpt lat="44.98646" lon="5.22426">
        <ele>1268</ele>
        <time>2014-11-24T13:21:29Z</time>
      </trkpt>
      <trkpt lat="44.98641" lon="5.22425">
        <ele>1264</ele>
        <time>2014-11-24T13:21:33Z</time>
      </trkpt>
      <trkpt lat="44.98634" lon="5.2242">
        <ele>1260</ele>
        <time>2014-11-24T13:21:37Z</time>
      </trkpt>
      <trkpt lat="44.98628" lon="5.22417">
        <ele>1259</ele>
        <time>2014-11-24T13:21:41Z</time>
      </trkpt>
      <trkpt lat="44.98622" lon="5.2242">
        <ele>1258</ele>
        <time>2014-11-24T13:21:48Z</time>
      </trkpt>
      <trkpt lat="44.98615" lon="5.22424">
        <ele>1259</ele>
        <time>2014-11-24T13:21:53Z</time>
      </trkpt>
      <trkpt lat="44.9861" lon="5.22429">
        <ele>1260</ele>
        <time>2014-11-24T13:22:01Z</time>
      </trkpt>
      <trkpt lat="44.98605" lon="5.22436">
        <ele>1256</ele>
        <time>2014-11-24T13:22:12Z</time>
      </trkpt>
      <trkpt lat="44.98601" lon="5.22443">
        <ele>1257</ele>
        <time>2014-11-24T13:22:16Z</time>
      </trkpt>
      <trkpt lat="44.98594" lon="5.2245">
        <ele>1258</ele>
        <time>2014-11-24T13:22:21Z</time>
      </trkpt>
      <trkpt lat="44.98587" lon="5.22447">
        <ele>1255</ele>
        <time>2014-11-24T13:22:26Z</time>
      </trkpt>
      <trkpt lat="44.9858" lon="5.2245">
        <ele>1254</ele>
        <time>2014-11-24T13:22:30Z</time>
      </trkpt>
      <trkpt lat="44.98572" lon="5.22448">
        <ele>1248</ele>
        <time>2014-11-24T13:22:37Z</time>
      </trkpt>
      <trkpt lat="44.98565" lon="5.22444">
        <ele>1245</ele>
        <time>2014-11-24T13:22:42Z</time>
      </trkpt>
      <trkpt lat="44.98559" lon="5.22437">
        <ele>1240</ele>
        <time>2014-11-24T13:22:48Z</time>
      </trkpt>
      <trkpt lat="44.98553" lon="5.22427">
        <ele>1236</ele>
        <time>2014-11-24T13:22:56Z</time>
      </trkpt>
      <trkpt lat="44.98545" lon="5.22423">
        <ele>1240</ele>
        <time>2014-11-24T13:23:03Z</time>
      </trkpt>
      <trkpt lat="44.98542" lon="5.22414">
        <ele>1235</ele>
        <time>2014-11-24T13:23:08Z</time>
      </trkpt>
      <trkpt lat="44.9854" lon="5.22404">
        <ele>1236</ele>
        <time>2014-11-24T13:23:12Z</time>
      </trkpt>
      <trkpt lat="44.98536" lon="5.22395">
        <ele>1235</ele>
        <time>2014-11-24T13:23:19Z</time>
      </trkpt>
      <trkpt lat="44.9853" lon="5.22386">
        <ele>1236</ele>
        <time>2014-11-24T13:23:31Z</time>
      </trkpt>
      <trkpt lat="44.98532" lon="5.22376">
        <ele>1238</ele>
        <time>2014-11-24T13:23:40Z</time>
      </trkpt>
      <trkpt lat="44.98526" lon="5.22369">
        <ele>1236</ele>
        <time>2014-11-24T13:23:54Z</time>
      </trkpt>
      <trkpt lat="44.9852" lon="5.22362">
        <ele>1237</ele>
        <time>2014-11-24T13:24:03Z</time>
      </trkpt>
      <trkpt lat="44.98512" lon="5.22359">
        <ele>1240</ele>
        <time>2014-11-24T13:24:14Z</time>
      </trkpt>
      <trkpt lat="44.98507" lon="5.22349">
        <ele>1237</ele>
        <time>2014-11-24T13:24:28Z</time>
      </trkpt>
      <trkpt lat="44.98501" lon="5.2234">
        <ele>1234</ele>
        <time>2014-11-24T13:24:37Z</time>
      </trkpt>
      <trkpt lat="44.98494" lon="5.22337">
        <ele>1237</ele>
        <time>2014-11-24T13:24:45Z</time>
      </trkpt>
      <trkpt lat="44.98487" lon="5.22335">
        <ele>1280</ele>
        <time>2014-11-24T13:24:57Z</time>
      </trkpt>
      <trkpt lat="44.9848" lon="5.22329">
        <ele>1277</ele>
        <time>2014-11-24T13:25:09Z</time>
      </trkpt>
      <trkpt lat="44.98474" lon="5.22326">
        <ele>1283</ele>
        <time>2014-11-24T13:25:15Z</time>
      </trkpt>
      <trkpt lat="44.98465" lon="5.22326">
        <ele>1249</ele>
        <time>2014-11-24T13:25:25Z</time>
      </trkpt>
      <trkpt lat="44.98456" lon="5.22324">
        <ele>1253</ele>
        <time>2014-11-24T13:25:37Z</time>
      </trkpt>
      <trkpt lat="44.98449" lon="5.2232">
        <ele>1258</ele>
        <time>2014-11-24T13:25:48Z</time>
      </trkpt>
      <trkpt lat="44.98442" lon="5.22313">
        <ele>1248</ele>
        <time>2014-11-24T13:26:03Z</time>
      </trkpt>
      <trkpt lat="44.98437" lon="5.22304">
        <ele>1244</ele>
        <time>2014-11-24T13:26:18Z</time>
      </trkpt>
      <trkpt lat="44.98432" lon="5.22296">
        <ele>1244</ele>
        <time>2014-11-24T13:26:30Z</time>
      </trkpt>
      <trkpt lat="44.98426" lon="5.22287">
        <ele>1240</ele>
        <time>2014-11-24T13:26:41Z</time>
      </trkpt>
      <trkpt lat="44.98418" lon="5.2228">
        <ele>1237</ele>
        <time>2014-11-24T13:26:54Z</time>
      </trkpt>
      <trkpt lat="44.98412" lon="5.22272">
        <ele>1242</ele>
        <time>2014-11-24T13:27:05Z</time>
      </trkpt>
      <trkpt lat="44.98408" lon="5.22262">
        <ele>1238</ele>
        <time>2014-11-24T13:27:17Z</time>
      </trkpt>
      <trkpt lat="44.98405" lon="5.22251">
        <ele>1238</ele>
        <time>2014-11-24T13:27:27Z</time>
      </trkpt>
      <trkpt lat="44.98398" lon="5.22243">
        <ele>1236</ele>
        <time>2014-11-24T13:27:47Z</time>
      </trkpt>
      <trkpt lat="44.98394" lon="5.22233">
        <ele>1236</ele>
        <time>2014-11-24T13:28:03Z</time>
      </trkpt>
      <trkpt lat="44.9839" lon="5.22223">
        <ele>1233</ele>
        <time>2014-11-24T13:28:26Z</time>
      </trkpt>
      <trkpt lat="44.98382" lon="5.22219">
        <ele>1230</ele>
        <time>2014-11-24T13:28:49Z</time>
      </trkpt>
      <trkpt lat="44.98374" lon="5.22218">
        <ele>1228</ele>
        <time>2014-11-24T13:29:10Z</time>
      </trkpt>
      <trkpt lat="44.98366" lon="5.22214">
        <ele>1226</ele>
        <time>2014-11-24T13:29:29Z</time>
      </trkpt>
      <trkpt lat="44.98358" lon="5.22212">
        <ele>1224</ele>
        <time>2014-11-24T13:29:54Z</time>
      </trkpt>
      <trkpt lat="44.9835" lon="5.22208">
        <ele>1219</ele>
        <time>2014-11-24T13:30:26Z</time>
      </trkpt>
      <trkpt lat="44.98341" lon="5.22206">
        <ele>1206</ele>
        <time>2014-11-24T13:31:11Z</time>
      </trkpt>
      <trkpt lat="44.98332" lon="5.22203">
        <ele>1202</ele>
        <time>2014-11-24T13:31:43Z</time>
      </trkpt>
      <trkpt lat="44.98324" lon="5.22201">
        <ele>1198</ele>
        <time>2014-11-24T13:32:12Z</time>
      </trkpt>
      <trkpt lat="44.98316" lon="5.222">
        <ele>1197</ele>
        <time>2014-11-24T13:32:32Z</time>
      </trkpt>
      <trkpt lat="44.98308" lon="5.22198">
        <ele>1198</ele>
        <time>2014-11-24T13:32:47Z</time>
      </trkpt>
      <trkpt lat="44.98301" lon="5.22191">
        <ele>1200</ele>
        <time>2014-11-24T13:36:32Z</time>
      </trkpt>
      <trkpt lat="44.98293" lon="5.22185">
        <ele>1195</ele>
        <time>2014-11-24T13:36:44Z</time>
      </trkpt>
      <trkpt lat="44.98286" lon="5.22178">
        <ele>1196</ele>
        <time>2014-11-24T13:36:52Z</time>
      </trkpt>
      <trkpt lat="44.98281" lon="5.22169">
        <ele>1195</ele>
        <time>2014-11-24T13:37:04Z</time>
      </trkpt>
      <trkpt lat="44.98274" lon="5.22161">
        <ele>1199</ele>
        <time>2014-11-24T13:37:11Z</time>
      </trkpt>
      <trkpt lat="44.9827" lon="5.22152">
        <ele>1196</ele>
        <time>2014-11-24T13:37:18Z</time>
      </trkpt>
      <trkpt lat="44.98269" lon="5.22141">
        <ele>1196</ele>
        <time>2014-11-24T13:37:26Z</time>
      </trkpt>
      <trkpt lat="44.98264" lon="5.22131">
        <ele>1207</ele>
        <time>2014-11-24T13:37:44Z</time>
      </trkpt>
      <trkpt lat="44.98257" lon="5.22124">
        <ele>1236</ele>
        <time>2014-11-24T13:37:58Z</time>
      </trkpt>
      <trkpt lat="44.9825" lon="5.22117">
        <ele>1203</ele>
        <time>2014-11-24T13:38:14Z</time>
      </trkpt>
      <trkpt lat="44.98243" lon="5.22111">
        <ele>1205</ele>
        <time>2014-11-24T13:38:29Z</time>
      </trkpt>
      <trkpt lat="44.98236" lon="5.22103">
        <ele>1207</ele>
        <time>2014-11-24T13:38:53Z</time>
      </trkpt>
      <trkpt lat="44.98228" lon="5.22099">
        <ele>1216</ele>
        <time>2014-11-24T13:39:05Z</time>
      </trkpt>
      <trkpt lat="44.98221" lon="5.22092">
        <ele>1209</ele>
        <time>2014-11-24T13:39:23Z</time>
      </trkpt>
      <trkpt lat="44.98214" lon="5.22087">
        <ele>1210</ele>
        <time>2014-11-24T13:39:33Z</time>
      </trkpt>
      <trkpt lat="44.98205" lon="5.22085">
        <ele>1213</ele>
        <time>2014-11-24T13:39:42Z</time>
      </trkpt>
      <trkpt lat="44.98198" lon="5.22078">
        <ele>1213</ele>
        <time>2014-11-24T13:39:53Z</time>
      </trkpt>
      <trkpt lat="44.98192" lon="5.22071">
        <ele>1239</ele>
        <time>2014-11-24T13:40:02Z</time>
      </trkpt>
      <trkpt lat="44.98184" lon="5.22064">
        <ele>1222</ele>
        <time>2014-11-24T13:40:13Z</time>
      </trkpt>
      <trkpt lat="44.98179" lon="5.22055">
        <ele>1215</ele>
        <time>2014-11-24T13:40:32Z</time>
      </trkpt>
      <trkpt lat="44.98173" lon="5.22051">
        <ele>1210</ele>
        <time>2014-11-24T13:40:41Z</time>
      </trkpt>
      <trkpt lat="44.98167" lon="5.22044">
        <ele>1213</ele>
        <time>2014-11-24T13:40:52Z</time>
      </trkpt>
      <trkpt lat="44.98161" lon="5.22039">
        <ele>1210</ele>
        <time>2014-11-24T13:41:54Z</time>
      </trkpt>
      <trkpt lat="44.98156" lon="5.22029">
        <ele>1232</ele>
        <time>2014-11-24T13:42:48Z</time>
      </trkpt>
      <trkpt lat="44.98155" lon="5.22017">
        <ele>1237</ele>
        <time>2014-11-24T13:43:09Z</time>
      </trkpt>
      <trkpt lat="44.98155" lon="5.22006">
        <ele>1208</ele>
        <time>2014-11-24T13:46:00Z</time>
      </trkpt>
      <trkpt lat="44.9815" lon="5.21995">
        <ele>1213</ele>
        <time>2014-11-24T13:47:40Z</time>
      </trkpt>
      <trkpt lat="44.98155" lon="5.21984">
        <ele>1211</ele>
        <time>2014-11-24T13:49:18Z</time>
      </trkpt>
      <trkpt lat="44.98155" lon="5.21972">
        <ele>1202</ele>
        <time>2014-11-24T13:50:43Z</time>
      </trkpt>
      <trkpt lat="44.98155" lon="5.21959">
        <ele>1198</ele>
        <time>2014-11-24T13:53:39Z</time>
      </trkpt>
      <trkpt lat="44.98148" lon="5.21951">
        <ele>1193</ele>
        <time>2014-11-24T13:54:17Z</time>
      </trkpt>
      <trkpt lat="44.98143" lon="5.21941">
        <ele>1196</ele>
        <time>2014-11-24T13:54:53Z</time>
      </trkpt>
      <trkpt lat="44.98142" lon="5.21928">
        <ele>1191</ele>
        <time>2014-11-24T13:55:35Z</time>
      </trkpt>
      <trkpt lat="44.98141" lon="5.21916">
        <ele>1186</ele>
        <time>2014-11-24T13:56:38Z</time>
      </trkpt>
      <trkpt lat="44.98139" lon="5.21904">
        <ele>1183</ele>
        <time>2014-11-24T13:57:40Z</time>
      </trkpt>
      <trkpt lat="44.98135" lon="5.21893">
        <ele>1177</ele>
        <time>2014-11-24T13:58:29Z</time>
      </trkpt>
      <trkpt lat="44.98132" lon="5.21882">
        <ele>1167</ele>
        <time>2014-11-24T13:59:00Z</time>
      </trkpt>
      <trkpt lat="44.98138" lon="5.21874">
        <ele>1166</ele>
        <time>2014-11-24T13:59:48Z</time>
      </trkpt>
      <trkpt lat="44.98141" lon="5.21863">
        <ele>1149</ele>
        <time>2014-11-24T14:00:48Z</time>
      </trkpt>
      <trkpt lat="44.98141" lon="5.2185">
        <ele>1147</ele>
        <time>2014-11-24T14:01:31Z</time>
      </trkpt>
      <trkpt lat="44.98147" lon="5.21842">
        <ele>1142</ele>
        <time>2014-11-24T14:02:11Z</time>
      </trkpt>
      <trkpt lat="44.98152" lon="5.21832">
        <ele>1134</ele>
        <time>2014-11-24T14:03:23Z</time>
      </trkpt>
      <trkpt lat="44.98153" lon="5.2182">
        <ele>1124</ele>
        <time>2014-11-24T14:03:48Z</time>
      </trkpt>
      <trkpt lat="44.98152" lon="5.21808">
        <ele>1124</ele>
        <time>2014-11-24T14:05:42Z</time>
      </trkpt>
      <trkpt lat="44.98154" lon="5.21796">
        <ele>1129</ele>
        <time>2014-11-24T14:06:23Z</time>
      </trkpt>
      <trkpt lat="44.98161" lon="5.21788">
        <ele>1125</ele>
        <time>2014-11-24T14:06:38Z</time>
      </trkpt>
      <trkpt lat="44.98169" lon="5.21785">
        <ele>1113</ele>
        <time>2014-11-24T14:07:27Z</time>
      </trkpt>
      <trkpt lat="44.98173" lon="5.21774">
        <ele>1117</ele>
        <time>2014-11-24T14:08:45Z</time>
      </trkpt>
      <trkpt lat="44.98173" lon="5.21761">
        <ele>1104</ele>
        <time>2014-11-24T14:09:19Z</time>
      </trkpt>
      <trkpt lat="44.98171" lon="5.21749">
        <ele>1102</ele>
        <time>2014-11-24T14:11:02Z</time>
      </trkpt>
      <trkpt lat="44.98168" lon="5.21738">
        <ele>1093</ele>
        <time>2014-11-24T14:12:52Z</time>
      </trkpt>
      <trkpt lat="44.98173" lon="5.21729">
        <ele>1091</ele>
        <time>2014-11-24T14:14:19Z</time>
      </trkpt>
      <trkpt lat="44.98176" lon="5.2172">
        <ele>1093</ele>
        <time>2014-11-24T14:14:30Z</time>
      </trkpt>
      <trkpt lat="44.98176" lon="5.21707">
        <ele>1091</ele>
        <time>2014-11-24T14:14:42Z</time>
      </trkpt>
      <trkpt lat="44.98179" lon="5.21697">
        <ele>1093</ele>
        <time>2014-11-24T14:14:54Z</time>
      </trkpt>
      <trkpt lat="44.98177" lon="5.21686">
        <ele>1101</ele>
        <time>2014-11-24T14:15:03Z</time>
      </trkpt>
      <trkpt lat="44.98179" lon="5.21676">
        <ele>1097</ele>
        <time>2014-11-24T14:15:22Z</time>
      </trkpt>
      <trkpt lat="44.98179" lon="5.21665">
        <ele>1088</ele>
        <time>2014-11-24T14:15:35Z</time>
      </trkpt>
      <trkpt lat="44.98182" lon="5.21657">
        <ele>1090</ele>
        <time>2014-11-24T14:15:43Z</time>
      </trkpt>
      <trkpt lat="44.98179" lon="5.21644">
        <ele>1085</ele>
        <time>2014-11-24T14:15:50Z</time>
      </trkpt>
      <trkpt lat="44.98184" lon="5.21634">
        <ele>1084</ele>
        <time>2014-11-24T14:16:02Z</time>
      </trkpt>
      <trkpt lat="44.98186" lon="5.21626">
        <ele>1081</ele>
        <time>2014-11-24T14:16:10Z</time>
      </trkpt>
      <trkpt lat="44.98188" lon="5.21616">
        <ele>1080</ele>
        <time>2014-11-24T14:16:14Z</time>
      </trkpt>
      <trkpt lat="44.98192" lon="5.21606">
        <ele>1082</ele>
        <time>2014-11-24T14:16:22Z</time>
      </trkpt>
      <trkpt lat="44.98195" lon="5.21599">
        <ele>1082</ele>
        <time>2014-11-24T14:16:27Z</time>
      </trkpt>
      <trkpt lat="44.98194" lon="5.21587">
        <ele>1085</ele>
        <time>2014-11-24T14:16:38Z</time>
      </trkpt>
      <trkpt lat="44.982" lon="5.21579">
        <ele>1080</ele>
        <time>2014-11-24T14:16:55Z</time>
      </trkpt>
      <trkpt lat="44.98202" lon="5.21569">
        <ele>1072</ele>
        <time>2014-11-24T14:17:07Z</time>
      </trkpt>
      <trkpt lat="44.98204" lon="5.21557">
        <ele>1070</ele>
        <time>2014-11-24T14:17:22Z</time>
      </trkpt>
      <trkpt lat="44.9821" lon="5.21549">
        <ele>1066</ele>
        <time>2014-11-24T14:17:35Z</time>
      </trkpt>
      <trkpt lat="44.98212" lon="5.21538">
        <ele>1056</ele>
        <time>2014-11-24T14:18:02Z</time>
      </trkpt>
      <trkpt lat="44.98216" lon="5.2153">
        <ele>1058</ele>
        <time>2014-11-24T14:18:10Z</time>
      </trkpt>
      <trkpt lat="44.9822" lon="5.2152">
        <ele>1056</ele>
        <time>2014-11-24T14:18:17Z</time>
      </trkpt>
      <trkpt lat="44.98228" lon="5.21514">
        <ele>1053</ele>
        <time>2014-11-24T14:18:25Z</time>
      </trkpt>
      <trkpt lat="44.98233" lon="5.21508">
        <ele>1051</ele>
        <time>2014-11-24T14:18:32Z</time>
      </trkpt>
      <trkpt lat="44.98239" lon="5.21503">
        <ele>1051</ele>
        <time>2014-11-24T14:18:37Z</time>
      </trkpt>
      <trkpt lat="44.98247" lon="5.21498">
        <ele>1044</ele>
        <time>2014-11-24T14:19:04Z</time>
      </trkpt>
      <trkpt lat="44.98252" lon="5.21488">
        <ele>1037</ele>
        <time>2014-11-24T14:19:17Z</time>
      </trkpt>
      <trkpt lat="44.98253" lon="5.21482">
        <ele>1037</ele>
        <time>2014-11-24T14:19:25Z</time>
      </trkpt>
      <trkpt lat="44.98259" lon="5.21475">
        <ele>1038</ele>
        <time>2014-11-24T14:19:29Z</time>
      </trkpt>
      <trkpt lat="44.98265" lon="5.21467">
        <ele>1040</ele>
        <time>2014-11-24T14:19:37Z</time>
      </trkpt>
      <trkpt lat="44.98268" lon="5.2146">
        <ele>1034</ele>
        <time>2014-11-24T14:19:56Z</time>
      </trkpt>
      <trkpt lat="44.98273" lon="5.21451">
        <ele>1034</ele>
        <time>2014-11-24T14:20:00Z</time>
      </trkpt>
      <trkpt lat="44.98277" lon="5.2144">
        <ele>1033</ele>
        <time>2014-11-24T14:20:09Z</time>
      </trkpt>
      <trkpt lat="44.98282" lon="5.21432">
        <ele>1029</ele>
        <time>2014-11-24T14:20:20Z</time>
      </trkpt>
      <trkpt lat="44.98289" lon="5.21426">
        <ele>1025</ele>
        <time>2014-11-24T14:20:32Z</time>
      </trkpt>
      <trkpt lat="44.98297" lon="5.21426">
        <ele>1018</ele>
        <time>2014-11-24T14:21:51Z</time>
      </trkpt>
      <trkpt lat="44.98305" lon="5.21426">
        <ele>1015</ele>
        <time>2014-11-24T14:24:13Z</time>
      </trkpt>
      <trkpt lat="44.98311" lon="5.21418">
        <ele>1022</ele>
        <time>2014-11-24T14:24:21Z</time>
      </trkpt>
      <trkpt lat="44.98317" lon="5.2141">
        <ele>1018</ele>
        <time>2014-11-24T14:24:28Z</time>
      </trkpt>
      <trkpt lat="44.98323" lon="5.214">
        <ele>1020</ele>
        <time>2014-11-24T14:24:37Z</time>
      </trkpt>
      <trkpt lat="44.9833" lon="5.21392">
        <ele>1017</ele>
        <time>2014-11-24T14:24:46Z</time>
      </trkpt>
      <trkpt lat="44.98335" lon="5.21386">
        <ele>1017</ele>
        <time>2014-11-24T14:24:53Z</time>
      </trkpt>
      <trkpt lat="44.98341" lon="5.21382">
        <ele>1015</ele>
        <time>2014-11-24T14:24:59Z</time>
      </trkpt>
      <trkpt lat="44.98346" lon="5.21374">
        <ele>1013</ele>
        <time>2014-11-24T14:25:16Z</time>
      </trkpt>
      <trkpt lat="44.98352" lon="5.21364">
        <ele>1014</ele>
        <time>2014-11-24T14:25:26Z</time>
      </trkpt>
      <trkpt lat="44.98358" lon="5.21359">
        <ele>1015</ele>
        <time>2014-11-24T14:25:33Z</time>
      </trkpt>
      <trkpt lat="44.98363" lon="5.2135">
        <ele>1009</ele>
        <time>2014-11-24T14:25:45Z</time>
      </trkpt>
      <trkpt lat="44.9837" lon="5.21345">
        <ele>1005</ele>
        <time>2014-11-24T14:25:56Z</time>
      </trkpt>
      <trkpt lat="44.98372" lon="5.21334">
        <ele>1007</ele>
        <time>2014-11-24T14:26:08Z</time>
      </trkpt>
      <trkpt lat="44.98379" lon="5.21326">
        <ele>1006</ele>
        <time>2014-11-24T14:26:18Z</time>
      </trkpt>
      <trkpt lat="44.98385" lon="5.21322">
        <ele>1003</ele>
        <time>2014-11-24T14:26:26Z</time>
      </trkpt>
      <trkpt lat="44.9839" lon="5.21314">
        <ele>1003</ele>
        <time>2014-11-24T14:26:31Z</time>
      </trkpt>
      <trkpt lat="44.98394" lon="5.21303">
        <ele>1003</ele>
        <time>2014-11-24T14:26:46Z</time>
      </trkpt>
      <trkpt lat="44.98398" lon="5.21293">
        <ele>1007</ele>
        <time>2014-11-24T14:26:54Z</time>
      </trkpt>
      <trkpt lat="44.98406" lon="5.21286">
        <ele>1002</ele>
        <time>2014-11-24T14:27:05Z</time>
      </trkpt>
      <trkpt lat="44.98411" lon="5.21278">
        <ele>1003</ele>
        <time>2014-11-24T14:27:13Z</time>
      </trkpt>
      <trkpt lat="44.98418" lon="5.21271">
        <ele>999</ele>
        <time>2014-11-24T14:27:21Z</time>
      </trkpt>
      <trkpt lat="44.98425" lon="5.21265">
        <ele>995</ele>
        <time>2014-11-24T14:27:29Z</time>
      </trkpt>
      <trkpt lat="44.9843" lon="5.21257">
        <ele>992</ele>
        <time>2014-11-24T14:27:41Z</time>
      </trkpt>
      <trkpt lat="44.98434" lon="5.21251">
        <ele>992</ele>
        <time>2014-11-24T14:27:46Z</time>
      </trkpt>
      <trkpt lat="44.9844" lon="5.21245">
        <ele>992</ele>
        <time>2014-11-24T14:27:53Z</time>
      </trkpt>
      <trkpt lat="44.98444" lon="5.21238">
        <ele>984</ele>
        <time>2014-11-24T14:28:01Z</time>
      </trkpt>
      <trkpt lat="44.98453" lon="5.21234">
        <ele>981</ele>
        <time>2014-11-24T14:28:12Z</time>
      </trkpt>
      <trkpt lat="44.98459" lon="5.21227">
        <ele>985</ele>
        <time>2014-11-24T14:28:17Z</time>
      </trkpt>
      <trkpt lat="44.98467" lon="5.21222">
        <ele>982</ele>
        <time>2014-11-24T14:28:29Z</time>
      </trkpt>
      <trkpt lat="44.98473" lon="5.21213">
        <ele>984</ele>
        <time>2014-11-24T14:28:45Z</time>
      </trkpt>
      <trkpt lat="44.9847" lon="5.21201">
        <ele>971</ele>
        <time>2014-11-24T14:29:13Z</time>
      </trkpt>
      <trkpt lat="44.98473" lon="5.21189">
        <ele>973</ele>
        <time>2014-11-24T14:29:29Z</time>
      </trkpt>
      <trkpt lat="44.98476" lon="5.21177">
        <ele>967</ele>
        <time>2014-11-24T14:29:52Z</time>
      </trkpt>
      <trkpt lat="44.98478" lon="5.21166">
        <ele>965</ele>
        <time>2014-11-24T14:30:16Z</time>
      </trkpt>
      <trkpt lat="44.98479" lon="5.21154">
        <ele>965</ele>
        <time>2014-11-24T14:30:25Z</time>
      </trkpt>
      <trkpt lat="44.9848" lon="5.21144">
        <ele>966</ele>
        <time>2014-11-24T14:30:33Z</time>
      </trkpt>
      <trkpt lat="44.98487" lon="5.21138">
        <ele>961</ele>
        <time>2014-11-24T14:30:44Z</time>
      </trkpt>
      <trkpt lat="44.98495" lon="5.21132">
        <ele>957</ele>
        <time>2014-11-24T14:31:01Z</time>
      </trkpt>
      <trkpt lat="44.98498" lon="5.21122">
        <ele>951</ele>
        <time>2014-11-24T14:31:13Z</time>
      </trkpt>
      <trkpt lat="44.98501" lon="5.21113">
        <ele>954</ele>
        <time>2014-11-24T14:31:20Z</time>
      </trkpt>
      <trkpt lat="44.98503" lon="5.21102">
        <ele>957</ele>
        <time>2014-11-24T14:31:28Z</time>
      </trkpt>
      <trkpt lat="44.98509" lon="5.21094">
        <ele>947</ele>
        <time>2014-11-24T14:31:36Z</time>
      </trkpt>
      <trkpt lat="44.98509" lon="5.21083">
        <ele>947</ele>
        <time>2014-11-24T14:31:44Z</time>
      </trkpt>
      <trkpt lat="44.98513" lon="5.21073">
        <ele>942</ele>
        <time>2014-11-24T14:31:55Z</time>
      </trkpt>
      <trkpt lat="44.98514" lon="5.21061">
        <ele>945</ele>
        <time>2014-11-24T14:32:04Z</time>
      </trkpt>
      <trkpt lat="44.9852" lon="5.21054">
        <ele>941</ele>
        <time>2014-11-24T14:32:12Z</time>
      </trkpt>
      <trkpt lat="44.98524" lon="5.21044">
        <ele>936</ele>
        <time>2014-11-24T14:32:23Z</time>
      </trkpt>
      <trkpt lat="44.9853" lon="5.21035">
        <ele>933</ele>
        <time>2014-11-24T14:32:31Z</time>
      </trkpt>
      <trkpt lat="44.98534" lon="5.21026">
        <ele>928</ele>
        <time>2014-11-24T14:32:38Z</time>
      </trkpt>
      <trkpt lat="44.98539" lon="5.21019">
        <ele>923</ele>
        <time>2014-11-24T14:32:47Z</time>
      </trkpt>
      <trkpt lat="44.98533" lon="5.21025">
        <ele>914</ele>
        <time>2014-11-24T14:33:07Z</time>
      </trkpt>
      <trkpt lat="44.98524" lon="5.21026">
        <ele>905</ele>
        <time>2014-11-24T14:33:22Z</time>
      </trkpt>
      <trkpt lat="44.98517" lon="5.21022">
        <ele>907</ele>
        <time>2014-11-24T14:33:27Z</time>
      </trkpt>
      <trkpt lat="44.98509" lon="5.21023">
        <ele>902</ele>
        <time>2014-11-24T14:33:41Z</time>
      </trkpt>
      <trkpt lat="44.98501" lon="5.21023">
        <ele>900</ele>
        <time>2014-11-24T14:33:50Z</time>
      </trkpt>
      <trkpt lat="44.98493" lon="5.21025">
        <ele>895</ele>
        <time>2014-11-24T14:33:58Z</time>
      </trkpt>
      <trkpt lat="44.98485" lon="5.21024">
        <ele>892</ele>
        <time>2014-11-24T14:34:06Z</time>
      </trkpt>
      <trkpt lat="44.98479" lon="5.21018">
        <ele>892</ele>
        <time>2014-11-24T14:34:10Z</time>
      </trkpt>
      <trkpt lat="44.9847" lon="5.21015">
        <ele>888</ele>
        <time>2014-11-24T14:34:46Z</time>
      </trkpt>
      <trkpt lat="44.98468" lon="5.21027">
        <ele>883</ele>
        <time>2014-11-24T14:35:02Z</time>
      </trkpt>
      <trkpt lat="44.98463" lon="5.21036">
        <ele>882</ele>
        <time>2014-11-24T14:35:19Z</time>
      </trkpt>
      <trkpt lat="44.98457" lon="5.21045">
        <ele>937</ele>
        <time>2014-11-24T14:35:52Z</time>
      </trkpt>
      <trkpt lat="44.98451" lon="5.21051">
        <ele>887</ele>
        <time>2014-11-24T14:37:29Z</time>
      </trkpt>
      <trkpt lat="44.98444" lon="5.21058">
        <ele>881</ele>
        <time>2014-11-24T14:37:37Z</time>
      </trkpt>
      <trkpt lat="44.98436" lon="5.21063">
        <ele>879</ele>
        <time>2014-11-24T14:37:46Z</time>
      </trkpt>
      <trkpt lat="44.98429" lon="5.2107">
        <ele>874</ele>
        <time>2014-11-24T14:38:00Z</time>
      </trkpt>
      <trkpt lat="44.98422" lon="5.21075">
        <ele>867</ele>
        <time>2014-11-24T14:38:41Z</time>
      </trkpt>
      <trkpt lat="44.98413" lon="5.21079">
        <ele>867</ele>
        <time>2014-11-24T14:38:56Z</time>
      </trkpt>
      <trkpt lat="44.98406" lon="5.21085">
        <ele>869</ele>
        <time>2014-11-24T14:39:12Z</time>
      </trkpt>
      <trkpt lat="44.98397" lon="5.21086">
        <ele>858</ele>
        <time>2014-11-24T14:39:27Z</time>
      </trkpt>
      <trkpt lat="44.98388" lon="5.21086">
        <ele>858</ele>
        <time>2014-11-24T14:42:22Z</time>
      </trkpt>
      <trkpt lat="44.98383" lon="5.21095">
        <ele>853</ele>
        <time>2014-11-24T14:42:34Z</time>
      </trkpt>
      <trkpt lat="44.98377" lon="5.21095">
        <ele>858</ele>
        <time>2014-11-24T14:42:39Z</time>
      </trkpt>
      <trkpt lat="44.98368" lon="5.21097">
        <ele>858</ele>
        <time>2014-11-24T14:42:47Z</time>
      </trkpt>
      <trkpt lat="44.98364" lon="5.21099">
        <ele>860</ele>
        <time>2014-11-24T14:42:54Z</time>
      </trkpt>
      <trkpt lat="44.98356" lon="5.21103">
        <ele>858</ele>
        <time>2014-11-24T14:43:06Z</time>
      </trkpt>
      <trkpt lat="44.98348" lon="5.21111">
        <ele>854</ele>
        <time>2014-11-24T14:43:15Z</time>
      </trkpt>
      <trkpt lat="44.9834" lon="5.21112">
        <ele>851</ele>
        <time>2014-11-24T14:43:23Z</time>
      </trkpt>
      <trkpt lat="44.98332" lon="5.21112">
        <ele>852</ele>
        <time>2014-11-24T14:43:39Z</time>
      </trkpt>
      <trkpt lat="44.98323" lon="5.21114">
        <ele>850</ele>
        <time>2014-11-24T14:43:47Z</time>
      </trkpt>
      <trkpt lat="44.98317" lon="5.21113">
        <ele>847</ele>
        <time>2014-11-24T14:43:58Z</time>
      </trkpt>
      <trkpt lat="44.98314" lon="5.21112">
        <ele>850</ele>
        <time>2014-11-24T14:44:02Z</time>
      </trkpt>
      <trkpt lat="44.98307" lon="5.21105">
        <ele>857</ele>
        <time>2014-11-24T14:44:06Z</time>
      </trkpt>
      <trkpt lat="44.98302" lon="5.211">
        <ele>862</ele>
        <time>2014-11-24T14:44:23Z</time>
      </trkpt>
      <trkpt lat="44.98296" lon="5.21091">
        <ele>866</ele>
        <time>2014-11-24T14:44:27Z</time>
      </trkpt>
      <trkpt lat="44.98289" lon="5.21085">
        <ele>871</ele>
        <time>2014-11-24T14:44:31Z</time>
      </trkpt>
      <trkpt lat="44.98284" lon="5.21081">
        <ele>873</ele>
        <time>2014-11-24T14:44:38Z</time>
      </trkpt>
      <trkpt lat="44.98278" lon="5.21076">
        <ele>875</ele>
        <time>2014-11-24T14:44:42Z</time>
      </trkpt>
      <trkpt lat="44.98272" lon="5.21068">
        <ele>874</ele>
        <time>2014-11-24T14:44:51Z</time>
      </trkpt>
      <trkpt lat="44.98266" lon="5.2106">
        <ele>883</ele>
        <time>2014-11-24T14:44:58Z</time>
      </trkpt>
      <trkpt lat="44.98259" lon="5.21053">
        <ele>883</ele>
        <time>2014-11-24T14:45:06Z</time>
      </trkpt>
      <trkpt lat="44.98254" lon="5.21044">
        <ele>880</ele>
        <time>2014-11-24T14:45:15Z</time>
      </trkpt>
      <trkpt lat="44.98248" lon="5.21038">
        <ele>879</ele>
        <time>2014-11-24T14:45:26Z</time>
      </trkpt>
      <trkpt lat="44.98242" lon="5.21029">
        <ele>875</ele>
        <time>2014-11-24T14:45:34Z</time>
      </trkpt>
      <trkpt lat="44.98235" lon="5.21023">
        <ele>862</ele>
        <time>2014-11-24T14:45:46Z</time>
      </trkpt>
      <trkpt lat="44.98229" lon="5.21014">
        <ele>856</ele>
        <time>2014-11-24T14:46:00Z</time>
      </trkpt>
      <trkpt lat="44.98223" lon="5.21012">
        <ele>855</ele>
        <time>2014-11-24T14:46:06Z</time>
      </trkpt>
      <trkpt lat="44.98214" lon="5.21009">
        <ele>853</ele>
        <time>2014-11-24T14:46:11Z</time>
      </trkpt>
      <trkpt lat="44.98208" lon="5.21001">
        <ele>857</ele>
        <time>2014-11-24T14:46:15Z</time>
      </trkpt>
      <trkpt lat="44.98199" lon="5.20999">
        <ele>854</ele>
        <time>2014-11-24T14:46:26Z</time>
      </trkpt>
      <trkpt lat="44.98192" lon="5.20997">
        <ele>852</ele>
        <time>2014-11-24T14:46:31Z</time>
      </trkpt>
      <trkpt lat="44.98184" lon="5.20997">
        <ele>849</ele>
        <time>2014-11-24T14:46:45Z</time>
      </trkpt>
      <trkpt lat="44.98178" lon="5.20995">
        <ele>846</ele>
        <time>2014-11-24T14:46:53Z</time>
      </trkpt>
      <trkpt lat="44.98174" lon="5.20995">
        <ele>841</ele>
        <time>2014-11-24T14:46:58Z</time>
      </trkpt>
      <trkpt lat="44.98166" lon="5.20995">
        <ele>838</ele>
        <time>2014-11-24T14:47:02Z</time>
      </trkpt>
      <trkpt lat="44.98158" lon="5.20995">
        <ele>831</ele>
        <time>2014-11-24T14:47:09Z</time>
      </trkpt>
      <trkpt lat="44.9815" lon="5.20996">
        <ele>827</ele>
        <time>2014-11-24T14:47:21Z</time>
      </trkpt>
      <trkpt lat="44.98146" lon="5.20996">
        <ele>823</ele>
        <time>2014-11-24T14:47:33Z</time>
      </trkpt>
      <trkpt lat="44.98139" lon="5.20992">
        <ele>823</ele>
        <time>2014-11-24T14:47:37Z</time>
      </trkpt>
      <trkpt lat="44.98131" lon="5.20989">
        <ele>820</ele>
        <time>2014-11-24T14:47:45Z</time>
      </trkpt>
      <trkpt lat="44.98122" lon="5.20987">
        <ele>813</ele>
        <time>2014-11-24T14:47:57Z</time>
      </trkpt>
      <trkpt lat="44.98114" lon="5.20981">
        <ele>813</ele>
        <time>2014-11-24T14:48:03Z</time>
      </trkpt>
      <trkpt lat="44.98107" lon="5.20977">
        <ele>812</ele>
        <time>2014-11-24T14:48:18Z</time>
      </trkpt>
      <trkpt lat="44.98103" lon="5.20973">
        <ele>810</ele>
        <time>2014-11-24T14:48:22Z</time>
      </trkpt>
      <trkpt lat="44.98096" lon="5.20968">
        <ele>809</ele>
        <time>2014-11-24T14:48:36Z</time>
      </trkpt>
      <trkpt lat="44.98088" lon="5.20965">
        <ele>806</ele>
        <time>2014-11-24T14:48:44Z</time>
      </trkpt>
      <trkpt lat="44.98082" lon="5.20957">
        <ele>805</ele>
        <time>2014-11-24T14:48:52Z</time>
      </trkpt>
      <trkpt lat="44.98075" lon="5.20951">
        <ele>800</ele>
        <time>2014-11-24T14:49:07Z</time>
      </trkpt>
      <trkpt lat="44.98066" lon="5.20949">
        <ele>795</ele>
        <time>2014-11-24T14:49:11Z</time>
      </trkpt>
      <trkpt lat="44.98058" lon="5.20943">
        <ele>792</ele>
        <time>2014-11-24T14:49:23Z</time>
      </trkpt>
      <trkpt lat="44.98058" lon="5.20932">
        <ele>784</ele>
        <time>2014-11-24T14:50:08Z</time>
      </trkpt>
      <trkpt lat="44.98062" lon="5.20921">
        <ele>780</ele>
        <time>2014-11-24T14:50:27Z</time>
      </trkpt>
      <trkpt lat="44.98068" lon="5.20915">
        <ele>780</ele>
        <time>2014-11-24T14:50:39Z</time>
      </trkpt>
      <trkpt lat="44.98075" lon="5.20908">
        <ele>781</ele>
        <time>2014-11-24T14:50:47Z</time>
      </trkpt>
      <trkpt lat="44.98081" lon="5.20903">
        <ele>781</ele>
        <time>2014-11-24T14:50:51Z</time>
      </trkpt>
      <trkpt lat="44.98089" lon="5.20899">
        <ele>780</ele>
        <time>2014-11-24T14:50:56Z</time>
      </trkpt>
      <trkpt lat="44.98097" lon="5.20893">
        <ele>779</ele>
        <time>2014-11-24T14:51:04Z</time>
      </trkpt>
      <trkpt lat="44.98105" lon="5.20892">
        <ele>775</ele>
        <time>2014-11-24T14:51:16Z</time>
      </trkpt>
      <trkpt lat="44.98112" lon="5.20892">
        <ele>775</ele>
        <time>2014-11-24T14:51:23Z</time>
      </trkpt>
      <trkpt lat="44.98119" lon="5.20896">
        <ele>768</ele>
        <time>2014-11-24T14:51:36Z</time>
      </trkpt>
      <trkpt lat="44.98127" lon="5.20893">
        <ele>767</ele>
        <time>2014-11-24T14:51:40Z</time>
      </trkpt>
      <trkpt lat="44.98134" lon="5.20889">
        <ele>769</ele>
        <time>2014-11-24T14:51:48Z</time>
      </trkpt>
      <trkpt lat="44.98142" lon="5.20894">
        <ele>762</ele>
        <time>2014-11-24T14:52:10Z</time>
      </trkpt>
      <trkpt lat="44.9815" lon="5.20894">
        <ele>762</ele>
        <time>2014-11-24T14:52:18Z</time>
      </trkpt>
      <trkpt lat="44.98161" lon="5.20889">
        <ele>758</ele>
        <time>2014-11-24T14:52:22Z</time>
      </trkpt>
      <trkpt lat="44.98169" lon="5.20887">
        <ele>756</ele>
        <time>2014-11-24T14:52:31Z</time>
      </trkpt>
      <trkpt lat="44.98177" lon="5.20881">
        <ele>756</ele>
        <time>2014-11-24T14:52:38Z</time>
      </trkpt>
      <trkpt lat="44.98181" lon="5.20879">
        <ele>757</ele>
        <time>2014-11-24T14:52:42Z</time>
      </trkpt>
      <trkpt lat="44.9819" lon="5.20872">
        <ele>753</ele>
        <time>2014-11-24T14:52:46Z</time>
      </trkpt>
      <trkpt lat="44.98197" lon="5.20867">
        <ele>757</ele>
        <time>2014-11-24T14:52:50Z</time>
      </trkpt>
      <trkpt lat="44.98202" lon="5.20862">
        <ele>751</ele>
        <time>2014-11-24T14:52:59Z</time>
      </trkpt>
      <trkpt lat="44.98211" lon="5.20855">
        <ele>753</ele>
        <time>2014-11-24T14:53:03Z</time>
      </trkpt>
      <trkpt lat="44.98217" lon="5.20848">
        <ele>754</ele>
        <time>2014-11-24T14:53:14Z</time>
      </trkpt>
      <trkpt lat="44.98223" lon="5.20843">
        <ele>751</ele>
        <time>2014-11-24T14:53:22Z</time>
      </trkpt>
      <trkpt lat="44.98231" lon="5.20837">
        <ele>746</ele>
        <time>2014-11-24T14:53:26Z</time>
      </trkpt>
      <trkpt lat="44.98237" lon="5.20828">
        <ele>734</ele>
        <time>2014-11-24T14:53:39Z</time>
      </trkpt>
      <trkpt lat="44.98239" lon="5.20818">
        <ele>736</ele>
        <time>2014-11-24T14:53:51Z</time>
      </trkpt>
      <trkpt lat="44.98243" lon="5.20808">
        <ele>737</ele>
        <time>2014-11-24T14:53:58Z</time>
      </trkpt>
      <trkpt lat="44.98245" lon="5.20798">
        <ele>737</ele>
        <time>2014-11-24T14:54:02Z</time>
      </trkpt>
      <trkpt lat="44.98248" lon="5.20788">
        <ele>736</ele>
        <time>2014-11-24T14:54:07Z</time>
      </trkpt>
      <trkpt lat="44.98248" lon="5.20779">
        <ele>743</ele>
        <time>2014-11-24T14:54:14Z</time>
      </trkpt>
      <trkpt lat="44.98254" lon="5.20772">
        <ele>738</ele>
        <time>2014-11-24T14:54:18Z</time>
      </trkpt>
      <trkpt lat="44.98256" lon="5.2076">
        <ele>740</ele>
        <time>2014-11-24T14:54:26Z</time>
      </trkpt>
      <trkpt lat="44.98259" lon="5.20751">
        <ele>741</ele>
        <time>2014-11-24T14:54:34Z</time>
      </trkpt>
      <trkpt lat="44.98265" lon="5.20745">
        <ele>734</ele>
        <time>2014-11-24T14:54:38Z</time>
      </trkpt>
      <trkpt lat="44.9827" lon="5.20741">
        <ele>733</ele>
        <time>2014-11-24T14:54:43Z</time>
      </trkpt>
      <trkpt lat="44.98275" lon="5.20736">
        <ele>731</ele>
        <time>2014-11-24T14:54:47Z</time>
      </trkpt>
      <trkpt lat="44.9828" lon="5.20728">
        <ele>728</ele>
        <time>2014-11-24T14:54:55Z</time>
      </trkpt>
      <trkpt lat="44.98287" lon="5.20722">
        <ele>726</ele>
        <time>2014-11-24T14:55:03Z</time>
      </trkpt>
      <trkpt lat="44.98288" lon="5.2071">
        <ele>731</ele>
        <time>2014-11-24T14:55:15Z</time>
      </trkpt>
      <trkpt lat="44.98293" lon="5.20705">
        <ele>724</ele>
        <time>2014-11-24T14:55:22Z</time>
      </trkpt>
      <trkpt lat="44.98296" lon="5.20697">
        <ele>726</ele>
        <time>2014-11-24T14:55:27Z</time>
      </trkpt>
      <trkpt lat="44.98303" lon="5.20691">
        <ele>723</ele>
        <time>2014-11-24T14:55:31Z</time>
      </trkpt>
      <trkpt lat="44.98309" lon="5.20685">
        <ele>720</ele>
        <time>2014-11-24T14:55:38Z</time>
      </trkpt>
      <trkpt lat="44.98314" lon="5.20677">
        <ele>719</ele>
        <time>2014-11-24T14:55:50Z</time>
      </trkpt>
      <trkpt lat="44.98318" lon="5.20667">
        <ele>712</ele>
        <time>2014-11-24T14:56:03Z</time>
      </trkpt>
      <trkpt lat="44.98324" lon="5.20659">
        <ele>717</ele>
        <time>2014-11-24T14:56:10Z</time>
      </trkpt>
      <trkpt lat="44.98332" lon="5.2065">
        <ele>720</ele>
        <time>2014-11-24T14:56:14Z</time>
      </trkpt>
      <trkpt lat="44.98338" lon="5.20642">
        <ele>720</ele>
        <time>2014-11-24T14:56:22Z</time>
      </trkpt>
      <trkpt lat="44.98344" lon="5.20637">
        <ele>712</ele>
        <time>2014-11-24T14:56:31Z</time>
      </trkpt>
      <trkpt lat="44.98345" lon="5.20625">
        <ele>723</ele>
        <time>2014-11-24T14:56:39Z</time>
      </trkpt>
      <trkpt lat="44.98349" lon="5.20614">
        <ele>717</ele>
        <time>2014-11-24T14:56:46Z</time>
      </trkpt>
      <trkpt lat="44.98355" lon="5.20606">
        <ele>713</ele>
        <time>2014-11-24T14:56:55Z</time>
      </trkpt>
      <trkpt lat="44.9836" lon="5.20599">
        <ele>708</ele>
        <time>2014-11-24T14:57:02Z</time>
      </trkpt>
      <trkpt lat="44.98367" lon="5.20592">
        <ele>706</ele>
        <time>2014-11-24T14:57:07Z</time>
      </trkpt>
      <trkpt lat="44.98371" lon="5.20583">
        <ele>702</ele>
        <time>2014-11-24T14:57:18Z</time>
      </trkpt>
      <trkpt lat="44.98377" lon="5.20575">
        <ele>699</ele>
        <time>2014-11-24T14:57:23Z</time>
      </trkpt>
      <trkpt lat="44.98384" lon="5.20569">
        <ele>704</ele>
        <time>2014-11-24T14:57:31Z</time>
      </trkpt>
      <trkpt lat="44.9839" lon="5.20566">
        <ele>698</ele>
        <time>2014-11-24T14:57:35Z</time>
      </trkpt>
      <trkpt lat="44.98397" lon="5.2056">
        <ele>694</ele>
        <time>2014-11-24T14:57:39Z</time>
      </trkpt>
      <trkpt lat="44.98403" lon="5.20554">
        <ele>692</ele>
        <time>2014-11-24T14:57:46Z</time>
      </trkpt>
      <trkpt lat="44.98409" lon="5.20547">
        <ele>690</ele>
        <time>2014-11-24T14:57:51Z</time>
      </trkpt>
      <trkpt lat="44.98412" lon="5.20541">
        <ele>688</ele>
        <time>2014-11-24T14:57:58Z</time>
      </trkpt>
      <trkpt lat="44.98419" lon="5.20532">
        <ele>688</ele>
        <time>2014-11-24T14:58:03Z</time>
      </trkpt>
      <trkpt lat="44.98423" lon="5.20524">
        <ele>692</ele>
        <time>2014-11-24T14:58:10Z</time>
      </trkpt>
      <trkpt lat="44.98425" lon="5.20517">
        <ele>693</ele>
        <time>2014-11-24T14:58:15Z</time>
      </trkpt>
      <trkpt lat="44.98431" lon="5.20512">
        <ele>688</ele>
        <time>2014-11-24T14:58:19Z</time>
      </trkpt>
      <trkpt lat="44.98436" lon="5.20504">
        <ele>678</ele>
        <time>2014-11-24T14:58:26Z</time>
      </trkpt>
      <trkpt lat="44.98441" lon="5.20498">
        <ele>673</ele>
        <time>2014-11-24T14:58:30Z</time>
      </trkpt>
      <trkpt lat="44.98449" lon="5.20488">
        <ele>674</ele>
        <time>2014-11-24T14:58:34Z</time>
      </trkpt>
      <trkpt lat="44.98452" lon="5.20481">
        <ele>675</ele>
        <time>2014-11-24T14:58:40Z</time>
      </trkpt>
      <trkpt lat="44.98454" lon="5.2047">
        <ele>672</ele>
        <time>2014-11-24T14:58:47Z</time>
      </trkpt>
      <trkpt lat="44.9846" lon="5.20464">
        <ele>672</ele>
        <time>2014-11-24T14:58:51Z</time>
      </trkpt>
      <trkpt lat="44.98467" lon="5.20458">
        <ele>672</ele>
        <time>2014-11-24T14:58:55Z</time>
      </trkpt>
      <trkpt lat="44.9847" lon="5.2045">
        <ele>834</ele>
        <time>2014-11-24T14:58:59Z</time>
      </trkpt>
      <trkpt lat="44.98474" lon="5.20439">
        <ele>676</ele>
        <time>2014-11-24T14:59:43Z</time>
      </trkpt>
      <trkpt lat="44.9848" lon="5.20431">
        <ele>674</ele>
        <time>2014-11-24T14:59:51Z</time>
      </trkpt>
      <trkpt lat="44.98485" lon="5.20422">
        <ele>672</ele>
        <time>2014-11-24T14:59:59Z</time>
      </trkpt>
      <trkpt lat="44.98489" lon="5.20412">
        <ele>671</ele>
        <time>2014-11-24T15:00:08Z</time>
      </trkpt>
      <trkpt lat="44.98493" lon="5.20402">
        <ele>667</ele>
        <time>2014-11-24T15:00:19Z</time>
      </trkpt>
      <trkpt lat="44.98498" lon="5.20396">
        <ele>668</ele>
        <time>2014-11-24T15:00:23Z</time>
      </trkpt>
      <trkpt lat="44.98502" lon="5.20388">
        <ele>665</ele>
        <time>2014-11-24T15:00:27Z</time>
      </trkpt>
      <trkpt lat="44.98505" lon="5.2038">
        <ele>664</ele>
        <time>2014-11-24T15:00:31Z</time>
      </trkpt>
      <trkpt lat="44.9851" lon="5.20371">
        <ele>663</ele>
        <time>2014-11-24T15:00:38Z</time>
      </trkpt>
      <trkpt lat="44.98516" lon="5.20363">
        <ele>660</ele>
        <time>2014-11-24T15:01:43Z</time>
      </trkpt>
      <trkpt lat="44.98519" lon="5.20355">
        <ele>660</ele>
        <time>2014-11-24T15:01:48Z</time>
      </trkpt>
      <trkpt lat="44.98524" lon="5.20348">
        <ele>661</ele>
        <time>2014-11-24T15:01:55Z</time>
      </trkpt>
      <trkpt lat="44.9853" lon="5.20338">
        <ele>656</ele>
        <time>2014-11-24T15:02:01Z</time>
      </trkpt>
      <trkpt lat="44.98534" lon="5.20329">
        <ele>655</ele>
        <time>2014-11-24T15:02:07Z</time>
      </trkpt>
      <trkpt lat="44.98537" lon="5.20319">
        <ele>654</ele>
        <time>2014-11-24T15:02:12Z</time>
      </trkpt>
      <trkpt lat="44.98541" lon="5.20309">
        <ele>657</ele>
        <time>2014-11-24T15:02:19Z</time>
      </trkpt>
      <trkpt lat="44.98545" lon="5.20304">
        <ele>654</ele>
        <time>2014-11-24T15:02:23Z</time>
      </trkpt>
      <trkpt lat="44.98551" lon="5.20294">
        <ele>653</ele>
        <time>2014-11-24T15:02:28Z</time>
      </trkpt>
      <trkpt lat="44.98555" lon="5.20284">
        <ele>653</ele>
        <time>2014-11-24T15:02:36Z</time>
      </trkpt>
      <trkpt lat="44.98558" lon="5.20274">
        <ele>654</ele>
        <time>2014-11-24T15:02:44Z</time>
      </trkpt>
      <trkpt lat="44.98563" lon="5.20264">
        <ele>650</ele>
        <time>2014-11-24T15:02:49Z</time>
      </trkpt>
      <trkpt lat="44.98566" lon="5.20255">
        <ele>652</ele>
        <time>2014-11-24T15:02:55Z</time>
      </trkpt>
      <trkpt lat="44.98573" lon="5.20249">
        <ele>648</ele>
        <time>2014-11-24T15:02:59Z</time>
      </trkpt>
      <trkpt lat="44.98579" lon="5.20241">
        <ele>647</ele>
        <time>2014-11-24T15:03:06Z</time>
      </trkpt>
      <trkpt lat="44.98581" lon="5.20232">
        <ele>648</ele>
        <time>2014-11-24T15:03:11Z</time>
      </trkpt>
      <trkpt lat="44.98586" lon="5.20222">
        <ele>649</ele>
        <time>2014-11-24T15:03:18Z</time>
      </trkpt>
      <trkpt lat="44.98592" lon="5.20215">
        <ele>643</ele>
        <time>2014-11-24T15:03:23Z</time>
      </trkpt>
      <trkpt lat="44.98599" lon="5.2021">
        <ele>642</ele>
        <time>2014-11-24T15:03:27Z</time>
      </trkpt>
      <trkpt lat="44.98603" lon="5.20203">
        <ele>642</ele>
        <time>2014-11-24T15:03:31Z</time>
      </trkpt>
      <trkpt lat="44.98609" lon="5.20196">
        <ele>643</ele>
        <time>2014-11-24T15:03:38Z</time>
      </trkpt>
      <trkpt lat="44.98616" lon="5.20189">
        <ele>643</ele>
        <time>2014-11-24T15:03:43Z</time>
      </trkpt>
      <trkpt lat="44.98623" lon="5.20182">
        <ele>641</ele>
        <time>2014-11-24T15:03:50Z</time>
      </trkpt>
      <trkpt lat="44.98631" lon="5.20175">
        <ele>641</ele>
        <time>2014-11-24T15:03:55Z</time>
      </trkpt>
      <trkpt lat="44.98638" lon="5.20169">
        <ele>639</ele>
        <time>2014-11-24T15:04:02Z</time>
      </trkpt>
      <trkpt lat="44.98646" lon="5.20164">
        <ele>638</ele>
        <time>2014-11-24T15:04:07Z</time>
      </trkpt>
      <trkpt lat="44.98653" lon="5.20158">
        <ele>636</ele>
        <time>2014-11-24T15:04:14Z</time>
      </trkpt>
      <trkpt lat="44.9866" lon="5.20154">
        <ele>635</ele>
        <time>2014-11-24T15:04:19Z</time>
      </trkpt>
      <trkpt lat="44.98665" lon="5.20151">
        <ele>635</ele>
        <time>2014-11-24T15:04:23Z</time>
      </trkpt>
      <trkpt lat="44.9867" lon="5.20144">
        <ele>637</ele>
        <time>2014-11-24T15:04:28Z</time>
      </trkpt>
      <trkpt lat="44.98677" lon="5.20136">
        <ele>631</ele>
        <time>2014-11-24T15:04:34Z</time>
      </trkpt>
      <trkpt lat="44.98684" lon="5.2013">
        <ele>630</ele>
        <time>2014-11-24T15:04:39Z</time>
      </trkpt>
      <trkpt lat="44.98689" lon="5.20123">
        <ele>630</ele>
        <time>2014-11-24T15:04:46Z</time>
      </trkpt>
      <trkpt lat="44.98692" lon="5.20113">
        <ele>629</ele>
        <time>2014-11-24T15:04:51Z</time>
      </trkpt>
      <trkpt lat="44.98686" lon="5.20105">
        <ele>632</ele>
        <time>2014-11-24T15:04:58Z</time>
      </trkpt>
      <trkpt lat="44.98685" lon="5.20095">
        <ele>635</ele>
        <time>2014-11-24T15:05:02Z</time>
      </trkpt>
      <trkpt lat="44.98684" lon="5.20085">
        <ele>637</ele>
        <time>2014-11-24T15:05:07Z</time>
      </trkpt>
      <trkpt lat="44.98683" lon="5.20074">
        <ele>636</ele>
        <time>2014-11-24T15:05:13Z</time>
      </trkpt>
      <trkpt lat="44.9868" lon="5.20064">
        <ele>637</ele>
        <time>2014-11-24T15:05:18Z</time>
      </trkpt>
      <trkpt lat="44.98677" lon="5.20053">
        <ele>636</ele>
        <time>2014-11-24T15:05:25Z</time>
      </trkpt>
      <trkpt lat="44.98672" lon="5.20045">
        <ele>636</ele>
        <time>2014-11-24T15:05:29Z</time>
      </trkpt>
      <trkpt lat="44.98669" lon="5.20036">
        <ele>628</ele>
        <time>2014-11-24T15:05:37Z</time>
      </trkpt>
      <trkpt lat="44.98663" lon="5.2003">
        <ele>622</ele>
        <time>2014-11-24T15:05:42Z</time>
      </trkpt>
      <trkpt lat="44.98657" lon="5.20025">
        <ele>621</ele>
        <time>2014-11-24T15:05:49Z</time>
      </trkpt>
      <trkpt lat="44.98649" lon="5.20019">
        <ele>620</ele>
        <time>2014-11-24T15:05:54Z</time>
      </trkpt>
      <trkpt lat="44.98641" lon="5.20016">
        <ele>620</ele>
        <time>2014-11-24T15:06:01Z</time>
      </trkpt>
      <trkpt lat="44.98633" lon="5.20012">
        <ele>622</ele>
        <time>2014-11-24T15:06:06Z</time>
      </trkpt>
      <trkpt lat="44.98626" lon="5.20007">
        <ele>621</ele>
        <time>2014-11-24T15:06:13Z</time>
      </trkpt>
      <trkpt lat="44.98619" lon="5.20003">
        <ele>621</ele>
        <time>2014-11-24T15:06:18Z</time>
      </trkpt>
      <trkpt lat="44.98611" lon="5.19999">
        <ele>621</ele>
        <time>2014-11-24T15:06:25Z</time>
      </trkpt>
      <trkpt lat="44.98606" lon="5.19995">
        <ele>620</ele>
        <time>2014-11-24T15:06:29Z</time>
      </trkpt>
      <trkpt lat="44.98601" lon="5.19986">
        <ele>615</ele>
        <time>2014-11-24T15:06:34Z</time>
      </trkpt>
      <trkpt lat="44.98595" lon="5.19982">
        <ele>613</ele>
        <time>2014-11-24T15:06:39Z</time>
      </trkpt>
      <trkpt lat="44.98587" lon="5.19978">
        <ele>612</ele>
        <time>2014-11-24T15:06:46Z</time>
      </trkpt>
      <trkpt lat="44.9858" lon="5.19972">
        <ele>611</ele>
        <time>2014-11-24T15:06:51Z</time>
      </trkpt>
      <trkpt lat="44.98574" lon="5.19968">
        <ele>612</ele>
        <time>2014-11-24T15:06:57Z</time>
      </trkpt>
      <trkpt lat="44.98568" lon="5.19961">
        <ele>612</ele>
        <time>2014-11-24T15:07:02Z</time>
      </trkpt>
      <trkpt lat="44.98562" lon="5.19956">
        <ele>609</ele>
        <time>2014-11-24T15:07:06Z</time>
      </trkpt>
      <trkpt lat="44.98563" lon="5.19944">
        <ele>607</ele>
        <time>2014-11-24T15:07:13Z</time>
      </trkpt>
      <trkpt lat="44.98563" lon="5.19931">
        <ele>607</ele>
        <time>2014-11-24T15:07:18Z</time>
      </trkpt>
      <trkpt lat="44.98564" lon="5.19922">
        <ele>609</ele>
        <time>2014-11-24T15:07:25Z</time>
      </trkpt>
      <trkpt lat="44.98569" lon="5.19912">
        <ele>606</ele>
        <time>2014-11-24T15:07:30Z</time>
      </trkpt>
      <trkpt lat="44.98571" lon="5.19904">
        <ele>605</ele>
        <time>2014-11-24T15:07:34Z</time>
      </trkpt>
      <trkpt lat="44.98576" lon="5.19897">
        <ele>606</ele>
        <time>2014-11-24T15:07:38Z</time>
      </trkpt>
      <trkpt lat="44.98579" lon="5.19887">
        <ele>601</ele>
        <time>2014-11-24T15:07:45Z</time>
      </trkpt>
      <trkpt lat="44.98583" lon="5.1988">
        <ele>600</ele>
        <time>2014-11-24T15:07:49Z</time>
      </trkpt>
      <trkpt lat="44.98588" lon="5.1987">
        <ele>598</ele>
        <time>2014-11-24T15:07:54Z</time>
      </trkpt>
      <trkpt lat="44.98594" lon="5.19864">
        <ele>597</ele>
        <time>2014-11-24T15:07:58Z</time>
      </trkpt>
      <trkpt lat="44.986" lon="5.19856">
        <ele>601</ele>
        <time>2014-11-24T15:08:16Z</time>
      </trkpt>
      <trkpt lat="44.98604" lon="5.19847">
        <ele>604</ele>
        <time>2014-11-24T15:08:21Z</time>
      </trkpt>
      <trkpt lat="44.9861" lon="5.19837">
        <ele>600</ele>
        <time>2014-11-24T15:08:28Z</time>
      </trkpt>
      <trkpt lat="44.98615" lon="5.19829">
        <ele>599</ele>
        <time>2014-11-24T15:08:33Z</time>
      </trkpt>
      <trkpt lat="44.98622" lon="5.19826">
        <ele>610</ele>
        <time>2014-11-24T15:08:37Z</time>
      </trkpt>
      <trkpt lat="44.98628" lon="5.19817">
        <ele>607</ele>
        <time>2014-11-24T15:08:42Z</time>
      </trkpt>
      <trkpt lat="44.98633" lon="5.19812">
        <ele>602</ele>
        <time>2014-11-24T15:08:48Z</time>
      </trkpt>
      <trkpt lat="44.98639" lon="5.19804">
        <ele>606</ele>
        <time>2014-11-24T15:08:53Z</time>
      </trkpt>
      <trkpt lat="44.98643" lon="5.19796">
        <ele>607</ele>
        <time>2014-11-24T15:09:00Z</time>
      </trkpt>
      <trkpt lat="44.98648" lon="5.1979">
        <ele>610</ele>
        <time>2014-11-24T15:09:04Z</time>
      </trkpt>
      <trkpt lat="44.98653" lon="5.19785">
        <ele>608</ele>
        <time>2014-11-24T15:09:08Z</time>
      </trkpt>
      <trkpt lat="44.98661" lon="5.19779">
        <ele>605</ele>
        <time>2014-11-24T15:09:13Z</time>
      </trkpt>
      <trkpt lat="44.98667" lon="5.19772">
        <ele>590</ele>
        <time>2014-11-24T15:09:20Z</time>
      </trkpt>
      <trkpt lat="44.98672" lon="5.19763">
        <ele>586</ele>
        <time>2014-11-24T15:09:27Z</time>
      </trkpt>
      <trkpt lat="44.98676" lon="5.19753">
        <ele>585</ele>
        <time>2014-11-24T15:09:32Z</time>
      </trkpt>
      <trkpt lat="44.9868" lon="5.19744">
        <ele>585</ele>
        <time>2014-11-24T15:09:39Z</time>
      </trkpt>
      <trkpt lat="44.98685" lon="5.19734">
        <ele>586</ele>
        <time>2014-11-24T15:09:44Z</time>
      </trkpt>
      <trkpt lat="44.98691" lon="5.19726">
        <ele>584</ele>
        <time>2014-11-24T15:09:51Z</time>
      </trkpt>
      <trkpt lat="44.98697" lon="5.19721">
        <ele>584</ele>
        <time>2014-11-24T15:09:55Z</time>
      </trkpt>
      <trkpt lat="44.98705" lon="5.19719">
        <ele>582</ele>
        <time>2014-11-24T15:09:59Z</time>
      </trkpt>
      <trkpt lat="44.98712" lon="5.19713">
        <ele>582</ele>
        <time>2014-11-24T15:10:04Z</time>
      </trkpt>
      <trkpt lat="44.98719" lon="5.19709">
        <ele>584</ele>
        <time>2014-11-24T15:10:11Z</time>
      </trkpt>
      <trkpt lat="44.98727" lon="5.1971">
        <ele>582</ele>
        <time>2014-11-24T15:10:15Z</time>
      </trkpt>
      <trkpt lat="44.98733" lon="5.19712">
        <ele>581</ele>
        <time>2014-11-24T15:10:19Z</time>
      </trkpt>
      <trkpt lat="44.9874" lon="5.19715">
        <ele>582</ele>
        <time>2014-11-24T15:10:23Z</time>
      </trkpt>
      <trkpt lat="44.98748" lon="5.1972">
        <ele>580</ele>
        <time>2014-11-24T15:10:30Z</time>
      </trkpt>
      <trkpt lat="44.98756" lon="5.19722">
        <ele>578</ele>
        <time>2014-11-24T15:10:38Z</time>
      </trkpt>
      <trkpt lat="44.98762" lon="5.19724">
        <ele>577</ele>
        <time>2014-11-24T15:10:42Z</time>
      </trkpt>
      <trkpt lat="44.98769" lon="5.19729">
        <ele>572</ele>
        <time>2014-11-24T15:10:47Z</time>
      </trkpt>
      <trkpt lat="44.98776" lon="5.19734">
        <ele>570</ele>
        <time>2014-11-24T15:10:54Z</time>
      </trkpt>
      <trkpt lat="44.98782" lon="5.19737">
        <ele>569</ele>
        <time>2014-11-24T15:11:06Z</time>
      </trkpt>
      <trkpt lat="44.9879" lon="5.1974">
        <ele>567</ele>
        <time>2014-11-24T15:11:11Z</time>
      </trkpt>
      <trkpt lat="44.98797" lon="5.19744">
        <ele>565</ele>
        <time>2014-11-24T15:11:18Z</time>
      </trkpt>
      <trkpt lat="44.98805" lon="5.19748">
        <ele>565</ele>
        <time>2014-11-24T15:11:23Z</time>
      </trkpt>
      <trkpt lat="44.98811" lon="5.19749">
        <ele>566</ele>
        <time>2014-11-24T15:11:27Z</time>
      </trkpt>
      <trkpt lat="44.98818" lon="5.19751">
        <ele>565</ele>
        <time>2014-11-24T15:11:31Z</time>
      </trkpt>
      <trkpt lat="44.98824" lon="5.19751">
        <ele>564</ele>
        <time>2014-11-24T15:11:35Z</time>
      </trkpt>
      <trkpt lat="44.98833" lon="5.19752">
        <ele>564</ele>
        <time>2014-11-24T15:11:42Z</time>
      </trkpt>
      <trkpt lat="44.98838" lon="5.19754">
        <ele>563</ele>
        <time>2014-11-24T15:11:46Z</time>
      </trkpt>
      <trkpt lat="44.98846" lon="5.19755">
        <ele>562</ele>
        <time>2014-11-24T15:11:50Z</time>
      </trkpt>
      <trkpt lat="44.98854" lon="5.19758">
        <ele>564</ele>
        <time>2014-11-24T15:12:44Z</time>
      </trkpt>
      <trkpt lat="44.98862" lon="5.19763">
        <ele>563</ele>
        <time>2014-11-24T15:12:55Z</time>
      </trkpt>
      <trkpt lat="44.98869" lon="5.19768">
        <ele>564</ele>
        <time>2014-11-24T15:13:03Z</time>
      </trkpt>
      <trkpt lat="44.98875" lon="5.19775">
        <ele>565</ele>
        <time>2014-11-24T15:13:08Z</time>
      </trkpt>
      <trkpt lat="44.98881" lon="5.19782">
        <ele>565</ele>
        <time>2014-11-24T15:13:15Z</time>
      </trkpt>
      <trkpt lat="44.98888" lon="5.19789">
        <ele>565</ele>
        <time>2014-11-24T15:13:23Z</time>
      </trkpt>
      <trkpt lat="44.98893" lon="5.19796">
        <ele>565</ele>
        <time>2014-11-24T15:13:28Z</time>
      </trkpt>
      <trkpt lat="44.98899" lon="5.19803">
        <ele>566</ele>
        <time>2014-11-24T15:13:36Z</time>
      </trkpt>
      <trkpt lat="44.98907" lon="5.19806">
        <ele>564</ele>
        <time>2014-11-24T15:13:43Z</time>
      </trkpt>
      <trkpt lat="44.98915" lon="5.19808">
        <ele>562</ele>
        <time>2014-11-24T15:13:48Z</time>
      </trkpt>
      <trkpt lat="44.98923" lon="5.19807">
        <ele>563</ele>
        <time>2014-11-24T15:13:55Z</time>
      </trkpt>
      <trkpt lat="44.98931" lon="5.19809">
        <ele>564</ele>
        <time>2014-11-24T15:14:00Z</time>
      </trkpt>
      <trkpt lat="44.9894" lon="5.1981">
        <ele>564</ele>
        <time>2014-11-24T15:14:07Z</time>
      </trkpt>
      <trkpt lat="44.98948" lon="5.19813">
        <ele>565</ele>
        <time>2014-11-24T15:14:15Z</time>
      </trkpt>
      <trkpt lat="44.98956" lon="5.19811">
        <ele>564</ele>
        <time>2014-11-24T15:14:20Z</time>
      </trkpt>
      <trkpt lat="44.98965" lon="5.1981">
        <ele>560</ele>
        <time>2014-11-24T15:14:26Z</time>
      </trkpt>
      <trkpt lat="44.98971" lon="5.19813">
        <ele>559</ele>
        <time>2014-11-24T15:14:32Z</time>
      </trkpt>
      <trkpt lat="44.98977" lon="5.19815">
        <ele>559</ele>
        <time>2014-11-24T15:14:36Z</time>
      </trkpt>
      <trkpt lat="44.98983" lon="5.19816">
        <ele>559</ele>
        <time>2014-11-24T15:14:40Z</time>
      </trkpt>
      <trkpt lat="44.9899" lon="5.19815">
        <ele>558</ele>
        <time>2014-11-24T15:14:44Z</time>
      </trkpt>
      <trkpt lat="44.98997" lon="5.19807">
        <ele>555</ele>
        <time>2014-11-24T15:14:49Z</time>
      </trkpt>
      <trkpt lat="44.99003" lon="5.19801">
        <ele>555</ele>
        <time>2014-11-24T15:14:54Z</time>
      </trkpt>
      <trkpt lat="44.9901" lon="5.19798">
        <ele>554</ele>
        <time>2014-11-24T15:15:00Z</time>
      </trkpt>
      <trkpt lat="44.99017" lon="5.19799">
        <ele>552</ele>
        <time>2014-11-24T15:15:04Z</time>
      </trkpt>
      <trkpt lat="44.99024" lon="5.19801">
        <ele>549</ele>
        <time>2014-11-24T15:15:09Z</time>
      </trkpt>
      <trkpt lat="44.9903" lon="5.19805">
        <ele>549</ele>
        <time>2014-11-24T15:15:16Z</time>
      </trkpt>
      <trkpt lat="44.99038" lon="5.19809">
        <ele>553</ele>
        <time>2014-11-24T15:15:21Z</time>
      </trkpt>
      <trkpt lat="44.99046" lon="5.19814">
        <ele>555</ele>
        <time>2014-11-24T15:15:28Z</time>
      </trkpt>
      <trkpt lat="44.99051" lon="5.19818">
        <ele>557</ele>
        <time>2014-11-24T15:15:32Z</time>
      </trkpt>
      <trkpt lat="44.99058" lon="5.19822">
        <ele>557</ele>
        <time>2014-11-24T15:15:37Z</time>
      </trkpt>
      <trkpt lat="44.99064" lon="5.19825">
        <ele>558</ele>
        <time>2014-11-24T15:15:41Z</time>
      </trkpt>
      <trkpt lat="44.99073" lon="5.19825">
        <ele>559</ele>
        <time>2014-11-24T15:15:48Z</time>
      </trkpt>
      <trkpt lat="44.99079" lon="5.19833">
        <ele>580</ele>
        <time>2014-11-24T15:16:15Z</time>
      </trkpt>
      <trkpt lat="44.99087" lon="5.19836">
        <ele>561</ele>
        <time>2014-11-24T15:16:22Z</time>
      </trkpt>
      <trkpt lat="44.99094" lon="5.1984">
        <ele>560</ele>
        <time>2014-11-24T15:16:29Z</time>
      </trkpt>
      <trkpt lat="44.991" lon="5.19846">
        <ele>558</ele>
        <time>2014-11-24T15:16:34Z</time>
      </trkpt>
      <trkpt lat="44.99107" lon="5.19849">
        <ele>558</ele>
        <time>2014-11-24T15:16:41Z</time>
      </trkpt>
      <trkpt lat="44.99113" lon="5.19852">
        <ele>555</ele>
        <time>2014-11-24T15:16:45Z</time>
      </trkpt>
      <trkpt lat="44.99119" lon="5.19854">
        <ele>555</ele>
        <time>2014-11-24T15:16:50Z</time>
      </trkpt>
      <trkpt lat="44.99125" lon="5.19855">
        <ele>551</ele>
        <time>2014-11-24T15:16:54Z</time>
      </trkpt>
      <trkpt lat="44.99132" lon="5.19855">
        <ele>547</ele>
        <time>2014-11-24T15:16:58Z</time>
      </trkpt>
      <trkpt lat="44.99139" lon="5.19854">
        <ele>546</ele>
        <time>2014-11-24T15:17:05Z</time>
      </trkpt>
      <trkpt lat="44.99144" lon="5.19845">
        <ele>545</ele>
        <time>2014-11-24T15:17:13Z</time>
      </trkpt>
      <trkpt lat="44.99145" lon="5.19833">
        <ele>545</ele>
        <time>2014-11-24T15:17:21Z</time>
      </trkpt>
      <trkpt lat="44.99149" lon="5.19826">
        <ele>544</ele>
        <time>2014-11-24T15:17:25Z</time>
      </trkpt>
      <trkpt lat="44.99154" lon="5.19817">
        <ele>543</ele>
        <time>2014-11-24T15:17:30Z</time>
      </trkpt>
      <trkpt lat="44.9916" lon="5.19809">
        <ele>542</ele>
        <time>2014-11-24T15:17:42Z</time>
      </trkpt>
      <trkpt lat="44.99167" lon="5.19804">
        <ele>541</ele>
        <time>2014-11-24T15:17:50Z</time>
      </trkpt>
      <trkpt lat="44.99171" lon="5.19804">
        <ele>538</ele>
        <time>2014-11-24T15:18:34Z</time>
      </trkpt>
      <trkpt lat="44.99171" lon="5.19804">
        <ele>538</ele>
        <time>2014-11-24T15:18:35Z</time>
      </trkpt>
    </trkseg>
  </trk>
</gpx>